Darstellungsparameter: Aktuell verwendete Einstellungen:
Skalierung der Graphiken ... ?
xyx+y,   Skalierungsfaktor:      Skalierung: Modus: x, Faktor: 1
Darstellungszeitraum ... ?
Vom - - bis: - -   Zeitraum: 23.10.2008 - 12.11.2008
Min/Max/Avg-Anzeige ... ?
Zeige MMA aktuell
Zeige MMA Monat
Zeige MMA alles
Zeige --A aktuell
Zeige --A Monat
Zeige --A alles
Keine MMA-Anzeige
MMA:
Average (ber die Originaldaten)
MMA-Basis: 17.04.2019 - 19.05.2019
Quicknavigation für Darstellung... ?
Tage:      1T, 2T, 3T, 5T -1T -2T -3T -5T +1T +2T +3T +5T
Wochen: 1W, 2W, 3W -1W -2W -3W +1W +2W +3W
Monate: 1M, 3M, 6M -1M -3M -6M +1M +3M +6M
Jahre:    1J, 3J, 5J, 10J -1J -3J -5J -10J +1J +3J +5J +10J
Nutze für die Darstellung ... ?
Originaldaten oder Mittelwerte auf ...
Stundenbasis Tagesbasis Wochenbasis
Monatsbasis Jahresbasis      Datenbasis: Original-Daten
Darstellen als:
Statistik (Auto) Statistik J:M      Darstellung:
Zur Graphik,    zurück zur Übersicht aller Sensoren.
 
Tabellarische Datenbersicht: ?
 
Sensor: Nr:Datum:Temp:Abs-Feuchte:Windchill:Wind:
Aussen-T/F 1 23-10-2008 00:04:04 6.6 C 6.87 g/m*3 6.6 C 0 km/h
2 23-10-2008 00:09:04 6.6 C 6.87 g/m*3 6.6 C 0 km/h
3 23-10-2008 00:14:04 6.6 C 6.87 g/m*3 6.6 C 0 km/h
4 23-10-2008 00:19:04 6.5 C 6.82 g/m*3 6.5 C 0 km/h
5 23-10-2008 00:24:04 6.5 C 6.9 g/m*3 6.5 C 0 km/h
6 23-10-2008 00:29:04 6.3 C 6.81 g/m*3 6.3 C 0 km/h
7 23-10-2008 00:34:04 6.3 C 6.81 g/m*3 6.3 C 0 km/h
8 23-10-2008 00:39:04 6.3 C 6.81 g/m*3 6.3 C 0 km/h
9 23-10-2008 00:44:04 6.2 C 6.77 g/m*3 6.2 C 0 km/h
10 23-10-2008 00:49:05 6.2 C 6.77 g/m*3 6.2 C 0 km/h
11 23-10-2008 00:54:05 6.1 C 6.72 g/m*3 6.1 C 0 km/h
12 23-10-2008 00:59:05 6.1 C 6.72 g/m*3 6.1 C 0 km/h
13 23-10-2008 01:04:05 6.1 C 6.72 g/m*3 6.1 C 0 km/h
14 23-10-2008 01:09:05 6 C 6.75 g/m*3 6 C 0 km/h
15 23-10-2008 01:14:05 6 C 6.75 g/m*3 6 C 0 km/h
16 23-10-2008 01:19:05 6 C 6.75 g/m*3 6 C 0 km/h
17 23-10-2008 01:24:05 5.9 C 6.78 g/m*3 5.9 C 0 km/h
18 23-10-2008 01:29:05 5.8 C 6.73 g/m*3 5.8 C 0 km/h
19 23-10-2008 01:34:05 5.9 C 6.78 g/m*3 5.9 C 0 km/h
20 23-10-2008 01:39:05 5.9 C 6.85 g/m*3 5.9 C 0 km/h
21 23-10-2008 01:44:05 6 C 6.82 g/m*3 6 C 0 km/h
22 23-10-2008 01:49:05 6 C 6.82 g/m*3 6 C 0 km/h
23 23-10-2008 01:54:05 5.8 C 6.81 g/m*3 5.8 C 0 km/h
24 23-10-2008 01:59:05 5.8 C 6.81 g/m*3 5.8 C 0 km/h
25 23-10-2008 02:04:05 5.9 C 6.85 g/m*3 5.9 C 0 km/h
Sensor: Nr:Datum:Temp:Abs-Feuchte:Windchill:Wind:
Aussen-T/F 26 23-10-2008 02:09:05 5.8 C 6.81 g/m*3 5.8 C 0 km/h
27 23-10-2008 02:14:05 5.9 C 6.85 g/m*3 5.9 C 0 km/h
28 23-10-2008 02:19:05 5.9 C 6.85 g/m*3 5.9 C 0 km/h
29 23-10-2008 02:24:05 6 C 6.82 g/m*3 6 C 0 km/h
30 23-10-2008 02:29:05 6 C 6.82 g/m*3 6 C 0 km/h
31 23-10-2008 02:34:06 6.1 C 6.87 g/m*3 6.1 C 0 km/h
32 23-10-2008 02:39:06 6.4 C 7.08 g/m*3 6.4 C 0 km/h
33 23-10-2008 02:44:06 6.5 C 7.12 g/m*3 6.5 C 0 km/h
34 23-10-2008 02:49:06 6.7 C 7.22 g/m*3 6.7 C 0 km/h
35 23-10-2008 02:54:06 6.7 C 7.22 g/m*3 6.7 C 0 km/h
36 23-10-2008 02:59:06 6.8 C 7.27 g/m*3 6.8 C 0 km/h
37 23-10-2008 03:04:06 6.8 C 7.27 g/m*3 6.8 C 0 km/h
38 23-10-2008 03:09:06 6.9 C 7.31 g/m*3 6.9 C 0 km/h
39 23-10-2008 03:14:06 6.9 C 7.31 g/m*3 6.9 C 0 km/h
40 23-10-2008 03:19:06 7 C 7.28 g/m*3 7 C 0 km/h
41 23-10-2008 03:24:06 7 C 7.28 g/m*3 7 C 0 km/h
42 23-10-2008 03:29:06 7 C 7.28 g/m*3 7 C 0 km/h
43 23-10-2008 03:34:06 7 C 7.28 g/m*3 7 C 0 km/h
44 23-10-2008 03:39:06 7 C 7.28 g/m*3 7 C 0 km/h
45 23-10-2008 03:44:06 6.9 C 7.24 g/m*3 6.9 C 0 km/h
46 23-10-2008 03:49:06 7 C 7.21 g/m*3 7 C 0 km/h
47 23-10-2008 03:54:06 7 C 7.21 g/m*3 7 C 0 km/h
48 23-10-2008 03:59:06 7 C 7.21 g/m*3 7 C 0 km/h
49 23-10-2008 04:04:06 7 C 7.21 g/m*3 7 C 0 km/h
50 23-10-2008 04:09:06 7.1 C 7.25 g/m*3 7.1 C 0 km/h
Sensor: Nr:Datum:Temp:Abs-Feuchte:Windchill:Wind:
Aussen-T/F 51 23-10-2008 04:14:07 7.3 C 7.27 g/m*3 7.3 C 0 km/h
52 23-10-2008 04:19:07 7.3 C 7.35 g/m*3 7.3 C 0 km/h
53 23-10-2008 04:24:07 7.2 C 7.3 g/m*3 7.2 C 0 km/h
54 23-10-2008 04:29:07 7.3 C 7.27 g/m*3 7.3 C 0 km/h
55 23-10-2008 04:34:07 7.3 C 7.27 g/m*3 7.3 C 0 km/h
56 23-10-2008 04:39:07 7.3 C 7.27 g/m*3 7.3 C 0 km/h
57 23-10-2008 04:44:07 7.3 C 7.27 g/m*3 7.3 C 0 km/h
58 23-10-2008 04:49:07 7.3 C 7.27 g/m*3 7.3 C 0 km/h
59 23-10-2008 04:54:07 7.3 C 7.27 g/m*3 7.3 C 0 km/h
60 23-10-2008 04:59:07 7.4 C 7.24 g/m*3 7.4 C 0 km/h
61 23-10-2008 05:04:07 7.3 C 7.19 g/m*3 7.3 C 0 km/h
62 23-10-2008 05:09:07 7.3 C 7.19 g/m*3 7.3 C 0 km/h
63 23-10-2008 05:14:07 7.3 C 7.11 g/m*3 7.3 C 0 km/h
64 23-10-2008 05:19:07 7.3 C 7.11 g/m*3 7.3 C 0 km/h
65 23-10-2008 05:24:07 7.3 C 7.11 g/m*3 7.3 C 0 km/h
66 23-10-2008 05:29:07 7.3 C 7.03 g/m*3 7.3 C 0 km/h
67 23-10-2008 05:34:07 7.3 C 6.95 g/m*3 7.3 C 0 km/h
68 23-10-2008 05:39:07 7.4 C 6.92 g/m*3 7.4 C 0 km/h
69 23-10-2008 05:44:07 7.4 C 6.92 g/m*3 7.4 C 0 km/h
70 23-10-2008 05:49:07 7.4 C 6.84 g/m*3 7.4 C 0 km/h
71 23-10-2008 05:54:08 7.4 C 6.84 g/m*3 7.4 C 0 km/h
72 23-10-2008 05:59:08 7.4 C 6.76 g/m*3 7.4 C 0 km/h
73 23-10-2008 06:04:08 7.4 C 6.76 g/m*3 7.4 C 0 km/h
74 23-10-2008 06:09:08 7.5 C 6.8 g/m*3 7.5 C 0 km/h
75 23-10-2008 06:14:08 7.5 C 6.8 g/m*3 7.5 C 0 km/h
Sensor: Nr:Datum:Temp:Abs-Feuchte:Windchill:Wind:
Aussen-T/F 76 23-10-2008 06:19:08 7.5 C 6.8 g/m*3 7.5 C 0 km/h
77 23-10-2008 06:24:08 7.5 C 6.72 g/m*3 7.5 C 0 km/h
78 23-10-2008 06:29:08 7.5 C 6.72 g/m*3 7.5 C 0 km/h
79 23-10-2008 06:34:08 7.5 C 6.72 g/m*3 7.5 C 0 km/h
80 23-10-2008 06:39:08 7.4 C 6.68 g/m*3 7.4 C 0 km/h
81 23-10-2008 06:44:08 7.4 C 6.68 g/m*3 7.4 C 0 km/h
82 23-10-2008 06:49:08 7.4 C 6.68 g/m*3 7.4 C 0 km/h
83 23-10-2008 06:54:08 7.4 C 6.68 g/m*3 7.4 C 0 km/h
84 23-10-2008 06:59:08 7.4 C 6.68 g/m*3 7.4 C 0 km/h
85 23-10-2008 07:04:02 7.4 C 6.68 g/m*3 7.4 C 0 km/h
86 23-10-2008 07:09:02 7.4 C 6.68 g/m*3 7.4 C 0 km/h
87 23-10-2008 07:14:02 7.4 C 6.76 g/m*3 7.4 C 0 km/h
88 23-10-2008 07:19:03 7.4 C 6.76 g/m*3 7.4 C 0 km/h
89 23-10-2008 07:24:03 7.4 C 6.76 g/m*3 7.4 C 0 km/h
90 23-10-2008 07:29:03 7.4 C 6.76 g/m*3 7.4 C 0 km/h
91 23-10-2008 07:34:02 7.4 C 6.76 g/m*3 7.4 C 0 km/h
92 23-10-2008 07:39:02 7.4 C 6.76 g/m*3 7.4 C 0 km/h
93 23-10-2008 07:44:02 7.4 C 6.76 g/m*3 7.4 C 0 km/h
94 23-10-2008 07:49:01 7.4 C 6.76 g/m*3 7.4 C 0 km/h
95 23-10-2008 07:54:01 7.4 C 6.76 g/m*3 7.4 C 0 km/h
96 23-10-2008 07:59:01 7.4 C 6.76 g/m*3 7.4 C 0 km/h
97 23-10-2008 08:04:02 7.4 C 6.76 g/m*3 7.4 C 0 km/h
98 23-10-2008 08:09:02 7.4 C 6.76 g/m*3 7.4 C 0 km/h
99 23-10-2008 08:14:02 7.4 C 6.76 g/m*3 7.4 C 0 km/h
100 23-10-2008 08:19:01 7.4 C 6.76 g/m*3 7.4 C 0 km/h
Sensor: Nr:Datum:Temp:Abs-Feuchte:Windchill:Wind:
Aussen-T/F 101 23-10-2008 08:24:01 7.3 C 6.72 g/m*3 7.3 C 0 km/h
102 23-10-2008 08:29:01 7.4 C 6.76 g/m*3 7.4 C 0 km/h
103 23-10-2008 08:34:01 7.4 C 6.76 g/m*3 7.4 C 0 km/h
104 23-10-2008 08:39:01 7.4 C 6.76 g/m*3 7.4 C 0 km/h
105 23-10-2008 08:44:01 7.4 C 6.76 g/m*3 7.4 C 0 km/h
106 23-10-2008 08:49:02 7.5 C 6.8 g/m*3 7.5 C 0 km/h
107 23-10-2008 08:54:02 7.5 C 6.88 g/m*3 7.5 C 0 km/h
108 23-10-2008 08:59:02 7.6 C 6.85 g/m*3 7.6 C 0 km/h
109 23-10-2008 09:04:01 7.7 C 6.81 g/m*3 7.7 C 0 km/h
110 23-10-2008 09:09:01 7.8 C 6.77 g/m*3 7.8 C 0 km/h
111 23-10-2008 09:14:01 7.8 C 6.77 g/m*3 7.8 C 0 km/h
112 23-10-2008 09:19:01 7.9 C 6.74 g/m*3 7.9 C 0 km/h
113 23-10-2008 09:24:01 8 C 6.53 g/m*3 8 C 0 km/h
114 23-10-2008 09:29:01 8 C 6.45 g/m*3 8 C 0 km/h
115 23-10-2008 09:34:01 8.1 C 6.41 g/m*3 8.1 C 0 km/h
116 23-10-2008 09:39:01 8.1 C 6.41 g/m*3 8.1 C 0 km/h
117 23-10-2008 09:44:01 8.2 C 6.45 g/m*3 8.2 C 0 km/h
118 23-10-2008 09:49:03 8.3 C 6.49 g/m*3 8.3 C 0 km/h
119 23-10-2008 09:54:03 8.3 C 6.32 g/m*3 8.3 C 0 km/h
120 23-10-2008 09:59:03 8.4 C 6.36 g/m*3 8.4 C 0 km/h
121 23-10-2008 10:04:02 8.4 C 6.36 g/m*3 8.4 C 0 km/h
122 23-10-2008 10:09:02 8.5 C 6.32 g/m*3 8.5 C 0 km/h
123 23-10-2008 10:14:02 8.6 C 6.36 g/m*3 8.6 C 0 km/h
124 23-10-2008 10:19:02 8.7 C 6.4 g/m*3 8.7 C 0 km/h
125 23-10-2008 10:24:02 8.7 C 6.31 g/m*3 8.7 C 0 km/h
Sensor: Nr:Datum:Temp:Abs-Feuchte:Windchill:Wind:
Aussen-T/F 126 23-10-2008 10:29:02 8.7 C 6.23 g/m*3 8.7 C 0 km/h
127 23-10-2008 10:34:02 8.8 C 6.27 g/m*3 8.8 C 0 km/h
128 23-10-2008 10:39:02 8.9 C 6.22 g/m*3 8.9 C 0 km/h
129 23-10-2008 10:44:02 9.1 C 6.21 g/m*3 9.1 C 0 km/h
130 23-10-2008 10:49:02 9.1 C 6.3 g/m*3 9.1 C 0 km/h
131 23-10-2008 10:54:03 9.2 C 6.34 g/m*3 9.2 C 0 km/h
132 23-10-2008 10:59:03 9.2 C 6.25 g/m*3 9.2 C 0 km/h
133 23-10-2008 11:04:01 9.3 C 6.2 g/m*3 9.3 C 0 km/h
134 23-10-2008 11:09:01 9.2 C 6.16 g/m*3 9.2 C 0 km/h
135 23-10-2008 11:14:01 9.4 C 6.24 g/m*3 9.4 C 0 km/h
136 23-10-2008 11:19:02 9.4 C 6.15 g/m*3 9.4 C 0 km/h
137 23-10-2008 11:24:02 9.6 C 6.14 g/m*3 9.6 C 0 km/h
138 23-10-2008 11:29:02 9.5 C 6.1 g/m*3 9.5 C 0 km/h
139 23-10-2008 11:34:01 9.4 C 6.06 g/m*3 9.4 C 0 km/h
140 23-10-2008 11:39:01 9.4 C 6.06 g/m*3 9.4 C 0 km/h
141 23-10-2008 11:44:01 9.4 C 6.06 g/m*3 9.4 C 0 km/h
142 23-10-2008 11:49:02 9.3 C 6.11 g/m*3 9.3 C 0 km/h
143 23-10-2008 11:54:02 9.3 C 6.11 g/m*3 9.3 C 0 km/h
144 23-10-2008 11:59:02 9.6 C 6.32 g/m*3 9.6 C 0 km/h
145 23-10-2008 12:04:02 9.8 C 6.31 g/m*3 9.8 C 0 km/h
146 23-10-2008 12:09:02 10.2 C 6.38 g/m*3 10.2 C 0 km/h
147 23-10-2008 12:14:02 10.3 C 6.32 g/m*3 10.3 C 0 km/h
148 23-10-2008 12:19:02 10.4 C 6.17 g/m*3 10.4 C 0 km/h
149 23-10-2008 12:24:02 10.5 C 6.11 g/m*3 10.5 C 0 km/h
150 23-10-2008 12:29:02 10.6 C 6.25 g/m*3 10.6 C 0 km/h
Sensor: Nr:Datum:Temp:Abs-Feuchte:Windchill:Wind:
Aussen-T/F 151 23-10-2008 12:34:02 10.7 C 6.29 g/m*3 10.7 C 0 km/h
152 23-10-2008 12:39:02 10.9 C 6.27 g/m*3 10.9 C 0 km/h
153 23-10-2008 12:44:02 10.9 C 6.27 g/m*3 10.9 C 0 km/h
154 23-10-2008 12:49:02 11.1 C 6.14 g/m*3 11.1 C 0 km/h
155 23-10-2008 12:54:02 11.3 C 6.43 g/m*3 11.3 C 0 km/h
156 23-10-2008 12:59:02 11.5 C 6.4 g/m*3 11.5 C 0 km/h
157 23-10-2008 13:04:01 11.6 C 6.44 g/m*3 11.6 C 0 km/h
158 23-10-2008 13:09:01 11.9 C 6.46 g/m*3 11.9 C 0 km/h
159 23-10-2008 13:14:01 12.2 C 6.37 g/m*3 12.2 C 0 km/h
160 23-10-2008 13:19:01 12.3 C 6.19 g/m*3 12.3 C 0 km/h
161 23-10-2008 13:24:01 12.3 C 5.97 g/m*3 12.3 C 0 km/h
162 23-10-2008 13:29:01 12.5 C 6.16 g/m*3 12.5 C 0 km/h
163 23-10-2008 13:34:02 12.6 C 6.08 g/m*3 12.6 C 0 km/h
164 23-10-2008 13:39:03 12.8 C 6.05 g/m*3 12.8 C 0 km/h
165 23-10-2008 13:44:03 12.9 C 5.86 g/m*3 12.9 C 0 km/h
166 23-10-2008 13:49:02 12.9 C 5.86 g/m*3 12.9 C 0 km/h
167 23-10-2008 13:54:02 13 C 5.9 g/m*3 13 C 0 km/h
168 23-10-2008 13:59:02 13.2 C 5.97 g/m*3 13.2 C 0 km/h
169 23-10-2008 14:04:02 13.2 C 5.97 g/m*3 13.2 C 0 km/h
170 23-10-2008 14:09:02 13.3 C 6.01 g/m*3 13.3 C 0 km/h
171 23-10-2008 14:14:02 13.2 C 5.86 g/m*3 13.2 C 0 km/h
172 23-10-2008 14:19:02 13.3 C 5.89 g/m*3 13.3 C 0 km/h
173 23-10-2008 14:24:02 13.6 C 6.12 g/m*3 13.6 C 0 km/h
174 23-10-2008 14:29:02 14.1 C 6.07 g/m*3 14.1 C 0 km/h
175 23-10-2008 14:34:02 14.2 C 5.62 g/m*3 14.2 C 0 km/h
Sensor: Nr:Datum:Temp:Abs-Feuchte:Windchill:Wind:
Aussen-T/F 176 23-10-2008 14:39:02 14.2 C 5.62 g/m*3 14.2 C 0 km/h
177 23-10-2008 14:44:02 14 C 5.43 g/m*3 14 C 0 km/h
178 23-10-2008 14:49:02 14.3 C 5.65 g/m*3 14.3 C 0 km/h
179 23-10-2008 14:54:02 14.6 C 5.63 g/m*3 14.6 C 0 km/h
180 23-10-2008 14:59:02 14.7 C 5.54 g/m*3 14.7 C 0 km/h
181 23-10-2008 15:04:02 14.9 C 5.48 g/m*3 14.9 C 0 km/h
182 23-10-2008 15:09:02 15.2 C 5.45 g/m*3 15.2 C 0 km/h
183 23-10-2008 15:14:02 15.4 C 5.39 g/m*3 15.4 C 0 km/h
184 23-10-2008 15:19:02 15.8 C 5.65 g/m*3 15.8 C 0 km/h
185 23-10-2008 15:24:02 16 C 5.31 g/m*3 16 C 0 km/h
186 23-10-2008 15:29:02 15.9 C 5.01 g/m*3 15.9 C 0 km/h
187 23-10-2008 15:34:02 15.8 C 4.98 g/m*3 15.8 C 0 km/h
188 23-10-2008 15:39:02 16.1 C 5.35 g/m*3 16.1 C 0 km/h
189 23-10-2008 15:44:02 16.2 C 5.38 g/m*3 16.2 C 0 km/h
190 23-10-2008 15:49:02 16 C 5.04 g/m*3 16 C 0 km/h
191 23-10-2008 15:54:02 15.9 C 5.15 g/m*3 15.9 C 0 km/h
192 23-10-2008 15:59:02 15.6 C 5.05 g/m*3 15.6 C 0 km/h
193 23-10-2008 16:04:01 15.4 C 4.86 g/m*3 15.4 C 0 km/h
194 23-10-2008 16:09:01 15.2 C 5.19 g/m*3 15.2 C 0 km/h
195 23-10-2008 16:14:01 15.2 C 5.19 g/m*3 15.2 C 0 km/h
196 23-10-2008 16:19:02 15.1 C 5.16 g/m*3 15.1 C 0 km/h
197 23-10-2008 16:24:02 14.9 C 5.23 g/m*3 14.9 C 0 km/h
198 23-10-2008 16:29:02 15.1 C 5.16 g/m*3 15.1 C 0 km/h
199 23-10-2008 16:34:02 15.1 C 5.03 g/m*3 15.1 C 0 km/h
200 23-10-2008 16:39:02 15.3 C 5.22 g/m*3 15.3 C 0 km/h
Sensor: Nr:Datum:Temp:Abs-Feuchte:Windchill:Wind:
Aussen-T/F 201 23-10-2008 16:44:02 15.4 C 5.39 g/m*3 15.4 C 0 km/h
202 23-10-2008 16:49:02 15.5 C 5.29 g/m*3 15.5 C 0 km/h
203 23-10-2008 16:54:02 15.7 C 5.35 g/m*3 15.7 C 0 km/h
204 23-10-2008 16:59:02 15.9 C 5.42 g/m*3 15.9 C 0 km/h
205 23-10-2008 17:04:02 15.9 C 5.55 g/m*3 15.9 C 0 km/h
206 23-10-2008 17:09:02 15.9 C 5.55 g/m*3 15.9 C 0 km/h
207 23-10-2008 17:14:02 15.8 C 5.38 g/m*3 15.8 C 0 km/h
208 23-10-2008 17:19:02 15.7 C 6.02 g/m*3 15.7 C 0 km/h
209 23-10-2008 17:24:02 15.5 C 5.95 g/m*3 15.5 C 0 km/h
210 23-10-2008 17:29:02 15.2 C 5.71 g/m*3 15.2 C 0 km/h
211 23-10-2008 17:34:01 14.9 C 5.99 g/m*3 14.9 C 0 km/h
212 23-10-2008 17:39:01 14.7 C 6.04 g/m*3 14.7 C 0 km/h
213 23-10-2008 17:44:01 14.2 C 5.74 g/m*3 14.2 C 0 km/h
214 23-10-2008 17:49:02 13.9 C 5.75 g/m*3 13.9 C 0 km/h
215 23-10-2008 17:54:02 13.3 C 5.55 g/m*3 13.3 C 0 km/h
216 23-10-2008 17:59:02 13.2 C 5.63 g/m*3 13.2 C 0 km/h
217 23-10-2008 18:04:02 12.6 C 5.53 g/m*3 12.6 C 0 km/h
218 23-10-2008 18:09:02 11.9 C 5.61 g/m*3 11.9 C 0 km/h
219 23-10-2008 18:14:02 11.8 C 5.68 g/m*3 11.8 C 0 km/h
220 23-10-2008 18:19:01 11.3 C 5.51 g/m*3 11.3 C 0 km/h
221 23-10-2008 18:24:01 11.1 C 5.54 g/m*3 11.1 C 0 km/h
222 23-10-2008 18:29:01 10.8 C 5.63 g/m*3 10.8 C 0 km/h
223 23-10-2008 18:34:02 10.5 C 5.72 g/m*3 10.5 C 0 km/h
224 23-10-2008 18:39:02 10.2 C 5.71 g/m*3 10.2 C 0 km/h
225 23-10-2008 18:44:02 10.1 C 5.67 g/m*3 10.1 C 0 km/h
Sensor: Nr:Datum:Temp:Abs-Feuchte:Windchill:Wind:
Aussen-T/F 226 23-10-2008 18:49:02 10 C 5.73 g/m*3 10 C 0 km/h
227 23-10-2008 18:54:02 9.7 C 5.72 g/m*3 9.7 C 0 km/h
228 23-10-2008 18:59:03 9.5 C 5.73 g/m*3 9.5 C 0 km/h
229 23-10-2008 19:04:02 9.5 C 5.73 g/m*3 9.5 C 0 km/h
230 23-10-2008 19:09:02 9.3 C 5.75 g/m*3 9.3 C 0 km/h
231 23-10-2008 19:14:02 9.3 C 5.75 g/m*3 9.3 C 0 km/h
232 23-10-2008 19:19:02 9.2 C 5.8 g/m*3 9.2 C 0 km/h
233 23-10-2008 19:24:02 9.1 C 5.77 g/m*3 9.1 C 0 km/h
234 23-10-2008 19:29:02 9.1 C 5.86 g/m*3 9.1 C 0 km/h
235 23-10-2008 19:34:02 9 C 5.82 g/m*3 9 C 0 km/h
236 23-10-2008 19:39:02 9 C 5.91 g/m*3 9 C 0 km/h
237 23-10-2008 19:44:02 8.9 C 5.96 g/m*3 8.9 C 0 km/h
238 23-10-2008 19:49:02 8.8 C 5.92 g/m*3 8.8 C 0 km/h
239 23-10-2008 19:54:02 8.8 C 5.92 g/m*3 8.8 C 0 km/h
240 23-10-2008 19:59:02 8.7 C 5.97 g/m*3 8.7 C 0 km/h
241 23-10-2008 20:04:02 8.7 C 5.97 g/m*3 8.7 C 0 km/h
242 23-10-2008 20:09:02 8.6 C 5.93 g/m*3 8.6 C 0 km/h
243 23-10-2008 20:14:02 8.6 C 5.93 g/m*3 8.6 C 0 km/h
244 23-10-2008 20:19:02 8.5 C 5.98 g/m*3 8.5 C 0 km/h
245 23-10-2008 20:24:02 8.5 C 5.98 g/m*3 8.5 C 0 km/h
246 23-10-2008 20:29:02 8.4 C 5.94 g/m*3 8.4 C 0 km/h
247 23-10-2008 20:34:03 8.4 C 5.94 g/m*3 8.4 C 0 km/h
248 23-10-2008 20:39:03 8.3 C 5.9 g/m*3 8.3 C 0 km/h
249 23-10-2008 20:44:03 8.2 C 5.95 g/m*3 8.2 C 0 km/h
250 23-10-2008 20:49:02 8.2 C 5.95 g/m*3 8.2 C 0 km/h
Sensor: Nr:Datum:Temp:Abs-Feuchte:Windchill:Wind:
Aussen-T/F 251 23-10-2008 20:54:02 8.1 C 5.99 g/m*3 8.1 C 0 km/h
252 23-10-2008 20:59:02 8.1 C 5.99 g/m*3 8.1 C 0 km/h
253 23-10-2008 21:04:02 8 C 5.95 g/m*3 8 C 0 km/h
254 23-10-2008 21:09:02 7.9 C 6 g/m*3 7.9 C 0 km/h
255 23-10-2008 21:14:02 7.9 C 6 g/m*3 7.9 C 0 km/h
256 23-10-2008 21:19:02 7.8 C 6.04 g/m*3 7.8 C 0 km/h
257 23-10-2008 21:24:02 7.7 C 6 g/m*3 7.7 C 0 km/h
258 23-10-2008 21:29:02 7.6 C 6.04 g/m*3 7.6 C 0 km/h
259 23-10-2008 21:34:02 7.6 C 6.04 g/m*3 7.6 C 0 km/h
260 23-10-2008 21:39:02 7.5 C 6 g/m*3 7.5 C 0 km/h
261 23-10-2008 21:44:03 7.6 C 6.04 g/m*3 7.6 C 0 km/h
262 23-10-2008 21:49:01 7.5 C 6 g/m*3 7.5 C 0 km/h
263 23-10-2008 21:54:01 7.4 C 5.96 g/m*3 7.4 C 0 km/h
264 23-10-2008 21:59:01 7.5 C 6 g/m*3 7.5 C 0 km/h
265 23-10-2008 22:04:01 7.5 C 6 g/m*3 7.5 C 0 km/h
266 23-10-2008 22:09:01 7.5 C 6 g/m*3 7.5 C 0 km/h
267 23-10-2008 22:14:01 7.3 C 5.93 g/m*3 7.3 C 0 km/h
268 23-10-2008 22:20:02 7.2 C 5.89 g/m*3 7.2 C 0 km/h
269 23-10-2008 22:25:02 7.2 C 5.97 g/m*3 7.2 C 0 km/h
270 23-10-2008 22:30:02 7.2 C 6.04 g/m*3 7.2 C 0 km/h
271 23-10-2008 22:35:02 7 C 5.97 g/m*3 7 C 0 km/h
272 23-10-2008 22:40:02 7 C 5.97 g/m*3 7 C 0 km/h
273 23-10-2008 22:45:02 6.9 C 6 g/m*3 6.9 C 0 km/h
274 23-10-2008 22:50:02 6.8 C 6.04 g/m*3 6.8 C 0 km/h
275 23-10-2008 22:55:02 6.7 C 6 g/m*3 6.7 C 0 km/h
Sensor: Nr:Datum:Temp:Abs-Feuchte:Windchill:Wind:
Aussen-T/F 276 23-10-2008 23:00:02 6.6 C 5.96 g/m*3 6.6 C 0 km/h
277 23-10-2008 23:05:02 6.5 C 6 g/m*3 6.5 C 0 km/h
278 23-10-2008 23:10:02 6.6 C 6.04 g/m*3 6.6 C 0 km/h
279 23-10-2008 23:15:02 6.5 C 6 g/m*3 6.5 C 0 km/h
280 23-10-2008 23:20:02 6.4 C 5.96 g/m*3 6.4 C 0 km/h
281 23-10-2008 23:25:02 6.4 C 5.96 g/m*3 6.4 C 0 km/h
282 23-10-2008 23:30:02 6.3 C 6 g/m*3 6.3 C 0 km/h
283 23-10-2008 23:35:02 6.1 C 5.92 g/m*3 6.1 C 0 km/h
284 23-10-2008 23:40:02 6.1 C 5.92 g/m*3 6.1 C 0 km/h
285 23-10-2008 23:45:03 6 C 5.88 g/m*3 6 C 0 km/h
286 23-10-2008 23:50:03 5.9 C 5.91 g/m*3 5.9 C 0 km/h
287 23-10-2008 23:55:03 5.8 C 5.95 g/m*3 5.8 C 0 km/h
288 24-10-2008 00:00:03 5.8 C 5.95 g/m*3 5.8 C 0 km/h
289 24-10-2008 00:05:03 5.7 C 5.91 g/m*3 5.7 C 0 km/h
290 24-10-2008 00:10:03 5.6 C 5.87 g/m*3 5.6 C 0 km/h
291 24-10-2008 00:15:03 5.6 C 5.87 g/m*3 5.6 C 0 km/h
292 24-10-2008 00:20:03 5.4 C 5.79 g/m*3 5.4 C 0 km/h
293 24-10-2008 00:25:03 5.4 C 5.79 g/m*3 5.4 C 0 km/h
294 24-10-2008 00:30:03 5.3 C 5.82 g/m*3 5.3 C 0 km/h
295 24-10-2008 00:35:03 5.2 C 5.78 g/m*3 5.2 C 0 km/h
296 24-10-2008 00:40:03 5.1 C 5.75 g/m*3 5.1 C 0 km/h
297 24-10-2008 00:45:03 5.1 C 5.75 g/m*3 5.1 C 0 km/h
298 24-10-2008 00:50:03 5.1 C 5.75 g/m*3 5.1 C 0 km/h
299 24-10-2008 00:55:03 5 C 5.78 g/m*3 5 C 0 km/h
300 24-10-2008 01:00:03 4.9 C 5.81 g/m*3 4.9 C 0 km/h
Sensor: Nr:Datum:Temp:Abs-Feuchte:Windchill:Wind:
Aussen-T/F 301 24-10-2008 01:05:03 4.9 C 5.81 g/m*3 4.9 C 0 km/h
302 24-10-2008 01:10:03 4.9 C 5.81 g/m*3 4.9 C 0 km/h
303 24-10-2008 01:15:03 4.7 C 5.73 g/m*3 4.7 C 0 km/h
304 24-10-2008 01:20:03 4.7 C 5.73 g/m*3 4.7 C 0 km/h
305 24-10-2008 01:25:04 4.6 C 5.69 g/m*3 4.6 C 0 km/h
306 24-10-2008 01:30:04 4.6 C 5.76 g/m*3 4.6 C 0 km/h
307 24-10-2008 01:35:04 4.5 C 5.72 g/m*3 4.5 C 0 km/h
308 24-10-2008 01:40:04 4.5 C 5.72 g/m*3 4.5 C 0 km/h
309 24-10-2008 01:45:04 4.5 C 5.72 g/m*3 4.5 C 0 km/h
310 24-10-2008 01:50:04 4.5 C 5.72 g/m*3 4.5 C 0 km/h
311 24-10-2008 01:55:04 4.5 C 5.72 g/m*3 4.5 C 0 km/h
312 24-10-2008 02:00:04 4.4 C 5.68 g/m*3 4.4 C 0 km/h
313 24-10-2008 02:05:04 4.3 C 5.64 g/m*3 4.3 C 0 km/h
314 24-10-2008 02:10:04 4.3 C 5.64 g/m*3 4.3 C 0 km/h
315 24-10-2008 02:15:04 4.3 C 5.64 g/m*3 4.3 C 0 km/h
316 24-10-2008 02:20:04 4.2 C 5.61 g/m*3 4.2 C 0 km/h
317 24-10-2008 02:25:04 4.1 C 5.57 g/m*3 4.1 C 0 km/h
318 24-10-2008 02:30:04 4.1 C 5.63 g/m*3 4.1 C 0 km/h
319 24-10-2008 02:35:04 4 C 5.59 g/m*3 4 C 0 km/h
320 24-10-2008 02:40:04 3.9 C 5.56 g/m*3 3.9 C 0 km/h
321 24-10-2008 02:45:04 3.8 C 5.52 g/m*3 3.8 C 0 km/h
322 24-10-2008 02:50:04 3.8 C 5.58 g/m*3 3.8 C 0 km/h
323 24-10-2008 02:55:04 3.8 C 5.58 g/m*3 3.8 C 0 km/h
324 24-10-2008 03:00:05 3.8 C 5.58 g/m*3 3.8 C 0 km/h
325 24-10-2008 03:05:05 3.8 C 5.58 g/m*3 3.8 C 0 km/h
Sensor: Nr:Datum:Temp:Abs-Feuchte:Windchill:Wind:
Aussen-T/F 326 24-10-2008 03:10:05 3.6 C 5.51 g/m*3 3.6 C 0 km/h
327 24-10-2008 03:15:05 3.5 C 5.53 g/m*3 3.5 C 0 km/h
328 24-10-2008 03:20:05 3.6 C 5.51 g/m*3 3.6 C 0 km/h
329 24-10-2008 03:25:05 3.6 C 5.51 g/m*3 3.6 C 0 km/h
330 24-10-2008 03:30:05 3.7 C 5.61 g/m*3 3.7 C 0 km/h
331 24-10-2008 03:35:05 3.7 C 5.61 g/m*3 3.7 C 0 km/h
332 24-10-2008 03:40:05 3.7 C 5.61 g/m*3 3.7 C 0 km/h
333 24-10-2008 03:45:05 3.8 C 5.65 g/m*3 3.8 C 0 km/h
334 24-10-2008 03:50:05 3.8 C 5.71 g/m*3 3.8 C 0 km/h
335 24-10-2008 03:55:05 3.8 C 5.71 g/m*3 3.8 C 0 km/h
336 24-10-2008 04:00:05 3.9 C 5.75 g/m*3 3.9 C 0 km/h
337 24-10-2008 04:05:05 3.9 C 5.75 g/m*3 3.9 C 0 km/h
338 24-10-2008 04:10:05 4 C 5.72 g/m*3 4 C 0 km/h
339 24-10-2008 04:15:05 4 C 5.79 g/m*3 4 C 0 km/h
340 24-10-2008 04:20:05 4.1 C 5.82 g/m*3 4.1 C 0 km/h
341 24-10-2008 04:25:05 4.1 C 5.82 g/m*3 4.1 C 0 km/h
342 24-10-2008 04:30:05 4 C 5.79 g/m*3 4 C 0 km/h
343 24-10-2008 04:35:06 4 C 5.72 g/m*3 4 C 0 km/h
344 24-10-2008 04:40:06 4 C 5.72 g/m*3 4 C 0 km/h
345 24-10-2008 04:45:06 4 C 5.72 g/m*3 4 C 0 km/h
346 24-10-2008 04:50:06 3.9 C 5.75 g/m*3 3.9 C 0 km/h
347 24-10-2008 04:55:06 3.8 C 5.71 g/m*3 3.8 C 0 km/h
348 24-10-2008 05:00:06 3.8 C 5.71 g/m*3 3.8 C 0 km/h
349 24-10-2008 05:05:06 3.8 C 5.71 g/m*3 3.8 C 0 km/h
350 24-10-2008 05:10:06 3.7 C 5.67 g/m*3 3.7 C 0 km/h
Sensor: Nr:Datum:Temp:Abs-Feuchte:Windchill:Wind:
Aussen-T/F 351 24-10-2008 05:15:06 3.6 C 5.63 g/m*3 3.6 C 0 km/h
352 24-10-2008 05:20:06 3.5 C 5.6 g/m*3 3.5 C 0 km/h
353 24-10-2008 05:25:06 3.5 C 5.6 g/m*3 3.5 C 0 km/h
354 24-10-2008 05:30:06 3.5 C 5.6 g/m*3 3.5 C 0 km/h
355 24-10-2008 05:35:06 3.5 C 5.6 g/m*3 3.5 C 0 km/h
356 24-10-2008 05:40:06 3.4 C 5.56 g/m*3 3.4 C 0 km/h
357 24-10-2008 05:45:06 3.4 C 5.56 g/m*3 3.4 C 0 km/h
358 24-10-2008 05:50:06 3.4 C 5.56 g/m*3 3.4 C 0 km/h
359 24-10-2008 05:55:06 3.4 C 5.56 g/m*3 3.4 C 0 km/h
360 24-10-2008 06:00:06 3.3 C 5.52 g/m*3 3.3 C 0 km/h
361 24-10-2008 06:05:06 3.2 C 5.48 g/m*3 3.2 C 0 km/h
362 24-10-2008 06:10:07 3.3 C 5.52 g/m*3 3.3 C 0 km/h
363 24-10-2008 06:15:07 3.3 C 5.52 g/m*3 3.3 C 0 km/h
364 24-10-2008 06:20:07 3.3 C 5.52 g/m*3 3.3 C 0 km/h
365 24-10-2008 06:25:07 3.2 C 5.48 g/m*3 3.2 C 0 km/h
366 24-10-2008 06:30:07 3.2 C 5.48 g/m*3 3.2 C 0 km/h
367 24-10-2008 06:35:07 3.1 C 5.45 g/m*3 3.1 C 0 km/h
368 24-10-2008 06:40:07 3.1 C 5.39 g/m*3 3.1 C 0 km/h
369 24-10-2008 06:45:07 3.1 C 5.39 g/m*3 3.1 C 0 km/h
370 24-10-2008 06:50:07 3 C 5.35 g/m*3 3 C 0 km/h
371 24-10-2008 06:55:07 3 C 5.35 g/m*3 3 C 0 km/h
372 24-10-2008 07:00:07 3 C 5.35 g/m*3 3 C 0 km/h
373 24-10-2008 07:05:02 3 C 5.35 g/m*3 3 C 0 km/h
374 24-10-2008 07:10:02 3 C 5.35 g/m*3 3 C 0 km/h
375 24-10-2008 07:15:02 3 C 5.35 g/m*3 3 C 0 km/h
Sensor: Nr:Datum:Temp:Abs-Feuchte:Windchill:Wind:
Aussen-T/F 376 24-10-2008 07:20:03 3 C 5.35 g/m*3 3 C 0 km/h
377 24-10-2008 07:25:03 3.1 C 5.39 g/m*3 3.1 C 0 km/h
378 24-10-2008 07:30:03 3.1 C 5.39 g/m*3 3.1 C 0 km/h
379 24-10-2008 07:35:02 3.2 C 5.42 g/m*3 3.2 C 0 km/h
380 24-10-2008 07:40:02 3.1 C 5.39 g/m*3 3.1 C 0 km/h
381 24-10-2008 07:45:02 3 C 5.35 g/m*3 3 C 0 km/h
382 24-10-2008 07:50:02 2.9 C 5.37 g/m*3 2.9 C 0 km/h
383 24-10-2008 07:55:02 2.9 C 5.37 g/m*3 2.9 C 0 km/h
384 24-10-2008 08:00:02 3 C 5.35 g/m*3 3 C 0 km/h
385 24-10-2008 08:05:03 2.9 C 5.37 g/m*3 2.9 C 0 km/h
386 24-10-2008 08:10:03 2.9 C 5.37 g/m*3 2.9 C 0 km/h
387 24-10-2008 08:15:02 2.9 C 5.43 g/m*3 2.9 C 0 km/h
388 24-10-2008 08:20:02 2.8 C 5.4 g/m*3 2.8 C 0 km/h
389 24-10-2008 08:25:02 2.7 C 5.36 g/m*3 2.7 C 0 km/h
390 24-10-2008 08:30:02 2.7 C 5.36 g/m*3 2.7 C 0 km/h
391 24-10-2008 08:35:03 2.8 C 5.46 g/m*3 2.8 C 0 km/h
392 24-10-2008 08:40:03 3 C 5.47 g/m*3 3 C 0 km/h
393 24-10-2008 08:45:02 3.1 C 5.57 g/m*3 3.1 C 0 km/h
394 24-10-2008 08:50:02 3.3 C 5.64 g/m*3 3.3 C 0 km/h
395 24-10-2008 08:55:02 3.5 C 5.72 g/m*3 3.5 C 0 km/h
396 24-10-2008 09:00:02 3.5 C 5.66 g/m*3 3.5 C 0 km/h
397 24-10-2008 09:05:02 3.4 C 5.62 g/m*3 3.4 C 0 km/h
398 24-10-2008 09:10:02 3.5 C 5.66 g/m*3 3.5 C 0 km/h
399 24-10-2008 09:15:02 3.8 C 5.77 g/m*3 3.8 C 0 km/h
400 24-10-2008 09:20:02 4 C 5.79 g/m*3 4 C 0 km/h
Sensor: Nr:Datum:Temp:Abs-Feuchte:Windchill:Wind:
Aussen-T/F 401 24-10-2008 09:25:02 4.3 C 5.9 g/m*3 4.3 C 0 km/h
402 24-10-2008 09:30:02 4.4 C 5.88 g/m*3 4.4 C 0 km/h
403 24-10-2008 09:35:02 4.4 C 5.81 g/m*3 4.4 C 0 km/h
404 24-10-2008 09:40:02 4.3 C 5.71 g/m*3 4.3 C 0 km/h
405 24-10-2008 09:45:02 4.4 C 5.75 g/m*3 4.4 C 0 km/h
406 24-10-2008 09:50:02 4.5 C 5.78 g/m*3 4.5 C 0 km/h
407 24-10-2008 09:55:02 4.5 C 5.72 g/m*3 4.5 C 0 km/h
408 24-10-2008 10:00:02 4.6 C 5.76 g/m*3 4.6 C 0 km/h
409 24-10-2008 10:05:01 4.6 C 5.76 g/m*3 4.6 C 0 km/h
410 24-10-2008 10:10:01 4.7 C 5.73 g/m*3 4.7 C 0 km/h
411 24-10-2008 10:15:02 4.8 C 5.77 g/m*3 4.8 C 0 km/h
412 24-10-2008 10:20:02 4.8 C 5.77 g/m*3 4.8 C 0 km/h
413 24-10-2008 10:25:02 5.1 C 5.75 g/m*3 5.1 C 0 km/h
414 24-10-2008 10:30:02 5.4 C 5.79 g/m*3 5.4 C 0 km/h
415 24-10-2008 10:35:01 5.7 C 5.91 g/m*3 5.7 C 0 km/h
416 24-10-2008 10:40:01 6 C 5.88 g/m*3 6 C 0 km/h
417 24-10-2008 10:45:02 6 C 5.81 g/m*3 6 C 0 km/h
418 24-10-2008 10:50:02 5.7 C 5.69 g/m*3 5.7 C 0 km/h
419 24-10-2008 10:55:02 5.6 C 5.66 g/m*3 5.6 C 0 km/h
420 24-10-2008 11:00:02 5.7 C 5.69 g/m*3 5.7 C 0 km/h
421 24-10-2008 11:05:02 5.5 C 5.62 g/m*3 5.5 C 0 km/h
422 24-10-2008 11:10:02 5.6 C 5.73 g/m*3 5.6 C 0 km/h
423 24-10-2008 11:15:02 5.6 C 5.8 g/m*3 5.6 C 0 km/h
424 24-10-2008 11:20:02 5.6 C 5.8 g/m*3 5.6 C 0 km/h
425 24-10-2008 11:25:02 5.8 C 5.95 g/m*3 5.8 C 0 km/h
Sensor: Nr:Datum:Temp:Abs-Feuchte:Windchill:Wind:
Aussen-T/F 426 24-10-2008 11:30:02 5.8 C 5.95 g/m*3 5.8 C 0 km/h
427 24-10-2008 11:35:01 6.2 C 6.03 g/m*3 6.2 C 0 km/h
428 24-10-2008 11:40:01 6.3 C 6.07 g/m*3 6.3 C 0 km/h
429 24-10-2008 11:45:02 6.4 C 6.11 g/m*3 6.4 C 0 km/h
430 24-10-2008 11:50:02 6.5 C 6.15 g/m*3 6.5 C 0 km/h
431 24-10-2008 11:55:02 6.5 C 6.15 g/m*3 6.5 C 0 km/h
432 24-10-2008 12:00:02 6.6 C 6.19 g/m*3 6.6 C 0 km/h
433 24-10-2008 12:05:02 6.8 C 6.27 g/m*3 6.8 C 0 km/h
434 24-10-2008 12:10:02 6.9 C 6.31 g/m*3 6.9 C 0 km/h
435 24-10-2008 12:15:01 7.1 C 6.24 g/m*3 7.1 C 0 km/h
436 24-10-2008 12:20:01 7.3 C 6.32 g/m*3 7.3 C 0 km/h
437 24-10-2008 12:25:01 7.8 C 6.53 g/m*3 7.8 C 0 km/h
438 24-10-2008 12:30:01 8.3 C 6.57 g/m*3 8.3 C 0 km/h
439 24-10-2008 12:35:02 8.7 C 6.4 g/m*3 8.7 C 0 km/h
440 24-10-2008 12:40:02 9 C 6.44 g/m*3 9 C 0 km/h
441 24-10-2008 12:45:02 9.2 C 6.34 g/m*3 9.2 C 0 km/h
442 24-10-2008 12:50:02 9.7 C 6.45 g/m*3 9.7 C 0 km/h
443 24-10-2008 12:55:03 9.9 C 6.44 g/m*3 9.9 C 0 km/h
444 24-10-2008 13:00:03 10.3 C 6.32 g/m*3 10.3 C 0 km/h
445 24-10-2008 13:05:02 10.3 C 6.13 g/m*3 10.3 C 0 km/h
446 24-10-2008 13:10:02 10.4 C 6.17 g/m*3 10.4 C 0 km/h
447 24-10-2008 13:15:02 10.7 C 6.19 g/m*3 10.7 C 0 km/h
448 24-10-2008 13:20:02 10.8 C 6.13 g/m*3 10.8 C 0 km/h
449 24-10-2008 13:25:02 10.9 C 6.17 g/m*3 10.9 C 0 km/h
450 24-10-2008 13:30:02 11.1 C 6.04 g/m*3 11.1 C 0 km/h
Sensor: Nr:Datum:Temp:Abs-Feuchte:Windchill:Wind:
Aussen-T/F 451 24-10-2008 13:35:02 11.4 C 5.95 g/m*3 11.4 C 0 km/h
452 24-10-2008 13:40:02 11.7 C 5.86 g/m*3 11.7 C 0 km/h
453 24-10-2008 13:45:02 11.7 C 5.75 g/m*3 11.7 C 0 km/h
454 24-10-2008 13:50:02 12.1 C 5.68 g/m*3 12.1 C 0 km/h
455 24-10-2008 13:55:02 12.2 C 5.83 g/m*3 12.2 C 0 km/h
456 24-10-2008 14:00:02 12.4 C 5.79 g/m*3 12.4 C 0 km/h
457 24-10-2008 14:05:02 12.5 C 5.61 g/m*3 12.5 C 0 km/h
458 24-10-2008 14:10:02 12.6 C 5.53 g/m*3 12.6 C 0 km/h
459 24-10-2008 14:15:02 12.6 C 5.53 g/m*3 12.6 C 0 km/h
460 24-10-2008 14:20:02 12.8 C 5.6 g/m*3 12.8 C 0 km/h
461 24-10-2008 14:25:02 13.2 C 5.51 g/m*3 13.2 C 0 km/h
462 24-10-2008 14:30:02 13.1 C 5.48 g/m*3 13.1 C 0 km/h
463 24-10-2008 14:35:02 13.1 C 5.48 g/m*3 13.1 C 0 km/h
464 24-10-2008 14:40:02 13.2 C 5.51 g/m*3 13.2 C 0 km/h
465 24-10-2008 14:45:02 12.9 C 5.52 g/m*3 12.9 C 0 km/h
466 24-10-2008 14:50:02 12.8 C 5.49 g/m*3 12.8 C 0 km/h
467 24-10-2008 14:55:02 13 C 5.56 g/m*3 13 C 0 km/h
468 24-10-2008 15:00:02 13 C 5.56 g/m*3 13 C 0 km/h
469 24-10-2008 15:05:02 13 C 5.44 g/m*3 13 C 0 km/h
470 24-10-2008 15:10:02 13 C 5.44 g/m*3 13 C 0 km/h
471 24-10-2008 15:15:02 13.1 C 5.36 g/m*3 13.1 C 0 km/h
472 24-10-2008 15:20:02 13.1 C 5.36 g/m*3 13.1 C 0 km/h
473 24-10-2008 15:25:02 13 C 5.22 g/m*3 13 C 0 km/h
474 24-10-2008 15:30:02 13.2 C 5.4 g/m*3 13.2 C 0 km/h
475 24-10-2008 15:35:02 13.5 C 5.38 g/m*3 13.5 C 0 km/h
Sensor: Nr:Datum:Temp:Abs-Feuchte:Windchill:Wind:
Aussen-T/F 476 24-10-2008 15:40:03 13.9 C 5.51 g/m*3 13.9 C 0 km/h
477 24-10-2008 15:45:02 13.7 C 5.33 g/m*3 13.7 C 0 km/h
478 24-10-2008 15:50:02 13.3 C 5.31 g/m*3 13.3 C 0 km/h
479 24-10-2008 15:55:02 13 C 5.33 g/m*3 13 C 0 km/h
480 24-10-2008 16:00:02 13.1 C 5.48 g/m*3 13.1 C 0 km/h
481 24-10-2008 16:05:02 13 C 5.44 g/m*3 13 C 0 km/h
482 24-10-2008 16:10:02 13 C 5.44 g/m*3 13 C 0 km/h
483 24-10-2008 16:15:02 13.1 C 5.59 g/m*3 13.1 C 0 km/h
484 24-10-2008 16:20:03 13.1 C 5.59 g/m*3 13.1 C 0 km/h
485 24-10-2008 16:25:03 13.1 C 5.48 g/m*3 13.1 C 0 km/h
486 24-10-2008 16:30:03 13.2 C 5.51 g/m*3 13.2 C 0 km/h
487 24-10-2008 16:35:02 13.3 C 5.55 g/m*3 13.3 C 0 km/h
488 24-10-2008 16:40:02 13.1 C 5.36 g/m*3 13.1 C 0 km/h
489 24-10-2008 16:45:02 12.9 C 5.41 g/m*3 12.9 C 0 km/h
490 24-10-2008 16:50:03 12.8 C 5.71 g/m*3 12.8 C 0 km/h
491 24-10-2008 16:55:03 12.7 C 5.68 g/m*3 12.7 C 0 km/h
492 24-10-2008 17:00:03 12.7 C 5.9 g/m*3 12.7 C 0 km/h
493 24-10-2008 17:05:01 12.5 C 5.83 g/m*3 12.5 C 0 km/h
494 24-10-2008 17:10:01 12.4 C 6.01 g/m*3 12.4 C 0 km/h
495 24-10-2008 17:15:02 12.3 C 5.97 g/m*3 12.3 C 0 km/h
496 24-10-2008 17:20:02 12.1 C 5.9 g/m*3 12.1 C 0 km/h
497 24-10-2008 17:25:02 11.8 C 6.1 g/m*3 11.8 C 0 km/h
498 24-10-2008 17:30:02 11.6 C 6.03 g/m*3 11.6 C 0 km/h
499 24-10-2008 17:35:02 11.5 C 5.99 g/m*3 11.5 C 0 km/h
500 24-10-2008 17:40:02 11.3 C 6.02 g/m*3 11.3 C 0 km/h
Sensor: Nr:Datum:Temp:Abs-Feuchte:Windchill:Wind:
Aussen-T/F 501 24-10-2008 17:45:02 11.2 C 5.98 g/m*3 11.2 C 0 km/h
502 24-10-2008 17:50:02 11.1 C 5.94 g/m*3 11.1 C 0 km/h
503 24-10-2008 17:55:03 11 C 6.01 g/m*3 11 C 0 km/h
504 24-10-2008 18:00:03 10.8 C 6.03 g/m*3 10.8 C 0 km/h
505 24-10-2008 18:05:02 10.8 C 6.13 g/m*3 10.8 C 0 km/h
506 24-10-2008 18:10:02 10.7 C 6.09 g/m*3 10.7 C 0 km/h
507 24-10-2008 18:15:02 10.7 C 5.99 g/m*3 10.7 C 0 km/h
508 24-10-2008 18:20:02 10.6 C 6.05 g/m*3 10.6 C 0 km/h
509 24-10-2008 18:25:02 10.6 C 6.15 g/m*3 10.6 C 0 km/h
510 24-10-2008 18:30:02 10.5 C 6.11 g/m*3 10.5 C 0 km/h
511 24-10-2008 18:35:02 10.5 C 6.11 g/m*3 10.5 C 0 km/h
512 24-10-2008 18:40:02 10.5 C 6.11 g/m*3 10.5 C 0 km/h
513 24-10-2008 18:45:02 10.5 C 6.21 g/m*3 10.5 C 0 km/h
514 24-10-2008 18:50:02 10.5 C 6.21 g/m*3 10.5 C 0 km/h
515 24-10-2008 18:55:02 10.5 C 6.21 g/m*3 10.5 C 0 km/h
516 24-10-2008 19:00:02 10.4 C 6.26 g/m*3 10.4 C 0 km/h
517 24-10-2008 19:05:02 10.4 C 6.26 g/m*3 10.4 C 0 km/h
518 24-10-2008 19:10:02 10.4 C 6.26 g/m*3 10.4 C 0 km/h
519 24-10-2008 19:15:02 10.4 C 6.26 g/m*3 10.4 C 0 km/h
520 24-10-2008 19:20:02 10.4 C 6.36 g/m*3 10.4 C 0 km/h
521 24-10-2008 19:25:02 10.4 C 6.36 g/m*3 10.4 C 0 km/h
522 24-10-2008 19:30:02 10.3 C 6.42 g/m*3 10.3 C 0 km/h
523 24-10-2008 19:35:02 10.2 C 6.47 g/m*3 10.2 C 0 km/h
524 24-10-2008 19:40:02 10.1 C 6.52 g/m*3 10.1 C 0 km/h
525 24-10-2008 19:45:02 10 C 6.58 g/m*3 10 C 0 km/h
Sensor: Nr:Datum:Temp:Abs-Feuchte:Windchill:Wind:
Aussen-T/F 526 24-10-2008 19:50:02 10 C 6.77 g/m*3 10 C 0 km/h
527 24-10-2008 19:55:02 9.9 C 6.91 g/m*3 9.9 C 0 km/h
528 24-10-2008 20:00:02 9.8 C 6.87 g/m*3 9.8 C 0 km/h
529 24-10-2008 20:05:02 9.8 C 6.96 g/m*3 9.8 C 0 km/h
530 24-10-2008 20:10:02 9.9 C 7.1 g/m*3 9.9 C 0 km/h
531 24-10-2008 20:15:01 9.9 C 7.1 g/m*3 9.9 C 0 km/h
532 24-10-2008 20:20:01 9.9 C 7.1 g/m*3 9.9 C 0 km/h
533 24-10-2008 20:25:01 10 C 7.14 g/m*3 10 C 0 km/h
534 24-10-2008 20:30:01 10 C 7.14 g/m*3 10 C 0 km/h
535 24-10-2008 20:35:02 10 C 7.05 g/m*3 10 C 0 km/h
536 24-10-2008 20:40:02 10 C 6.95 g/m*3 10 C 0 km/h
537 24-10-2008 20:45:02 10 C 7.05 g/m*3 10 C 0 km/h
538 24-10-2008 20:50:02 10 C 7.05 g/m*3 10 C 0 km/h
539 24-10-2008 20:55:03 10 C 6.95 g/m*3 10 C 0 km/h
540 24-10-2008 21:00:03 10 C 6.95 g/m*3 10 C 0 km/h
541 24-10-2008 21:05:02 10 C 6.86 g/m*3 10 C 0 km/h
542 24-10-2008 21:10:02 10 C 6.86 g/m*3 10 C 0 km/h
543 24-10-2008 21:15:02 9.9 C 6.91 g/m*3 9.9 C 0 km/h
544 24-10-2008 21:20:02 9.9 C 6.91 g/m*3 9.9 C 0 km/h
545 24-10-2008 21:25:02 9.9 C 6.91 g/m*3 9.9 C 0 km/h
546 24-10-2008 21:30:02 9.8 C 6.87 g/m*3 9.8 C 0 km/h
547 24-10-2008 21:35:02 9.7 C 6.82 g/m*3 9.7 C 0 km/h
548 24-10-2008 21:40:02 9.7 C 6.82 g/m*3 9.7 C 0 km/h
549 24-10-2008 21:45:02 9.6 C 6.78 g/m*3 9.6 C 0 km/h
550 24-10-2008 21:50:02 9.5 C 6.74 g/m*3 9.5 C 0 km/h
Sensor: Nr:Datum:Temp:Abs-Feuchte:Windchill:Wind:
Aussen-T/F 551 24-10-2008 21:55:02 9.5 C 6.74 g/m*3 9.5 C 0 km/h
552 24-10-2008 22:00:02 9.5 C 6.74 g/m*3 9.5 C 0 km/h
553 24-10-2008 22:05:03 9.5 C 6.74 g/m*3 9.5 C 0 km/h
554 24-10-2008 22:10:03 9.5 C 6.74 g/m*3 9.5 C 0 km/h
555 24-10-2008 22:15:02 9.5 C 6.74 g/m*3 9.5 C 0 km/h
556 24-10-2008 22:20:02 9.5 C 6.74 g/m*3 9.5 C 0 km/h
557 24-10-2008 22:25:02 9.5 C 6.74 g/m*3 9.5 C 0 km/h
558 24-10-2008 22:30:02 9.5 C 6.74 g/m*3 9.5 C 0 km/h
559 24-10-2008 22:35:03 9.3 C 6.65 g/m*3 9.3 C 0 km/h
560 24-10-2008 22:40:03 9.3 C 6.65 g/m*3 9.3 C 0 km/h
561 24-10-2008 22:46:03 9.3 C 6.65 g/m*3 9.3 C 0 km/h
562 24-10-2008 22:51:03 9.2 C 6.7 g/m*3 9.2 C 0 km/h
563 24-10-2008 22:56:03 9.1 C 6.65 g/m*3 9.1 C 0 km/h
564 24-10-2008 23:01:03 9 C 6.61 g/m*3 9 C 0 km/h
565 24-10-2008 23:06:03 8.8 C 6.61 g/m*3 8.8 C 0 km/h
566 24-10-2008 23:11:03 8.7 C 6.66 g/m*3 8.7 C 0 km/h
567 24-10-2008 23:16:03 8.6 C 6.7 g/m*3 8.6 C 0 km/h
568 24-10-2008 23:21:03 8.6 C 6.7 g/m*3 8.6 C 0 km/h
569 24-10-2008 23:26:04 8.6 C 6.7 g/m*3 8.6 C 0 km/h
570 24-10-2008 23:31:04 8.6 C 6.79 g/m*3 8.6 C 0 km/h
571 24-10-2008 23:36:04 8.7 C 6.83 g/m*3 8.7 C 0 km/h
572 24-10-2008 23:41:04 8.8 C 6.88 g/m*3 8.8 C 0 km/h
573 24-10-2008 23:46:04 8.9 C 6.92 g/m*3 8.9 C 0 km/h
574 24-10-2008 23:51:04 8.9 C 6.92 g/m*3 8.9 C 0 km/h
575 24-10-2008 23:56:04 8.9 C 6.92 g/m*3 8.9 C 0 km/h
Sensor: Nr:Datum:Temp:Abs-Feuchte:Windchill:Wind:
Aussen-T/F 576 25-10-2008 00:01:04 9 C 6.88 g/m*3 9 C 0 km/h
577 25-10-2008 00:06:04 9 C 6.88 g/m*3 9 C 0 km/h
578 25-10-2008 00:11:04 9 C 6.88 g/m*3 9 C 0 km/h
579 25-10-2008 00:16:04 9.1 C 6.92 g/m*3 9.1 C 0 km/h
580 25-10-2008 00:21:04 9.1 C 6.92 g/m*3 9.1 C 0 km/h
581 25-10-2008 00:26:04 9.2 C 6.97 g/m*3 9.2 C 0 km/h
582 25-10-2008 00:31:04 9.2 C 6.97 g/m*3 9.2 C 0 km/h
583 25-10-2008 00:36:04 9.2 C 6.97 g/m*3 9.2 C 0 km/h
584 25-10-2008 00:41:04 9.2 C 6.97 g/m*3 9.2 C 0 km/h
585 25-10-2008 00:46:04 9.3 C 7.01 g/m*3 9.3 C 0 km/h
586 25-10-2008 00:51:04 9.5 C 7.01 g/m*3 9.5 C 0 km/h
587 25-10-2008 00:56:04 9.7 C 7.1 g/m*3 9.7 C 0 km/h
588 25-10-2008 01:01:04 9.7 C 7.01 g/m*3 9.7 C 0 km/h
589 25-10-2008 01:06:05 9.7 C 6.91 g/m*3 9.7 C 0 km/h
590 25-10-2008 01:11:05 9.7 C 6.91 g/m*3 9.7 C 0 km/h
591 25-10-2008 01:16:05 9.7 C 6.91 g/m*3 9.7 C 0 km/h
592 25-10-2008 01:21:05 9.8 C 6.96 g/m*3 9.8 C 0 km/h
593 25-10-2008 01:26:05 9.8 C 6.87 g/m*3 9.8 C 0 km/h
594 25-10-2008 01:31:05 9.9 C 6.91 g/m*3 9.9 C 0 km/h
595 25-10-2008 01:36:05 9.9 C 6.91 g/m*3 9.9 C 0 km/h
596 25-10-2008 01:41:05 10 C 6.86 g/m*3 10 C 0 km/h
597 25-10-2008 01:46:05 10 C 6.86 g/m*3 10 C 0 km/h
598 25-10-2008 01:51:05 10 C 6.86 g/m*3 10 C 0 km/h
599 25-10-2008 01:56:05 10.1 C 6.9 g/m*3 10.1 C 0 km/h
600 25-10-2008 02:01:05 10.1 C 6.9 g/m*3 10.1 C 0 km/h
Sensor: Nr:Datum:Temp:Abs-Feuchte:Windchill:Wind:
Aussen-T/F 601 25-10-2008 02:06:05 10 C 6.86 g/m*3 10 C 0 km/h
602 25-10-2008 02:11:05 10 C 6.86 g/m*3 10 C 0 km/h
603 25-10-2008 02:16:05 10 C 6.95 g/m*3 10 C 0 km/h
604 25-10-2008 02:21:05 9.9 C 7 g/m*3 9.9 C 0 km/h
605 25-10-2008 02:26:05 9.9 C 7 g/m*3 9.9 C 0 km/h
606 25-10-2008 02:31:05 9.9 C 7 g/m*3 9.9 C 0 km/h
607 25-10-2008 02:36:05 10 C 6.95 g/m*3 10 C 0 km/h
608 25-10-2008 02:41:05 10 C 6.95 g/m*3 10 C 0 km/h
609 25-10-2008 02:46:05 10 C 6.95 g/m*3 10 C 0 km/h
610 25-10-2008 02:51:06 10 C 6.95 g/m*3 10 C 0 km/h
611 25-10-2008 02:56:06 10 C 6.95 g/m*3 10 C 0 km/h
612 25-10-2008 03:01:06 10 C 6.95 g/m*3 10 C 0 km/h
613 25-10-2008 03:06:06 10 C 6.95 g/m*3 10 C 0 km/h
614 25-10-2008 03:11:06 10 C 6.95 g/m*3 10 C 0 km/h
615 25-10-2008 03:16:06 9.9 C 7.1 g/m*3 9.9 C 0 km/h
616 25-10-2008 03:21:06 9.9 C 7.19 g/m*3 9.9 C 0 km/h
617 25-10-2008 03:26:06 9.9 C 7.19 g/m*3 9.9 C 0 km/h
618 25-10-2008 03:31:06 9.9 C 7.19 g/m*3 9.9 C 0 km/h
619 25-10-2008 03:36:06 9.9 C 7.19 g/m*3 9.9 C 0 km/h
620 25-10-2008 03:41:06 9.9 C 7.19 g/m*3 9.9 C 0 km/h
621 25-10-2008 03:46:06 9.9 C 7.19 g/m*3 9.9 C 0 km/h
622 25-10-2008 03:51:06 9.9 C 7.19 g/m*3 9.9 C 0 km/h
623 25-10-2008 03:56:06 9.9 C 7.19 g/m*3 9.9 C 0 km/h
624 25-10-2008 04:01:06 9.9 C 7.19 g/m*3 9.9 C 0 km/h
625 25-10-2008 04:06:06 9.9 C 7.19 g/m*3 9.9 C 0 km/h
Sensor: Nr:Datum:Temp:Abs-Feuchte:Windchill:Wind:
Aussen-T/F 626 25-10-2008 04:11:06 9.9 C 7.28 g/m*3 9.9 C 0 km/h
627 25-10-2008 04:16:06 9.9 C 7.28 g/m*3 9.9 C 0 km/h
628 25-10-2008 04:21:06 9.9 C 7.28 g/m*3 9.9 C 0 km/h
629 25-10-2008 04:26:06 9.9 C 7.28 g/m*3 9.9 C 0 km/h
630 25-10-2008 04:31:07 10 C 7.14 g/m*3 10 C 0 km/h
631 25-10-2008 04:36:07 9.9 C 7.28 g/m*3 9.9 C 0 km/h
632 25-10-2008 04:41:07 10 C 7.14 g/m*3 10 C 0 km/h
633 25-10-2008 04:46:07 10 C 7.14 g/m*3 10 C 0 km/h
634 25-10-2008 04:51:07 10 C 7.14 g/m*3 10 C 0 km/h
635 25-10-2008 04:56:07 10 C 7.14 g/m*3 10 C 0 km/h
636 25-10-2008 05:01:07 10 C 7.14 g/m*3 10 C 0 km/h
637 25-10-2008 05:06:07 9.9 C 7.28 g/m*3 9.9 C 0 km/h
638 25-10-2008 05:11:07 9.9 C 7.28 g/m*3 9.9 C 0 km/h
639 25-10-2008 05:16:07 9.9 C 7.28 g/m*3 9.9 C 0 km/h
640 25-10-2008 05:21:07 10 C 7.24 g/m*3 10 C 0 km/h
641 25-10-2008 05:26:07 9.9 C 7.28 g/m*3 9.9 C 0 km/h
642 25-10-2008 05:31:07 9.9 C 7.28 g/m*3 9.9 C 0 km/h
643 25-10-2008 05:36:07 9.9 C 7.28 g/m*3 9.9 C 0 km/h
644 25-10-2008 05:41:07 9.9 C 7.28 g/m*3 9.9 C 0 km/h
645 25-10-2008 05:46:07 9.9 C 7.28 g/m*3 9.9 C 0 km/h
646 25-10-2008 05:51:07 9.9 C 7.28 g/m*3 9.9 C 0 km/h
647 25-10-2008 05:56:07 9.9 C 7.28 g/m*3 9.9 C 0 km/h
648 25-10-2008 06:01:07 9.9 C 7.28 g/m*3 9.9 C 0 km/h
649 25-10-2008 06:06:07 9.9 C 7.38 g/m*3 9.9 C 0 km/h
650 25-10-2008 06:11:07 9.9 C 7.38 g/m*3 9.9 C 0 km/h
Sensor: Nr:Datum:Temp:Abs-Feuchte:Windchill:Wind:
Aussen-T/F 651 25-10-2008 06:16:08 9.8 C 7.42 g/m*3 9.8 C 0 km/h
652 25-10-2008 06:21:08 9.7 C 7.38 g/m*3 9.7 C 0 km/h
653 25-10-2008 06:26:08 9.7 C 7.56 g/m*3 9.7 C 0 km/h
654 25-10-2008 06:31:08 9.7 C 7.56 g/m*3 9.7 C 0 km/h
655 25-10-2008 06:36:08 9.7 C 7.65 g/m*3 9.7 C 0 km/h
656 25-10-2008 06:41:08 9.7 C 7.65 g/m*3 9.7 C 0 km/h
657 25-10-2008 06:46:08 9.6 C 7.6 g/m*3 9.6 C 0 km/h
658 25-10-2008 06:51:08 9.6 C 7.69 g/m*3 9.6 C 0 km/h
659 25-10-2008 06:56:08 9.5 C 7.74 g/m*3 9.5 C 0 km/h
660 25-10-2008 07:01:08 9.5 C 7.74 g/m*3 9.5 C 0 km/h
661 25-10-2008 07:06:08 9.5 C 7.74 g/m*3 9.5 C 0 km/h
662 25-10-2008 07:11:08 9.6 C 7.79 g/m*3 9.6 C 0 km/h
663 25-10-2008 07:16:08 9.6 C 7.79 g/m*3 9.6 C 0 km/h
664 25-10-2008 07:21:08 9.6 C 7.79 g/m*3 9.6 C 0 km/h
665 25-10-2008 07:26:08 9.6 C 7.79 g/m*3 9.6 C 0 km/h
666 25-10-2008 07:31:08 9.6 C 7.79 g/m*3 9.6 C 0 km/h
667 25-10-2008 07:36:08 9.6 C 7.79 g/m*3 9.6 C 0 km/h
668 25-10-2008 07:41:08 9.6 C 7.79 g/m*3 9.6 C 0 km/h
669 25-10-2008 07:46:08 9.6 C 7.79 g/m*3 9.6 C 0 km/h
670 25-10-2008 07:51:08 9.6 C 7.79 g/m*3 9.6 C 0 km/h
671 25-10-2008 07:56:08 9.6 C 7.79 g/m*3 9.6 C 0 km/h
672 25-10-2008 08:01:09 9.6 C 7.69 g/m*3 9.6 C 0 km/h
673 25-10-2008 08:06:09 9.7 C 7.74 g/m*3 9.7 C 0 km/h
674 25-10-2008 08:11:09 9.7 C 7.74 g/m*3 9.7 C 0 km/h
675 25-10-2008 08:16:09 9.7 C 7.74 g/m*3 9.7 C 0 km/h
Sensor: Nr:Datum:Temp:Abs-Feuchte:Windchill:Wind:
Aussen-T/F 676 25-10-2008 08:21:09 9.7 C 7.74 g/m*3 9.7 C 0 km/h
677 25-10-2008 08:26:09 9.8 C 7.79 g/m*3 9.8 C 0 km/h
678 25-10-2008 08:31:09 9.8 C 7.79 g/m*3 9.8 C 0 km/h
679 25-10-2008 08:36:09 9.8 C 7.79 g/m*3 9.8 C 0 km/h
680 25-10-2008 08:41:09 9.9 C 7.84 g/m*3 9.9 C 0 km/h
681 25-10-2008 08:46:09 9.9 C 7.84 g/m*3 9.9 C 0 km/h
682 25-10-2008 08:51:09 9.9 C 7.84 g/m*3 9.9 C 0 km/h
683 25-10-2008 08:56:09 10 C 7.71 g/m*3 10 C 0 km/h
684 25-10-2008 09:01:03 10 C 7.71 g/m*3 10 C 0 km/h
685 25-10-2008 09:06:03 10.1 C 7.75 g/m*3 10.1 C 0 km/h
686 25-10-2008 09:11:03 10.1 C 7.75 g/m*3 10.1 C 0 km/h
687 25-10-2008 09:22:03 10.3 C 7.76 g/m*3 10.3 C 0 km/h
688 25-10-2008 09:47:02 10.7 C 7.86 g/m*3 10.7 C 0 km/h
689 25-10-2008 10:12:02 11.1 C 7.76 g/m*3 11.1 C 0 km/h
690 25-10-2008 10:37:02 11.6 C 7.8 g/m*3 11.6 C 0 km/h
691 25-10-2008 11:02:02 12 C 7.67 g/m*3 12 C 0 km/h
692 25-10-2008 11:27:02 12.3 C 7.82 g/m*3 12.3 C 0 km/h
693 25-10-2008 11:52:01 12.4 C 7.76 g/m*3 12.4 C 0 km/h
694 25-10-2008 12:17:01 12.7 C 8.01 g/m*3 12.7 C 0 km/h
695 25-10-2008 12:42:02 14 C 7.84 g/m*3 14 C 0 km/h
696 25-10-2008 13:07:02 14.8 C 7.73 g/m*3 14.8 C 0 km/h
697 25-10-2008 13:32:02 14.5 C 7.59 g/m*3 14.5 C 0 km/h
698 25-10-2008 13:57:02 14.7 C 7.43 g/m*3 14.7 C 0 km/h
699 25-10-2008 14:22:02 14.9 C 7.65 g/m*3 14.9 C 0 km/h
700 25-10-2008 14:47:01 15.4 C 7.36 g/m*3 15.4 C 0 km/h
Sensor: Nr:Datum:Temp:Abs-Feuchte:Windchill:Wind:
Aussen-T/F 701 25-10-2008 15:12:02 15.3 C 7.31 g/m*3 15.3 C 0 km/h
702 25-10-2008 15:37:02 15.2 C 7.53 g/m*3 15.2 C 0 km/h
703 25-10-2008 16:02:02 16.8 C 7.72 g/m*3 16.8 C 0 km/h
704 25-10-2008 16:27:02 17.3 C 7.22 g/m*3 17.3 C 0 km/h
705 25-10-2008 16:52:02 17 C 7.23 g/m*3 17 C 0 km/h
706 25-10-2008 17:17:02 16.8 C 7.43 g/m*3 16.8 C 0 km/h
707 25-10-2008 17:42:02 15.5 C 7.4 g/m*3 15.5 C 0 km/h
708 25-10-2008 18:07:02 13.7 C 7.46 g/m*3 13.7 C 0 km/h
709 25-10-2008 18:32:02 12.5 C 7.7 g/m*3 12.5 C 0 km/h
710 25-10-2008 18:57:02 12.3 C 7.93 g/m*3 12.3 C 0 km/h
711 25-10-2008 19:22:02 12.5 C 7.92 g/m*3 12.5 C 0 km/h
712 25-10-2008 19:47:01 11.9 C 7.84 g/m*3 11.9 C 0 km/h
713 25-10-2008 20:12:02 11.6 C 7.69 g/m*3 11.6 C 0 km/h
714 25-10-2008 20:37:02 11.1 C 7.45 g/m*3 11.1 C 0 km/h
715 25-10-2008 21:02:02 10.4 C 7.42 g/m*3 10.4 C 0 km/h
716 25-10-2008 21:27:02 9.9 C 7.47 g/m*3 9.9 C 0 km/h
717 25-10-2008 21:52:02 9.5 C 7.37 g/m*3 9.5 C 0 km/h
718 25-10-2008 22:31:02 9.2 C 7.32 g/m*3 9.2 C 0 km/h
719 25-10-2008 22:56:02 8.7 C 7.26 g/m*3 8.7 C 0 km/h
720 25-10-2008 23:21:02 8.3 C 7.08 g/m*3 8.3 C 0 km/h
721 25-10-2008 23:46:02 8 C 7.03 g/m*3 8 C 0 km/h
722 26-10-2008 00:11:02 7.6 C 7.01 g/m*3 7.6 C 0 km/h
723 26-10-2008 00:36:02 7.4 C 6.92 g/m*3 7.4 C 0 km/h
724 26-10-2008 01:01:02 7.1 C 6.79 g/m*3 7.1 C 0 km/h
725 26-10-2008 01:26:02 7 C 6.82 g/m*3 7 C 0 km/h
Sensor: Nr:Datum:Temp:Abs-Feuchte:Windchill:Wind:
Aussen-T/F 726 26-10-2008 01:51:02 6.8 C 6.81 g/m*3 6.8 C 0 km/h
727 26-10-2008 02:16:02 6.6 C 6.72 g/m*3 6.6 C 0 km/h
728 26-10-2008 02:41:03 6.4 C 6.63 g/m*3 6.4 C 0 km/h
729 26-10-2008 03:06:03 6.2 C 6.62 g/m*3 6.2 C 0 km/h
730 26-10-2008 03:31:03 6 C 6.53 g/m*3 6 C 0 km/h
731 26-10-2008 03:56:03 5.8 C 6.52 g/m*3 5.8 C 0 km/h
732 26-10-2008 04:11:03 5.8 C 6.59 g/m*3 5.8 C 0 km/h
733 26-10-2008 04:21:03 5.7 C 6.48 g/m*3 5.7 C 0 km/h
734 26-10-2008 04:36:03 5.7 C 6.55 g/m*3 5.7 C 0 km/h
735 26-10-2008 04:46:03 5.9 C 6.63 g/m*3 5.9 C 0 km/h
736 26-10-2008 05:01:03 5.8 C 6.66 g/m*3 5.8 C 0 km/h
737 26-10-2008 05:26:03 5.6 C 6.5 g/m*3 5.6 C 0 km/h
738 26-10-2008 05:51:03 5.4 C 6.42 g/m*3 5.4 C 0 km/h
739 26-10-2008 06:16:03 5.7 C 6.62 g/m*3 5.7 C 0 km/h
740 26-10-2008 06:41:03 6.4 C 6.93 g/m*3 6.4 C 0 km/h
741 26-10-2008 07:06:03 6.8 C 6.96 g/m*3 6.8 C 0 km/h
742 26-10-2008 07:31:03 6.8 C 6.81 g/m*3 6.8 C 0 km/h
743 26-10-2008 07:56:03 6.7 C 6.76 g/m*3 6.7 C 0 km/h
744 26-10-2008 08:21:03 6.5 C 6.67 g/m*3 6.5 C 0 km/h
745 26-10-2008 08:46:03 6.6 C 6.72 g/m*3 6.6 C 0 km/h
746 26-10-2008 09:11:03 7.7 C 7.22 g/m*3 7.7 C 0 km/h
747 26-10-2008 09:36:03 8.5 C 7.43 g/m*3 8.5 C 0 km/h
748 26-10-2008 10:01:03 9.4 C 7.69 g/m*3 9.4 C 0 km/h
749 26-10-2008 10:26:04 10.9 C 7.16 g/m*3 10.9 C 0 km/h
750 26-10-2008 10:51:04 11.8 C 7.05 g/m*3 11.8 C 0 km/h
Sensor: Nr:Datum:Temp:Abs-Feuchte:Windchill:Wind:
Aussen-T/F 751 26-10-2008 11:16:04 12.3 C 6.62 g/m*3 12.3 C 0 km/h
752 26-10-2008 11:41:04 12.7 C 6.57 g/m*3 12.7 C 0 km/h
753 26-10-2008 12:06:04 13.5 C 6.2 g/m*3 13.5 C 0 km/h
754 26-10-2008 12:31:04 13.9 C 6.11 g/m*3 13.9 C 0 km/h
755 26-10-2008 12:56:04 15.6 C 5.59 g/m*3 15.6 C 0 km/h
756 26-10-2008 13:21:04 16.8 C 5.15 g/m*3 16.8 C 0 km/h
757 26-10-2008 13:46:04 16 C 5.04 g/m*3 16 C 0 km/h
758 26-10-2008 14:11:04 15.6 C 4.92 g/m*3 15.6 C 0 km/h
759 26-10-2008 14:36:04 15.2 C 4.8 g/m*3 15.2 C 0 km/h
760 26-10-2008 15:01:04 15.1 C 4.9 g/m*3 15.1 C 0 km/h
761 26-10-2008 15:26:04 15.2 C 4.8 g/m*3 15.2 C 0 km/h
762 26-10-2008 15:51:04 15.2 C 4.93 g/m*3 15.2 C 0 km/h
763 26-10-2008 16:16:04 15.1 C 5.03 g/m*3 15.1 C 0 km/h
764 26-10-2008 16:41:04 14.7 C 5.16 g/m*3 14.7 C 0 km/h
765 26-10-2008 17:06:04 14.3 C 5.28 g/m*3 14.3 C 0 km/h
766 26-10-2008 17:31:04 14.5 C 5.1 g/m*3 14.5 C 0 km/h
767 26-10-2008 17:56:04 14.5 C 5.1 g/m*3 14.5 C 0 km/h
768 26-10-2008 18:21:04 14.5 C 4.97 g/m*3 14.5 C 0 km/h
769 26-10-2008 18:46:05 14.3 C 5.04 g/m*3 14.3 C 0 km/h
770 26-10-2008 19:11:05 14.1 C 5.1 g/m*3 14.1 C 0 km/h
771 26-10-2008 19:36:05 14.1 C 5.1 g/m*3 14.1 C 0 km/h
772 26-10-2008 20:01:05 14 C 5.31 g/m*3 14 C 0 km/h
773 26-10-2008 20:26:05 13.7 C 5.57 g/m*3 13.7 C 0 km/h
774 26-10-2008 20:51:05 13.7 C 5.92 g/m*3 13.7 C 0 km/h
775 26-10-2008 21:16:05 13.6 C 6 g/m*3 13.6 C 0 km/h
Sensor: Nr:Datum:Temp:Abs-Feuchte:Windchill:Wind:
Aussen-T/F 776 26-10-2008 21:41:05 13.6 C 6.36 g/m*3 13.6 C 0 km/h
777 26-10-2008 22:06:05 13.5 C 6.43 g/m*3 13.5 C 0 km/h
778 26-10-2008 22:31:05 13.5 C 6.55 g/m*3 13.5 C 0 km/h
779 26-10-2008 22:56:05 13.4 C 6.63 g/m*3 13.4 C 0 km/h
780 26-10-2008 23:21:05 13.5 C 6.78 g/m*3 13.5 C 0 km/h
781 26-10-2008 23:46:05 13.2 C 6.89 g/m*3 13.2 C 0 km/h
782 27-10-2008 00:11:05 13.2 C 6.89 g/m*3 13.2 C 0 km/h
783 27-10-2008 00:36:05 13.2 C 7 g/m*3 13.2 C 0 km/h
784 27-10-2008 01:01:05 12 C 7.89 g/m*3 12 C 0 km/h
785 27-10-2008 01:26:05 11.4 C 8.31 g/m*3 11.4 C 0 km/h
786 27-10-2008 01:51:05 11 C 8.41 g/m*3 11 C 0 km/h
787 27-10-2008 02:16:05 11 C 8.51 g/m*3 11 C 0 km/h
788 27-10-2008 02:41:05 11.2 C 8.41 g/m*3 11.2 C 0 km/h
789 27-10-2008 03:06:05 11.1 C 8.36 g/m*3 11.1 C 0 km/h
790 27-10-2008 03:31:06 10.9 C 8.55 g/m*3 10.9 C 0 km/h
791 27-10-2008 03:56:06 10.9 C 8.65 g/m*3 10.9 C 0 km/h
792 27-10-2008 04:21:06 10.7 C 8.74 g/m*3 10.7 C 0 km/h
793 27-10-2008 04:46:06 10.6 C 8.78 g/m*3 10.6 C 0 km/h
794 27-10-2008 05:11:06 10.5 C 8.83 g/m*3 10.5 C 0 km/h
795 27-10-2008 05:36:06 10.5 C 8.92 g/m*3 10.5 C 0 km/h
796 27-10-2008 06:01:06 10.4 C 8.87 g/m*3 10.4 C 0 km/h
797 27-10-2008 06:26:06 10.3 C 8.81 g/m*3 10.3 C 0 km/h
798 27-10-2008 06:51:06 10.2 C 8.76 g/m*3 10.2 C 0 km/h
799 27-10-2008 07:16:06 10.2 C 8.85 g/m*3 10.2 C 0 km/h
800 27-10-2008 07:41:06 10.1 C 8.79 g/m*3 10.1 C 0 km/h
Sensor: Nr:Datum:Temp:Abs-Feuchte:Windchill:Wind:
Aussen-T/F 801 27-10-2008 08:06:06 10.1 C 8.79 g/m*3 10.1 C 0 km/h
802 27-10-2008 08:31:06 10.2 C 8.95 g/m*3 10.2 C 0 km/h
803 27-10-2008 08:56:06 10.3 C 9 g/m*3 10.3 C 0 km/h
804 27-10-2008 09:21:06 10.4 C 9.06 g/m*3 10.4 C 0 km/h
805 27-10-2008 09:46:06 10.4 C 9.06 g/m*3 10.4 C 0 km/h
806 27-10-2008 10:11:06 10.4 C 9.06 g/m*3 10.4 C 0 km/h
807 27-10-2008 10:36:06 10.6 C 9.17 g/m*3 10.6 C 0 km/h
808 27-10-2008 11:01:06 9.5 C 8.56 g/m*3 9.5 C 0 km/h
809 27-10-2008 11:26:06 9.5 C 8.56 g/m*3 9.5 C 0 km/h
810 27-10-2008 11:51:07 10.1 C 8.79 g/m*3 10.1 C 0 km/h
811 27-10-2008 12:16:07 10.2 C 8.85 g/m*3 10.2 C 0 km/h
812 27-10-2008 12:41:07 10.5 C 9.02 g/m*3 10.5 C 0 km/h
813 27-10-2008 13:06:07 10.4 C 8.67 g/m*3 10.4 C 0 km/h
814 27-10-2008 13:31:07 10.4 C 8.58 g/m*3 10.4 C 0 km/h
815 27-10-2008 13:56:07 10.7 C 8.15 g/m*3 10.7 C 0 km/h
816 27-10-2008 14:21:07 11.9 C 8.37 g/m*3 11.9 C 0 km/h
817 27-10-2008 14:46:07 12 C 7.99 g/m*3 12 C 0 km/h
818 27-10-2008 15:11:07 14 C 8.81 g/m*3 14 C 0 km/h
819 27-10-2008 15:36:07 13.5 C 7.49 g/m*3 13.5 C 0 km/h
820 27-10-2008 16:01:07 13.4 C 7.32 g/m*3 13.4 C 0 km/h
821 27-10-2008 16:26:07 11.5 C 7.13 g/m*3 11.5 C 0 km/h
822 27-10-2008 16:51:07 11.2 C 7.3 g/m*3 11.2 C 0 km/h
823 27-10-2008 17:16:07 10.7 C 7.46 g/m*3 10.7 C 0 km/h
824 27-10-2008 17:41:07 10.2 C 6.66 g/m*3 10.2 C 0 km/h
825 27-10-2008 18:06:07 9.8 C 6.77 g/m*3 9.8 C 0 km/h
Sensor: Nr:Datum:Temp:Abs-Feuchte:Windchill:Wind:
Aussen-T/F 826 27-10-2008 18:31:07 9.9 C 6.82 g/m*3 9.9 C 0 km/h
827 27-10-2008 18:56:07 9.5 C 6.92 g/m*3 9.5 C 0 km/h
828 27-10-2008 19:21:07 8.8 C 6.88 g/m*3 8.8 C 0 km/h
829 27-10-2008 19:46:07 9.1 C 7.01 g/m*3 9.1 C 0 km/h
830 27-10-2008 20:11:08 8.8 C 7.05 g/m*3 8.8 C 0 km/h
831 27-10-2008 20:36:08 8.4 C 6.87 g/m*3 8.4 C 0 km/h
832 27-10-2008 21:01:08 8.1 C 6.82 g/m*3 8.1 C 0 km/h
833 27-10-2008 21:26:08 7.9 C 6.82 g/m*3 7.9 C 0 km/h
834 27-10-2008 21:51:08 7.1 C 6.55 g/m*3 7.1 C 0 km/h
835 27-10-2008 22:16:08 7.3 C 6.79 g/m*3 7.3 C 0 km/h
836 27-10-2008 22:41:08 7.2 C 6.67 g/m*3 7.2 C 0 km/h
837 27-10-2008 23:06:08 6.8 C 6.65 g/m*3 6.8 C 0 km/h
838 27-10-2008 23:31:08 6.3 C 6.51 g/m*3 6.3 C 0 km/h
839 27-10-2008 23:56:08 6.1 C 6.5 g/m*3 6.1 C 0 km/h
840 28-10-2008 00:21:08 5.8 C 6.45 g/m*3 5.8 C 0 km/h
841 28-10-2008 00:46:08 6.1 C 6.58 g/m*3 6.1 C 0 km/h
842 28-10-2008 01:11:08 6.1 C 6.65 g/m*3 6.1 C 0 km/h
843 28-10-2008 01:36:08 5.8 C 6.52 g/m*3 5.8 C 0 km/h
844 28-10-2008 02:01:08 6 C 6.6 g/m*3 6 C 0 km/h
845 28-10-2008 02:26:08 6.3 C 6.81 g/m*3 6.3 C 0 km/h
846 28-10-2008 02:51:08 6.4 C 6.78 g/m*3 6.4 C 0 km/h
847 28-10-2008 03:16:08 6.4 C 6.78 g/m*3 6.4 C 0 km/h
848 28-10-2008 03:41:08 6.6 C 6.87 g/m*3 6.6 C 0 km/h
849 28-10-2008 04:06:08 6.5 C 6.82 g/m*3 6.5 C 0 km/h
850 28-10-2008 04:31:08 6.5 C 6.82 g/m*3 6.5 C 0 km/h
Sensor: Nr:Datum:Temp:Abs-Feuchte:Windchill:Wind:
Aussen-T/F 851 28-10-2008 04:56:09 6.5 C 6.9 g/m*3 6.5 C 0 km/h
852 28-10-2008 05:21:09 6.5 C 6.9 g/m*3 6.5 C 0 km/h
853 28-10-2008 05:46:09 6.4 C 6.93 g/m*3 6.4 C 0 km/h
854 28-10-2008 06:11:09 6.3 C 6.88 g/m*3 6.3 C 0 km/h
855 28-10-2008 06:36:09 6.5 C 6.97 g/m*3 6.5 C 0 km/h
856 28-10-2008 07:01:09 6.2 C 6.84 g/m*3 6.2 C 0 km/h
857 28-10-2008 07:26:09 6 C 6.75 g/m*3 6 C 0 km/h
858 28-10-2008 07:51:09 6 C 6.75 g/m*3 6 C 0 km/h
859 28-10-2008 08:16:09 6.2 C 6.91 g/m*3 6.2 C 0 km/h
860 28-10-2008 08:41:09 6.6 C 7.1 g/m*3 6.6 C 0 km/h
861 28-10-2008 09:06:09 7 C 7.21 g/m*3 7 C 0 km/h
862 28-10-2008 09:31:09 7.3 C 7.19 g/m*3 7.3 C 0 km/h
863 28-10-2008 09:56:09 7.8 C 6.94 g/m*3 7.8 C 0 km/h
864 28-10-2008 10:21:09 7.9 C 6.65 g/m*3 7.9 C 0 km/h
865 28-10-2008 10:46:09 8.5 C 6.92 g/m*3 8.5 C 0 km/h
866 28-10-2008 11:11:09 9.2 C 6.88 g/m*3 9.2 C 0 km/h
867 28-10-2008 11:36:09 10.1 C 6.71 g/m*3 10.1 C 0 km/h
868 28-10-2008 12:01:09 10.5 C 6.3 g/m*3 10.5 C 0 km/h
869 28-10-2008 12:26:09 10.5 C 5.82 g/m*3 10.5 C 0 km/h
870 28-10-2008 12:51:09 10.3 C 4.98 g/m*3 10.3 C 0 km/h
871 28-10-2008 13:16:10 10.6 C 5.37 g/m*3 10.6 C 0 km/h
872 28-10-2008 13:41:10 10.5 C 5.43 g/m*3 10.5 C 0 km/h
873 28-10-2008 14:06:10 10.1 C 5.3 g/m*3 10.1 C 0 km/h
874 28-10-2008 14:31:10 10.2 C 5.33 g/m*3 10.2 C 0 km/h
875 28-10-2008 14:56:10 10.4 C 5.4 g/m*3 10.4 C 0 km/h
Sensor: Nr:Datum:Temp:Abs-Feuchte:Windchill:Wind:
Aussen-T/F 876 28-10-2008 15:21:10 10.2 C 5.23 g/m*3 10.2 C 0 km/h
877 28-10-2008 15:46:10 9.8 C 5.38 g/m*3 9.8 C 0 km/h
878 28-10-2008 16:11:10 9 C 5.73 g/m*3 9 C 0 km/h
879 28-10-2008 16:36:10 8.4 C 6.19 g/m*3 8.4 C 0 km/h
880 28-10-2008 17:01:10 7.8 C 6.12 g/m*3 7.8 C 0 km/h
881 28-10-2008 17:26:10 7 C 5.97 g/m*3 7 C 0 km/h
882 28-10-2008 17:51:10 6.5 C 5.92 g/m*3 6.5 C 0 km/h
883 28-10-2008 18:16:10 6.2 C 5.96 g/m*3 6.2 C 0 km/h
884 28-10-2008 18:41:10 5.5 C 5.76 g/m*3 5.5 C 0 km/h
885 28-10-2008 19:06:10 5.4 C 5.72 g/m*3 5.4 C 0 km/h
886 28-10-2008 19:31:10 5.2 C 5.78 g/m*3 5.2 C 0 km/h
887 28-10-2008 19:56:10 5 C 5.71 g/m*3 5 C 0 km/h
888 28-10-2008 20:21:10 4.9 C 5.81 g/m*3 4.9 C 0 km/h
889 28-10-2008 20:46:10 4.7 C 5.73 g/m*3 4.7 C 0 km/h
890 28-10-2008 21:11:10 4.4 C 5.62 g/m*3 4.4 C 0 km/h
891 28-10-2008 21:36:10 4.2 C 5.61 g/m*3 4.2 C 0 km/h
892 28-10-2008 22:01:11 3.9 C 5.49 g/m*3 3.9 C 0 km/h
893 28-10-2008 22:26:11 3.8 C 5.58 g/m*3 3.8 C 0 km/h
894 28-10-2008 22:51:11 3.6 C 5.51 g/m*3 3.6 C 0 km/h
895 28-10-2008 23:16:11 3.4 C 5.44 g/m*3 3.4 C 0 km/h
896 28-10-2008 23:41:11 3.2 C 5.36 g/m*3 3.2 C 0 km/h
897 29-10-2008 00:06:11 3.2 C 5.42 g/m*3 3.2 C 0 km/h
898 29-10-2008 00:31:11 3.1 C 5.39 g/m*3 3.1 C 0 km/h
899 29-10-2008 00:56:11 2.8 C 5.34 g/m*3 2.8 C 0 km/h
900 29-10-2008 01:21:11 2.8 C 5.4 g/m*3 2.8 C 0 km/h
Sensor: Nr:Datum:Temp:Abs-Feuchte:Windchill:Wind:
Aussen-T/F 901 29-10-2008 01:46:11 2.9 C 5.43 g/m*3 2.9 C 0 km/h
902 29-10-2008 02:11:11 3 C 5.47 g/m*3 3 C 0 km/h
903 29-10-2008 02:36:11 2.9 C 5.49 g/m*3 2.9 C 0 km/h
904 29-10-2008 03:01:11 3.1 C 5.51 g/m*3 3.1 C 0 km/h
905 29-10-2008 03:26:11 3.4 C 5.68 g/m*3 3.4 C 0 km/h
906 29-10-2008 03:51:11 3.6 C 5.76 g/m*3 3.6 C 0 km/h
907 29-10-2008 04:16:11 3.6 C 5.69 g/m*3 3.6 C 0 km/h
908 29-10-2008 04:41:11 3.4 C 5.62 g/m*3 3.4 C 0 km/h
909 29-10-2008 05:06:11 3.5 C 5.66 g/m*3 3.5 C 0 km/h
910 29-10-2008 05:31:11 3.7 C 5.73 g/m*3 3.7 C 0 km/h
911 29-10-2008 05:56:11 3.7 C 5.73 g/m*3 3.7 C 0 km/h
912 29-10-2008 06:21:11 3.7 C 5.73 g/m*3 3.7 C 0 km/h
913 29-10-2008 06:46:12 3.7 C 5.67 g/m*3 3.7 C 0 km/h
914 29-10-2008 07:11:12 3.7 C 5.67 g/m*3 3.7 C 0 km/h
915 29-10-2008 07:36:12 3.6 C 5.63 g/m*3 3.6 C 0 km/h
916 29-10-2008 08:01:12 3.6 C 5.63 g/m*3 3.6 C 0 km/h
917 29-10-2008 08:26:12 3.9 C 5.75 g/m*3 3.9 C 0 km/h
918 29-10-2008 08:51:12 3.9 C 5.68 g/m*3 3.9 C 0 km/h
919 29-10-2008 09:16:12 4.4 C 5.75 g/m*3 4.4 C 0 km/h
920 29-10-2008 09:41:12 4.6 C 5.69 g/m*3 4.6 C 0 km/h
921 29-10-2008 10:06:12 5 C 5.57 g/m*3 5 C 0 km/h
922 29-10-2008 10:31:12 5.6 C 5.66 g/m*3 5.6 C 0 km/h
923 29-10-2008 10:56:12 5.6 C 5.59 g/m*3 5.6 C 0 km/h
924 29-10-2008 11:21:12 6.5 C 5.77 g/m*3 6.5 C 0 km/h
925 29-10-2008 11:46:12 7.2 C 5.65 g/m*3 7.2 C 0 km/h
Sensor: Nr:Datum:Temp:Abs-Feuchte:Windchill:Wind:
Aussen-T/F 926 29-10-2008 12:11:12 7.1 C 5.54 g/m*3 7.1 C 0 km/h
927 29-10-2008 12:36:12 7.5 C 5.76 g/m*3 7.5 C 0 km/h
928 29-10-2008 13:01:12 8 C 5.37 g/m*3 8 C 0 km/h
929 29-10-2008 13:26:12 8.4 C 5.51 g/m*3 8.4 C 0 km/h
930 29-10-2008 13:51:12 9.2 C 5.63 g/m*3 9.2 C 0 km/h
931 29-10-2008 14:16:12 9.1 C 5.41 g/m*3 9.1 C 0 km/h
932 29-10-2008 14:41:12 10.2 C 5.42 g/m*3 10.2 C 0 km/h
933 29-10-2008 15:06:13 10.7 C 5.11 g/m*3 10.7 C 0 km/h
934 29-10-2008 15:31:13 9.8 C 5.1 g/m*3 9.8 C 0 km/h
935 29-10-2008 15:56:13 9.4 C 5.34 g/m*3 9.4 C 0 km/h
936 29-10-2008 16:21:13 8.4 C 5.34 g/m*3 8.4 C 0 km/h
937 29-10-2008 16:46:13 7.9 C 5.5 g/m*3 7.9 C 0 km/h
938 29-10-2008 17:11:13 7.1 C 5.38 g/m*3 7.1 C 0 km/h
939 29-10-2008 17:36:13 6.7 C 5.47 g/m*3 6.7 C 0 km/h
940 29-10-2008 18:01:13 6.4 C 5.59 g/m*3 6.4 C 0 km/h
941 29-10-2008 18:26:13 6.2 C 5.52 g/m*3 6.2 C 0 km/h
942 29-10-2008 18:51:13 6 C 5.52 g/m*3 6 C 0 km/h
943 29-10-2008 19:16:13 5.9 C 5.62 g/m*3 5.9 C 0 km/h
944 29-10-2008 19:41:13 5.9 C 5.7 g/m*3 5.9 C 0 km/h
945 29-10-2008 20:06:13 5.8 C 5.66 g/m*3 5.8 C 0 km/h
946 29-10-2008 20:31:13 5.4 C 5.58 g/m*3 5.4 C 0 km/h
947 29-10-2008 20:56:13 5.1 C 5.54 g/m*3 5.1 C 0 km/h
948 29-10-2008 21:21:13 5.3 C 5.54 g/m*3 5.3 C 0 km/h
949 29-10-2008 21:46:13 5.1 C 5.47 g/m*3 5.1 C 0 km/h
950 29-10-2008 22:11:13 5.2 C 5.51 g/m*3 5.2 C 0 km/h
Sensor: Nr:Datum:Temp:Abs-Feuchte:Windchill:Wind:
Aussen-T/F 951 29-10-2008 22:36:13 5.2 C 5.58 g/m*3 5.2 C 0 km/h
952 29-10-2008 23:01:13 5.2 C 5.65 g/m*3 5.2 C 0 km/h
953 29-10-2008 23:26:13 5.2 C 5.65 g/m*3 5.2 C 0 km/h
954 29-10-2008 23:51:14 5 C 5.64 g/m*3 5 C 0 km/h
955 30-10-2008 00:16:14 5 C 5.71 g/m*3 5 C 0 km/h
956 30-10-2008 00:41:14 4.9 C 5.74 g/m*3 4.9 C 0 km/h
957 30-10-2008 01:06:14 4.7 C 5.73 g/m*3 4.7 C 0 km/h
958 30-10-2008 01:31:14 4.8 C 5.83 g/m*3 4.8 C 0 km/h
959 30-10-2008 01:56:14 4.8 C 5.83 g/m*3 4.8 C 0 km/h
960 30-10-2008 02:21:14 5 C 5.84 g/m*3 5 C 0 km/h
961 30-10-2008 02:46:14 4.8 C 5.83 g/m*3 4.8 C 0 km/h
962 30-10-2008 03:11:14 4.8 C 5.9 g/m*3 4.8 C 0 km/h
963 30-10-2008 03:36:14 4.7 C 5.93 g/m*3 4.7 C 0 km/h
964 30-10-2008 04:01:14 4.7 C 6 g/m*3 4.7 C 0 km/h
965 30-10-2008 04:26:14 4.5 C 5.98 g/m*3 4.5 C 0 km/h
966 30-10-2008 04:51:14 4.5 C 5.98 g/m*3 4.5 C 0 km/h
967 30-10-2008 05:16:14 4.5 C 6.05 g/m*3 4.5 C 0 km/h
968 30-10-2008 05:41:14 4.5 C 6.05 g/m*3 4.5 C 0 km/h
969 30-10-2008 06:06:14 4.2 C 5.93 g/m*3 4.2 C 0 km/h
970 30-10-2008 06:31:14 4.2 C 5.93 g/m*3 4.2 C 0 km/h
971 30-10-2008 06:56:14 4.1 C 5.89 g/m*3 4.1 C 0 km/h
972 30-10-2008 07:21:14 3.9 C 5.87 g/m*3 3.9 C 0 km/h
973 30-10-2008 07:46:14 3.9 C 5.94 g/m*3 3.9 C 0 km/h
974 30-10-2008 08:11:15 4 C 5.98 g/m*3 4 C 0 km/h
975 30-10-2008 08:36:15 4.2 C 6.06 g/m*3 4.2 C 0 km/h
Sensor: Nr:Datum:Temp:Abs-Feuchte:Windchill:Wind:
Aussen-T/F 976 30-10-2008 09:01:15 4.6 C 6.22 g/m*3 4.6 C 0 km/h
977 30-10-2008 09:26:15 4.8 C 6.3 g/m*3 4.8 C 0 km/h
978 30-10-2008 09:51:15 4.8 C 6.24 g/m*3 4.8 C 0 km/h
979 30-10-2008 10:16:15 4.7 C 6 g/m*3 4.7 C 0 km/h
980 30-10-2008 10:41:15 4.7 C 5.93 g/m*3 4.7 C 0 km/h
981 30-10-2008 11:06:15 5.1 C 6.02 g/m*3 5.1 C 0 km/h
982 30-10-2008 11:31:15 5.3 C 6.1 g/m*3 5.3 C 0 km/h
983 30-10-2008 11:56:15 5.8 C 6.23 g/m*3 5.8 C 0 km/h
984 30-10-2008 12:21:15 5.7 C 6.05 g/m*3 5.7 C 0 km/h
985 30-10-2008 12:46:15 5.6 C 6.08 g/m*3 5.6 C 0 km/h
986 30-10-2008 13:11:15 5.7 C 6.12 g/m*3 5.7 C 0 km/h
987 30-10-2008 13:36:15 5.3 C 5.82 g/m*3 5.3 C 0 km/h
988 30-10-2008 14:01:15 5.7 C 6.05 g/m*3 5.7 C 0 km/h
989 30-10-2008 14:26:15 5.6 C 6.08 g/m*3 5.6 C 0 km/h
990 30-10-2008 14:51:15 5.4 C 6 g/m*3 5.4 C 0 km/h
991 30-10-2008 15:16:15 5.8 C 6.16 g/m*3 5.8 C 0 km/h
992 30-10-2008 15:41:15 5.7 C 6.05 g/m*3 5.7 C 0 km/h
993 30-10-2008 16:06:15 5.7 C 6.12 g/m*3 5.7 C 0 km/h
994 30-10-2008 16:31:15 5.7 C 6.19 g/m*3 5.7 C 0 km/h
995 30-10-2008 16:56:16 5.4 C 6.07 g/m*3 5.4 C 0 km/h
996 30-10-2008 17:21:16 4.8 C 5.9 g/m*3 4.8 C 0 km/h
997 30-10-2008 17:46:16 4.7 C 5.86 g/m*3 4.7 C 0 km/h
998 30-10-2008 18:11:16 4.8 C 5.97 g/m*3 4.8 C 0 km/h
999 30-10-2008 18:36:16 4.6 C 5.89 g/m*3 4.6 C 0 km/h
1000 30-10-2008 19:01:16 4.6 C 6.02 g/m*3 4.6 C 0 km/h
Sensor: Nr:Datum:Temp:Abs-Feuchte:Windchill:Wind:
Aussen-T/F 1001 30-10-2008 19:26:16 4.6 C 6.02 g/m*3 4.6 C 0 km/h
1002 30-10-2008 19:51:16 4.6 C 6.09 g/m*3 4.6 C 0 km/h
1003 30-10-2008 20:16:16 4.4 C 6.01 g/m*3 4.4 C 0 km/h
1004 30-10-2008 20:41:16 4.5 C 6.11 g/m*3 4.5 C 0 km/h
1005 30-10-2008 21:06:16 4.4 C 6.07 g/m*3 4.4 C 0 km/h
1006 30-10-2008 21:31:16 4.3 C 6.03 g/m*3 4.3 C 0 km/h
1007 30-10-2008 21:56:16 4.3 C 6.03 g/m*3 4.3 C 0 km/h
1008 30-10-2008 22:21:16 4.3 C 6.1 g/m*3 4.3 C 0 km/h
1009 30-10-2008 22:46:16 4.3 C 6.1 g/m*3 4.3 C 0 km/h
1010 30-10-2008 23:11:16 4.1 C 6.02 g/m*3 4.1 C 0 km/h
1011 30-10-2008 23:36:16 3.9 C 5.94 g/m*3 3.9 C 0 km/h
1012 31-10-2008 00:01:16 3.8 C 5.96 g/m*3 3.8 C 0 km/h
1013 31-10-2008 00:26:16 3.7 C 5.92 g/m*3 3.7 C 0 km/h
1014 31-10-2008 00:51:16 3.4 C 5.8 g/m*3 3.4 C 0 km/h
1015 31-10-2008 01:16:16 3.2 C 5.72 g/m*3 3.2 C 0 km/h
1016 31-10-2008 01:41:17 2.8 C 5.57 g/m*3 2.8 C 0 km/h
1017 31-10-2008 02:06:17 2.7 C 5.54 g/m*3 2.7 C 0 km/h
1018 31-10-2008 02:31:17 2.9 C 5.61 g/m*3 2.9 C 0 km/h
1019 31-10-2008 02:56:17 3.2 C 5.72 g/m*3 3.2 C 0 km/h
1020 31-10-2008 03:21:17 3.1 C 5.69 g/m*3 3.1 C 0 km/h
1021 31-10-2008 03:46:17 3 C 5.65 g/m*3 3 C 0 km/h
1022 31-10-2008 04:11:17 3.1 C 5.69 g/m*3 3.1 C 0 km/h
1023 31-10-2008 04:36:17 3.2 C 5.72 g/m*3 3.2 C 0 km/h
1024 31-10-2008 05:01:17 3.3 C 5.76 g/m*3 3.3 C 0 km/h
1025 31-10-2008 05:26:17 3.6 C 5.88 g/m*3 3.6 C 0 km/h
Sensor: Nr:Datum:Temp:Abs-Feuchte:Windchill:Wind:
Aussen-T/F 1026 31-10-2008 05:51:17 3.7 C 5.92 g/m*3 3.7 C 0 km/h
1027 31-10-2008 06:16:17 3.8 C 5.96 g/m*3 3.8 C 0 km/h
1028 31-10-2008 06:41:17 4 C 6.04 g/m*3 4 C 0 km/h
1029 31-10-2008 07:06:17 4 C 6.04 g/m*3 4 C 0 km/h
1030 31-10-2008 07:31:17 4 C 6.04 g/m*3 4 C 0 km/h
1031 31-10-2008 07:56:17 4.1 C 6.08 g/m*3 4.1 C 0 km/h
1032 31-10-2008 08:21:17 4.3 C 6.16 g/m*3 4.3 C 0 km/h
1033 31-10-2008 08:46:17 4.5 C 6.24 g/m*3 4.5 C 0 km/h
1034 31-10-2008 09:11:17 4.9 C 6.41 g/m*3 4.9 C 0 km/h
1035 31-10-2008 09:36:17 5.4 C 6.63 g/m*3 5.4 C 0 km/h
1036 31-10-2008 10:01:17 5.8 C 6.81 g/m*3 5.8 C 0 km/h
1037 31-10-2008 10:26:18 6.3 C 6.74 g/m*3 6.3 C 0 km/h
1038 31-10-2008 10:51:18 6.5 C 6.6 g/m*3 6.5 C 0 km/h
1039 31-10-2008 11:16:18 7.1 C 6.55 g/m*3 7.1 C 0 km/h
1040 31-10-2008 11:41:18 7 C 6.51 g/m*3 7 C 0 km/h
1041 31-10-2008 12:06:18 7 C 6.66 g/m*3 7 C 0 km/h
1042 31-10-2008 12:31:18 7.8 C 7.02 g/m*3 7.8 C 0 km/h
1043 31-10-2008 12:56:18 8 C 6.7 g/m*3 8 C 0 km/h
1044 31-10-2008 13:21:18 8 C 6.7 g/m*3 8 C 0 km/h
1045 31-10-2008 13:46:18 8.8 C 6.7 g/m*3 8.8 C 0 km/h
1046 31-10-2008 14:11:18 9.5 C 6.74 g/m*3 9.5 C 0 km/h
1047 31-10-2008 14:36:18 10 C 6.77 g/m*3 10 C 0 km/h
1048 31-10-2008 15:01:18 11.2 C 6.99 g/m*3 11.2 C 0 km/h
1049 31-10-2008 15:26:18 11.1 C 6.35 g/m*3 11.1 C 0 km/h
1050 31-10-2008 15:51:18 10.2 C 6.38 g/m*3 10.2 C 0 km/h
Sensor: Nr:Datum:Temp:Abs-Feuchte:Windchill:Wind:
Aussen-T/F 1051 31-10-2008 16:16:18 9.6 C 6.5 g/m*3 9.6 C 0 km/h
1052 31-10-2008 16:41:18 8.9 C 6.48 g/m*3 8.9 C 0 km/h
1053 31-10-2008 17:06:18 8.4 C 6.53 g/m*3 8.4 C 0 km/h
1054 31-10-2008 17:31:18 8.1 C 6.32 g/m*3 8.1 C 0 km/h
1055 31-10-2008 17:56:18 7.9 C 6.32 g/m*3 7.9 C 0 km/h
1056 31-10-2008 18:21:18 7.3 C 6.32 g/m*3 7.3 C 0 km/h
1057 31-10-2008 18:46:19 6.8 C 6.42 g/m*3 6.8 C 0 km/h
1058 31-10-2008 19:11:19 7 C 6.51 g/m*3 7 C 0 km/h
1059 31-10-2008 19:36:19 6.8 C 6.5 g/m*3 6.8 C 0 km/h
1060 31-10-2008 20:01:19 6.7 C 6.53 g/m*3 6.7 C 0 km/h
1061 31-10-2008 20:26:19 6.5 C 6.52 g/m*3 6.5 C 0 km/h
1062 31-10-2008 20:51:19 6.4 C 6.56 g/m*3 6.4 C 0 km/h
1063 31-10-2008 21:16:19 6.2 C 6.47 g/m*3 6.2 C 0 km/h
1064 31-10-2008 21:41:19 6.2 C 6.55 g/m*3 6.2 C 0 km/h
1065 31-10-2008 22:06:19 6.2 C 6.55 g/m*3 6.2 C 0 km/h
1066 31-10-2008 22:31:19 6.2 C 6.55 g/m*3 6.2 C 0 km/h
1067 31-10-2008 22:56:19 6.3 C 6.66 g/m*3 6.3 C 0 km/h
1068 31-10-2008 23:21:19 6.5 C 6.75 g/m*3 6.5 C 0 km/h
1069 31-10-2008 23:46:19 6.5 C 6.67 g/m*3 6.5 C 0 km/h
1070 01-11-2008 00:11:19 6.4 C 6.63 g/m*3 6.4 C 0 km/h
1071 01-11-2008 00:36:19 6.3 C 6.66 g/m*3 6.3 C 0 km/h
1072 01-11-2008 01:01:19 6.4 C 6.71 g/m*3 6.4 C 0 km/h
1073 01-11-2008 01:26:19 6.4 C 6.78 g/m*3 6.4 C 0 km/h
1074 01-11-2008 01:51:19 6.4 C 6.85 g/m*3 6.4 C 0 km/h
1075 01-11-2008 02:16:19 6.3 C 6.81 g/m*3 6.3 C 0 km/h
Sensor: Nr:Datum:Temp:Abs-Feuchte:Windchill:Wind:
Aussen-T/F 1076 01-11-2008 02:41:19 6.2 C 6.84 g/m*3 6.2 C 0 km/h
1077 01-11-2008 03:06:19 6.2 C 6.91 g/m*3 6.2 C 0 km/h
1078 01-11-2008 03:31:20 6 C 6.82 g/m*3 6 C 0 km/h
1079 01-11-2008 03:56:20 5.9 C 6.85 g/m*3 5.9 C 0 km/h
1080 01-11-2008 04:21:20 6 C 6.9 g/m*3 6 C 0 km/h
1081 01-11-2008 04:46:20 5.9 C 6.85 g/m*3 5.9 C 0 km/h
1082 01-11-2008 05:11:20 6 C 6.9 g/m*3 6 C 0 km/h
1083 01-11-2008 05:36:20 6 C 6.9 g/m*3 6 C 0 km/h
1084 01-11-2008 06:01:20 5.9 C 6.85 g/m*3 5.9 C 0 km/h
1085 01-11-2008 06:26:20 5.9 C 6.85 g/m*3 5.9 C 0 km/h
1086 01-11-2008 06:51:20 5.7 C 6.76 g/m*3 5.7 C 0 km/h
1087 01-11-2008 07:16:20 5.5 C 6.67 g/m*3 5.5 C 0 km/h
1088 01-11-2008 07:41:20 5.3 C 6.58 g/m*3 5.3 C 0 km/h
1089 01-11-2008 08:06:20 5.6 C 6.72 g/m*3 5.6 C 0 km/h
1090 01-11-2008 08:31:20 5.9 C 6.85 g/m*3 5.9 C 0 km/h
1091 01-11-2008 08:56:20 6.5 C 7.12 g/m*3 6.5 C 0 km/h
1092 01-11-2008 09:21:20 7.1 C 7.41 g/m*3 7.1 C 0 km/h
1093 01-11-2008 09:46:20 7.4 C 7.55 g/m*3 7.4 C 0 km/h
1094 01-11-2008 10:11:20 7.9 C 7.56 g/m*3 7.9 C 0 km/h
1095 01-11-2008 10:36:20 8.2 C 7.2 g/m*3 8.2 C 0 km/h
1096 01-11-2008 11:01:20 8.5 C 7.09 g/m*3 8.5 C 0 km/h
1097 01-11-2008 11:26:20 8.7 C 7.01 g/m*3 8.7 C 0 km/h
1098 01-11-2008 11:51:20 9.3 C 6.74 g/m*3 9.3 C 0 km/h
1099 01-11-2008 12:16:21 9.6 C 6.78 g/m*3 9.6 C 0 km/h
1100 01-11-2008 12:41:21 10 C 6.58 g/m*3 10 C 0 km/h
Sensor: Nr:Datum:Temp:Abs-Feuchte:Windchill:Wind:
Aussen-T/F 1101 01-11-2008 13:06:21 10 C 6.58 g/m*3 10 C 0 km/h
1102 01-11-2008 13:31:21 10.3 C 6.7 g/m*3 10.3 C 0 km/h
1103 01-11-2008 13:56:21 10.3 C 6.8 g/m*3 10.3 C 0 km/h
1104 01-11-2008 14:21:21 10.4 C 6.84 g/m*3 10.4 C 0 km/h
1105 01-11-2008 14:46:21 10.5 C 6.89 g/m*3 10.5 C 0 km/h
1106 01-11-2008 15:11:21 10.8 C 6.92 g/m*3 10.8 C 0 km/h
1107 01-11-2008 15:36:21 10.5 C 7.18 g/m*3 10.5 C 0 km/h
1108 01-11-2008 16:01:21 10.1 C 7.28 g/m*3 10.1 C 0 km/h
1109 01-11-2008 16:26:21 9.8 C 7.52 g/m*3 9.8 C 0 km/h
1110 01-11-2008 16:51:21 9.5 C 7.55 g/m*3 9.5 C 0 km/h
1111 01-11-2008 17:16:21 9.4 C 7.6 g/m*3 9.4 C 0 km/h
1112 01-11-2008 17:41:21 9.5 C 7.74 g/m*3 9.5 C 0 km/h
1113 01-11-2008 18:06:21 9.4 C 7.69 g/m*3 9.4 C 0 km/h
1114 01-11-2008 18:31:21 9.2 C 7.59 g/m*3 9.2 C 0 km/h
1115 01-11-2008 18:56:21 9.2 C 7.68 g/m*3 9.2 C 0 km/h
1116 01-11-2008 19:21:21 9.2 C 7.68 g/m*3 9.2 C 0 km/h
1117 01-11-2008 19:46:21 9.2 C 7.68 g/m*3 9.2 C 0 km/h
1118 01-11-2008 20:11:21 9 C 7.41 g/m*3 9 C 0 km/h
1119 01-11-2008 20:36:22 8.9 C 7.53 g/m*3 8.9 C 0 km/h
1120 01-11-2008 21:01:22 8.7 C 7.52 g/m*3 8.7 C 0 km/h
1121 01-11-2008 21:26:22 8.4 C 7.38 g/m*3 8.4 C 0 km/h
1122 01-11-2008 21:51:22 8.3 C 7.42 g/m*3 8.3 C 0 km/h
1123 01-11-2008 22:16:22 8.6 C 7.65 g/m*3 8.6 C 0 km/h
1124 01-11-2008 22:41:22 8.6 C 7.73 g/m*3 8.6 C 0 km/h
1125 01-11-2008 23:06:22 8.5 C 7.68 g/m*3 8.5 C 0 km/h
Sensor: Nr:Datum:Temp:Abs-Feuchte:Windchill:Wind:
Aussen-T/F 1126 01-11-2008 23:31:22 8.4 C 7.63 g/m*3 8.4 C 0 km/h
1127 01-11-2008 23:56:22 8.4 C 7.72 g/m*3 8.4 C 0 km/h
1128 02-11-2008 00:21:22 8.5 C 7.77 g/m*3 8.5 C 0 km/h
1129 02-11-2008 00:46:22 8.5 C 7.85 g/m*3 8.5 C 0 km/h
1130 02-11-2008 01:11:22 9.6 C 7.79 g/m*3 9.6 C 0 km/h
1131 02-11-2008 01:36:22 9.8 C 7.42 g/m*3 9.8 C 0 km/h
1132 02-11-2008 02:01:22 9.3 C 7.46 g/m*3 9.3 C 0 km/h
1133 02-11-2008 02:26:22 9.4 C 7.51 g/m*3 9.4 C 0 km/h
1134 02-11-2008 02:51:22 9 C 7.41 g/m*3 9 C 0 km/h
1135 02-11-2008 03:16:22 8.9 C 7.53 g/m*3 8.9 C 0 km/h
1136 02-11-2008 03:41:22 8.5 C 7.43 g/m*3 8.5 C 0 km/h
1137 02-11-2008 04:06:22 8.3 C 7.5 g/m*3 8.3 C 0 km/h
1138 02-11-2008 04:31:22 8.1 C 7.49 g/m*3 8.1 C 0 km/h
1139 02-11-2008 04:56:22 7.9 C 7.47 g/m*3 7.9 C 0 km/h
1140 02-11-2008 05:21:23 7.6 C 7.41 g/m*3 7.6 C 0 km/h
1141 02-11-2008 05:46:23 7.6 C 7.41 g/m*3 7.6 C 0 km/h
1142 02-11-2008 06:11:23 7.4 C 7.4 g/m*3 7.4 C 0 km/h
1143 02-11-2008 06:36:23 7.5 C 7.52 g/m*3 7.5 C 0 km/h
1144 02-11-2008 07:01:23 7.4 C 7.48 g/m*3 7.4 C 0 km/h
1145 02-11-2008 07:26:23 7.3 C 7.43 g/m*3 7.3 C 0 km/h
1146 02-11-2008 07:51:23 7.1 C 7.33 g/m*3 7.1 C 0 km/h
1147 02-11-2008 08:16:23 7.3 C 7.43 g/m*3 7.3 C 0 km/h
1148 02-11-2008 08:41:23 7.6 C 7.65 g/m*3 7.6 C 0 km/h
1149 02-11-2008 09:06:23 7.6 C 7.65 g/m*3 7.6 C 0 km/h
1150 02-11-2008 09:31:23 8.1 C 7.82 g/m*3 8.1 C 0 km/h
Sensor: Nr:Datum:Temp:Abs-Feuchte:Windchill:Wind:
Aussen-T/F 1151 02-11-2008 09:56:23 8.7 C 8.13 g/m*3 8.7 C 0 km/h
1152 02-11-2008 10:21:23 9.5 C 8.47 g/m*3 9.5 C 0 km/h
1153 02-11-2008 10:46:23 10.1 C 8.42 g/m*3 10.1 C 0 km/h
1154 02-11-2008 11:11:23 10.8 C 8.2 g/m*3 10.8 C 0 km/h
1155 02-11-2008 11:36:23 11.5 C 8.06 g/m*3 11.5 C 0 km/h
1156 02-11-2008 12:01:23 12.5 C 8.25 g/m*3 12.5 C 0 km/h
1157 02-11-2008 12:26:23 13.4 C 8.02 g/m*3 13.4 C 0 km/h
1158 02-11-2008 12:51:23 13.5 C 7.84 g/m*3 13.5 C 0 km/h
1159 02-11-2008 13:16:23 13.8 C 7.74 g/m*3 13.8 C 0 km/h
1160 02-11-2008 13:41:24 14.1 C 7.89 g/m*3 14.1 C 0 km/h
1161 02-11-2008 14:06:24 15.4 C 7.88 g/m*3 15.4 C 0 km/h
1162 02-11-2008 14:31:24 14.8 C 7.73 g/m*3 14.8 C 0 km/h
1163 02-11-2008 14:56:24 14.4 C 7.91 g/m*3 14.4 C 0 km/h
1164 02-11-2008 15:21:24 14.4 C 7.91 g/m*3 14.4 C 0 km/h
1165 02-11-2008 15:46:24 13.8 C 8.1 g/m*3 13.8 C 0 km/h
1166 02-11-2008 16:11:24 13.5 C 8.19 g/m*3 13.5 C 0 km/h
1167 02-11-2008 16:36:24 12.6 C 8.19 g/m*3 12.6 C 0 km/h
1168 02-11-2008 17:01:24 11.8 C 8.1 g/m*3 11.8 C 0 km/h
1169 02-11-2008 17:26:24 11.2 C 8.01 g/m*3 11.2 C 0 km/h
1170 02-11-2008 17:51:24 10.6 C 8 g/m*3 10.6 C 0 km/h
1171 02-11-2008 18:16:24 10.7 C 8.15 g/m*3 10.7 C 0 km/h
1172 02-11-2008 18:41:24 10.1 C 7.85 g/m*3 10.1 C 0 km/h
1173 02-11-2008 19:06:24 9.9 C 7.94 g/m*3 9.9 C 0 km/h
1174 02-11-2008 19:31:24 9.8 C 7.89 g/m*3 9.8 C 0 km/h
1175 02-11-2008 19:56:24 9.6 C 7.88 g/m*3 9.6 C 0 km/h
Sensor: Nr:Datum:Temp:Abs-Feuchte:Windchill:Wind:
Aussen-T/F 1176 02-11-2008 20:21:24 9.4 C 7.87 g/m*3 9.4 C 0 km/h
1177 02-11-2008 20:46:24 9.2 C 7.86 g/m*3 9.2 C 0 km/h
1178 02-11-2008 21:11:24 9.1 C 7.81 g/m*3 9.1 C 0 km/h
1179 02-11-2008 21:36:24 9.1 C 7.9 g/m*3 9.1 C 0 km/h
1180 02-11-2008 22:01:24 9.2 C 7.95 g/m*3 9.2 C 0 km/h
1181 02-11-2008 22:26:25 9 C 7.85 g/m*3 9 C 0 km/h
1182 02-11-2008 22:51:25 8.7 C 7.7 g/m*3 8.7 C 0 km/h
1183 02-11-2008 23:16:25 8.6 C 7.73 g/m*3 8.6 C 0 km/h
1184 02-11-2008 23:41:25 8.2 C 7.62 g/m*3 8.2 C 0 km/h
1185 03-11-2008 00:06:25 8.1 C 7.57 g/m*3 8.1 C 0 km/h
1186 03-11-2008 00:31:25 8 C 7.52 g/m*3 8 C 0 km/h
1187 03-11-2008 00:56:25 7.7 C 7.46 g/m*3 7.7 C 0 km/h
1188 03-11-2008 01:21:25 7.8 C 7.59 g/m*3 7.8 C 0 km/h
1189 03-11-2008 01:46:25 8 C 7.69 g/m*3 8 C 0 km/h
1190 03-11-2008 02:11:25 8 C 7.69 g/m*3 8 C 0 km/h
1191 03-11-2008 02:36:25 8 C 7.69 g/m*3 8 C 0 km/h
1192 03-11-2008 03:01:25 8.5 C 8.03 g/m*3 8.5 C 0 km/h
1193 03-11-2008 03:26:25 8.9 C 8.23 g/m*3 8.9 C 0 km/h
1194 03-11-2008 03:51:25 9 C 8.11 g/m*3 9 C 0 km/h
1195 03-11-2008 04:16:25 9.1 C 8.07 g/m*3 9.1 C 0 km/h
1196 03-11-2008 04:41:25 9.1 C 7.99 g/m*3 9.1 C 0 km/h
1197 03-11-2008 05:06:25 9.2 C 7.95 g/m*3 9.2 C 0 km/h
1198 03-11-2008 05:31:25 9.2 C 7.86 g/m*3 9.2 C 0 km/h
1199 03-11-2008 05:56:25 9.1 C 7.81 g/m*3 9.1 C 0 km/h
1200 03-11-2008 06:21:25 9.2 C 7.86 g/m*3 9.2 C 0 km/h
Sensor: Nr:Datum:Temp:Abs-Feuchte:Windchill:Wind:
Aussen-T/F 1201 03-11-2008 06:46:25 9.2 C 7.77 g/m*3 9.2 C 0 km/h
1202 03-11-2008 07:11:26 9.2 C 7.77 g/m*3 9.2 C 0 km/h
1203 03-11-2008 07:36:26 9.2 C 7.77 g/m*3 9.2 C 0 km/h
1204 03-11-2008 08:01:26 9.4 C 7.87 g/m*3 9.4 C 0 km/h
1205 03-11-2008 08:26:26 9.5 C 7.92 g/m*3 9.5 C 0 km/h
1206 03-11-2008 08:51:26 9.8 C 8.07 g/m*3 9.8 C 0 km/h
1207 03-11-2008 09:16:26 10.1 C 7.94 g/m*3 10.1 C 0 km/h
1208 03-11-2008 09:41:26 10.2 C 7.9 g/m*3 10.2 C 0 km/h
1209 03-11-2008 10:06:26 10.4 C 7.81 g/m*3 10.4 C 0 km/h
1210 03-11-2008 10:31:26 10.5 C 7.76 g/m*3 10.5 C 0 km/h
1211 03-11-2008 10:56:26 11.1 C 7.96 g/m*3 11.1 C 0 km/h
1212 03-11-2008 11:21:26 11.4 C 7.8 g/m*3 11.4 C 0 km/h
1213 03-11-2008 11:46:26 11.7 C 7.84 g/m*3 11.7 C 0 km/h
1214 03-11-2008 12:11:26 12.7 C 8.24 g/m*3 12.7 C 0 km/h
1215 03-11-2008 12:36:26 13.1 C 7.99 g/m*3 13.1 C 0 km/h
1216 03-11-2008 13:01:26 13.4 C 7.9 g/m*3 13.4 C 0 km/h
1217 03-11-2008 13:26:26 13.4 C 7.9 g/m*3 13.4 C 0 km/h
1218 03-11-2008 13:51:26 13.5 C 7.72 g/m*3 13.5 C 0 km/h
1219 03-11-2008 14:16:26 13.6 C 7.77 g/m*3 13.6 C 0 km/h
1220 03-11-2008 14:41:26 14.4 C 7.79 g/m*3 14.4 C 0 km/h
1221 03-11-2008 15:06:27 14 C 7.84 g/m*3 14 C 0 km/h
1222 03-11-2008 15:31:27 13.3 C 8.09 g/m*3 13.3 C 0 km/h
1223 03-11-2008 15:56:27 13.2 C 8.27 g/m*3 13.2 C 0 km/h
1224 03-11-2008 16:21:27 12.7 C 8.24 g/m*3 12.7 C 0 km/h
1225 03-11-2008 16:46:27 12.3 C 8.25 g/m*3 12.3 C 0 km/h
Sensor: Nr:Datum:Temp:Abs-Feuchte:Windchill:Wind:
Aussen-T/F 1226 03-11-2008 17:11:27 11.5 C 8.06 g/m*3 11.5 C 0 km/h
1227 03-11-2008 17:36:27 10.8 C 8.01 g/m*3 10.8 C 0 km/h
1228 03-11-2008 18:01:27 10.1 C 7.85 g/m*3 10.1 C 0 km/h
1229 03-11-2008 18:26:27 9.7 C 7.93 g/m*3 9.7 C 0 km/h
1230 03-11-2008 18:51:27 9.3 C 7.82 g/m*3 9.3 C 0 km/h
1231 03-11-2008 19:16:27 9 C 7.76 g/m*3 9 C 0 km/h
1232 03-11-2008 19:41:27 8.5 C 7.6 g/m*3 8.5 C 0 km/h
1233 03-11-2008 20:06:27 8.4 C 7.63 g/m*3 8.4 C 0 km/h
1234 03-11-2008 20:31:27 8.1 C 7.49 g/m*3 8.1 C 0 km/h
1235 03-11-2008 20:56:27 7.9 C 7.56 g/m*3 7.9 C 0 km/h
1236 03-11-2008 21:21:27 7.5 C 7.36 g/m*3 7.5 C 0 km/h
1237 03-11-2008 21:46:27 7.1 C 7.18 g/m*3 7.1 C 0 km/h
1238 03-11-2008 22:11:27 6.8 C 7.11 g/m*3 6.8 C 0 km/h
1239 03-11-2008 22:36:27 6.6 C 7.02 g/m*3 6.6 C 0 km/h
1240 03-11-2008 23:01:27 6.4 C 6.93 g/m*3 6.4 C 0 km/h
1241 03-11-2008 23:26:28 6.7 C 7.14 g/m*3 6.7 C 0 km/h
1242 03-11-2008 23:51:28 7.1 C 7.33 g/m*3 7.1 C 0 km/h
1243 04-11-2008 00:16:28 6.9 C 7.31 g/m*3 6.9 C 0 km/h
1244 04-11-2008 00:41:28 6.7 C 7.22 g/m*3 6.7 C 0 km/h
1245 04-11-2008 01:06:28 6.8 C 7.27 g/m*3 6.8 C 0 km/h
1246 04-11-2008 01:31:28 6.8 C 7.27 g/m*3 6.8 C 0 km/h
1247 04-11-2008 01:56:28 6.6 C 7.17 g/m*3 6.6 C 0 km/h
1248 04-11-2008 02:21:28 6.5 C 7.12 g/m*3 6.5 C 0 km/h
1249 04-11-2008 02:46:28 6.7 C 7.22 g/m*3 6.7 C 0 km/h
1250 04-11-2008 03:11:28 6.8 C 7.27 g/m*3 6.8 C 0 km/h
Sensor: Nr:Datum:Temp:Abs-Feuchte:Windchill:Wind:
Aussen-T/F 1251 04-11-2008 03:36:28 6.8 C 7.27 g/m*3 6.8 C 0 km/h
1252 04-11-2008 04:01:28 6.8 C 7.27 g/m*3 6.8 C 0 km/h
1253 04-11-2008 04:26:28 6.7 C 7.22 g/m*3 6.7 C 0 km/h
1254 04-11-2008 04:51:28 6.8 C 7.27 g/m*3 6.8 C 0 km/h
1255 04-11-2008 05:16:28 6.4 C 7.08 g/m*3 6.4 C 0 km/h
1256 04-11-2008 05:41:28 6.3 C 7.03 g/m*3 6.3 C 0 km/h
1257 04-11-2008 06:06:28 6.2 C 6.99 g/m*3 6.2 C 0 km/h
1258 04-11-2008 06:31:28 6.3 C 7.03 g/m*3 6.3 C 0 km/h
1259 04-11-2008 06:56:28 6.4 C 7.08 g/m*3 6.4 C 0 km/h
1260 04-11-2008 07:21:29 6.4 C 7.08 g/m*3 6.4 C 0 km/h
1261 04-11-2008 07:46:29 6.5 C 7.12 g/m*3 6.5 C 0 km/h
1262 04-11-2008 08:11:29 6.6 C 7.17 g/m*3 6.6 C 0 km/h
1263 04-11-2008 08:36:29 6.6 C 7.17 g/m*3 6.6 C 0 km/h
1264 04-11-2008 09:01:29 6.9 C 7.31 g/m*3 6.9 C 0 km/h
1265 04-11-2008 09:26:29 7.4 C 7.55 g/m*3 7.4 C 0 km/h
1266 04-11-2008 09:51:29 7.7 C 7.7 g/m*3 7.7 C 0 km/h
1267 04-11-2008 10:16:29 8.1 C 7.9 g/m*3 8.1 C 0 km/h
1268 04-11-2008 10:41:29 7.8 C 7.75 g/m*3 7.8 C 0 km/h
1269 04-11-2008 11:06:29 8.5 C 8.03 g/m*3 8.5 C 0 km/h
1270 04-11-2008 11:31:29 9 C 8.11 g/m*3 9 C 0 km/h
1271 04-11-2008 11:56:29 9 C 7.93 g/m*3 9 C 0 km/h
1272 04-11-2008 12:21:29 9.1 C 7.81 g/m*3 9.1 C 0 km/h
1273 04-11-2008 12:46:29 9.7 C 8.11 g/m*3 9.7 C 0 km/h
1274 04-11-2008 13:11:29 12 C 8.85 g/m*3 12 C 0 km/h
1275 04-11-2008 13:36:29 13.7 C 8.05 g/m*3 13.7 C 0 km/h
Sensor: Nr:Datum:Temp:Abs-Feuchte:Windchill:Wind:
Aussen-T/F 1276 04-11-2008 14:01:29 14.5 C 8.46 g/m*3 14.5 C 0 km/h
1277 04-11-2008 14:26:29 14.4 C 8.41 g/m*3 14.4 C 0 km/h
1278 04-11-2008 14:51:29 14.4 C 8.41 g/m*3 14.4 C 0 km/h
1279 04-11-2008 15:16:30 13.9 C 8.51 g/m*3 13.9 C 0 km/h
1280 04-11-2008 15:41:30 13.4 C 8.49 g/m*3 13.4 C 0 km/h
1281 04-11-2008 16:06:30 12.8 C 8.4 g/m*3 12.8 C 0 km/h
1282 04-11-2008 16:31:30 12.1 C 8.36 g/m*3 12.1 C 0 km/h
1283 04-11-2008 16:56:30 11.8 C 8.21 g/m*3 11.8 C 0 km/h
1284 04-11-2008 17:21:30 11.9 C 8.26 g/m*3 11.9 C 0 km/h
1285 04-11-2008 17:46:30 11.1 C 8.16 g/m*3 11.1 C 0 km/h
1286 04-11-2008 18:11:30 10.9 C 8.26 g/m*3 10.9 C 0 km/h
1287 04-11-2008 18:36:30 10.8 C 8.4 g/m*3 10.8 C 0 km/h
1288 04-11-2008 19:01:30 10.6 C 8.39 g/m*3 10.6 C 0 km/h
1289 04-11-2008 19:26:30 10.4 C 8.29 g/m*3 10.4 C 0 km/h
1290 04-11-2008 19:51:30 10.2 C 8.28 g/m*3 10.2 C 0 km/h
1291 04-11-2008 20:16:30 10.1 C 8.32 g/m*3 10.1 C 0 km/h
1292 04-11-2008 20:41:30 9.7 C 8.2 g/m*3 9.7 C 0 km/h
1293 04-11-2008 21:06:30 9.3 C 8.09 g/m*3 9.3 C 0 km/h
1294 04-11-2008 21:31:30 9.1 C 7.99 g/m*3 9.1 C 0 km/h
1295 04-11-2008 21:56:30 9.1 C 8.07 g/m*3 9.1 C 0 km/h
1296 04-11-2008 22:21:30 9.1 C 8.16 g/m*3 9.1 C 0 km/h
1297 04-11-2008 22:46:30 8.7 C 8.04 g/m*3 8.7 C 0 km/h
1298 04-11-2008 23:11:31 8.4 C 7.89 g/m*3 8.4 C 0 km/h
1299 04-11-2008 23:36:31 9 C 8.2 g/m*3 9 C 0 km/h
1300 05-11-2008 00:01:31 8.7 C 8.04 g/m*3 8.7 C 0 km/h
Sensor: Nr:Datum:Temp:Abs-Feuchte:Windchill:Wind:
Aussen-T/F 1301 05-11-2008 00:26:31 8.7 C 8.04 g/m*3 8.7 C 0 km/h
1302 05-11-2008 00:51:31 8.6 C 7.99 g/m*3 8.6 C 0 km/h
1303 05-11-2008 01:16:31 8.7 C 8.04 g/m*3 8.7 C 0 km/h
1304 05-11-2008 01:41:31 8.8 C 7.92 g/m*3 8.8 C 0 km/h
1305 05-11-2008 02:06:31 8.7 C 7.7 g/m*3 8.7 C 0 km/h
1306 05-11-2008 02:31:31 8.5 C 7.6 g/m*3 8.5 C 0 km/h
1307 05-11-2008 02:56:31 8.4 C 7.55 g/m*3 8.4 C 0 km/h
1308 05-11-2008 03:21:31 8.3 C 7.5 g/m*3 8.3 C 0 km/h
1309 05-11-2008 03:46:31 8.4 C 7.55 g/m*3 8.4 C 0 km/h
1310 05-11-2008 04:11:31 8.2 C 7.37 g/m*3 8.2 C 0 km/h
1311 05-11-2008 04:36:31 7.9 C 7.39 g/m*3 7.9 C 0 km/h
1312 05-11-2008 05:01:31 8.2 C 7.45 g/m*3 8.2 C 0 km/h
1313 05-11-2008 05:26:31 8.4 C 7.55 g/m*3 8.4 C 0 km/h
1314 05-11-2008 05:51:31 8.4 C 7.55 g/m*3 8.4 C 0 km/h
1315 05-11-2008 06:16:31 8.4 C 7.38 g/m*3 8.4 C 0 km/h
1316 05-11-2008 06:41:31 8.5 C 7.34 g/m*3 8.5 C 0 km/h
1317 05-11-2008 07:06:31 8.4 C 7.21 g/m*3 8.4 C 0 km/h
1318 05-11-2008 07:31:32 8.4 C 7.21 g/m*3 8.4 C 0 km/h
1319 05-11-2008 07:56:32 8.5 C 7.26 g/m*3 8.5 C 0 km/h
1320 05-11-2008 08:21:32 8.7 C 7.35 g/m*3 8.7 C 0 km/h
1321 05-11-2008 08:46:32 8.9 C 7.45 g/m*3 8.9 C 0 km/h
1322 05-11-2008 09:11:32 9.2 C 7.5 g/m*3 9.2 C 0 km/h
1323 05-11-2008 09:36:32 9.8 C 7.79 g/m*3 9.8 C 0 km/h
1324 05-11-2008 10:01:32 10 C 7.42 g/m*3 10 C 0 km/h
1325 05-11-2008 10:26:32 10.7 C 7.46 g/m*3 10.7 C 0 km/h
Sensor: Nr:Datum:Temp:Abs-Feuchte:Windchill:Wind:
Aussen-T/F 1326 05-11-2008 10:51:32 10.7 C 7.46 g/m*3 10.7 C 0 km/h
1327 05-11-2008 11:16:32 10.9 C 7.46 g/m*3 10.9 C 0 km/h
1328 05-11-2008 11:41:32 11 C 7.51 g/m*3 11 C 0 km/h
1329 05-11-2008 12:06:32 11.1 C 7.45 g/m*3 11.1 C 0 km/h
1330 05-11-2008 12:31:32 11 C 7.41 g/m*3 11 C 0 km/h
1331 05-11-2008 12:56:32 10.8 C 7.51 g/m*3 10.8 C 0 km/h
1332 05-11-2008 13:21:32 11 C 7.61 g/m*3 11 C 0 km/h
1333 05-11-2008 13:46:32 11.2 C 7.6 g/m*3 11.2 C 0 km/h
1334 05-11-2008 14:11:32 11.2 C 7.7 g/m*3 11.2 C 0 km/h
1335 05-11-2008 14:36:32 11.4 C 7.8 g/m*3 11.4 C 0 km/h
1336 05-11-2008 15:01:32 11.5 C 7.64 g/m*3 11.5 C 0 km/h
1337 05-11-2008 15:26:33 11.5 C 7.64 g/m*3 11.5 C 0 km/h
1338 05-11-2008 15:51:33 11.4 C 7.7 g/m*3 11.4 C 0 km/h
1339 05-11-2008 16:16:33 11.1 C 7.66 g/m*3 11.1 C 0 km/h
1340 05-11-2008 16:41:33 10.9 C 7.76 g/m*3 10.9 C 0 km/h
1341 05-11-2008 17:06:33 10.7 C 7.66 g/m*3 10.7 C 0 km/h
1342 05-11-2008 17:31:33 10.5 C 7.66 g/m*3 10.5 C 0 km/h
1343 05-11-2008 17:56:33 10.5 C 7.76 g/m*3 10.5 C 0 km/h
1344 05-11-2008 18:21:33 10.4 C 7.81 g/m*3 10.4 C 0 km/h
1345 05-11-2008 18:46:33 10.4 C 7.81 g/m*3 10.4 C 0 km/h
1346 05-11-2008 19:11:33 10.4 C 7.9 g/m*3 10.4 C 0 km/h
1347 05-11-2008 19:36:33 10.3 C 7.85 g/m*3 10.3 C 0 km/h
1348 05-11-2008 20:01:33 10.3 C 7.85 g/m*3 10.3 C 0 km/h
1349 05-11-2008 20:26:33 10.3 C 7.95 g/m*3 10.3 C 0 km/h
1350 05-11-2008 20:51:33 10.2 C 7.9 g/m*3 10.2 C 0 km/h
Sensor: Nr:Datum:Temp:Abs-Feuchte:Windchill:Wind:
Aussen-T/F 1351 05-11-2008 21:16:33 10.2 C 7.9 g/m*3 10.2 C 0 km/h
1352 05-11-2008 21:41:33 10.2 C 7.9 g/m*3 10.2 C 0 km/h
1353 05-11-2008 22:06:33 10.2 C 7.9 g/m*3 10.2 C 0 km/h
1354 05-11-2008 22:31:33 10.2 C 7.99 g/m*3 10.2 C 0 km/h
1355 05-11-2008 22:56:33 10.2 C 7.99 g/m*3 10.2 C 0 km/h
1356 05-11-2008 23:21:34 10.2 C 7.99 g/m*3 10.2 C 0 km/h
1357 05-11-2008 23:46:34 10 C 7.99 g/m*3 10 C 0 km/h
1358 06-11-2008 00:11:34 10 C 7.99 g/m*3 10 C 0 km/h
1359 06-11-2008 00:36:34 10 C 7.99 g/m*3 10 C 0 km/h
1360 06-11-2008 01:01:34 10 C 7.99 g/m*3 10 C 0 km/h
1361 06-11-2008 01:26:34 9.9 C 8.12 g/m*3 9.9 C 0 km/h
1362 06-11-2008 01:51:34 9.8 C 8.07 g/m*3 9.8 C 0 km/h
1363 06-11-2008 02:16:34 9.8 C 7.98 g/m*3 9.8 C 0 km/h
1364 06-11-2008 02:41:34 9.7 C 7.84 g/m*3 9.7 C 0 km/h
1365 06-11-2008 03:06:34 9.5 C 7.74 g/m*3 9.5 C 0 km/h
1366 06-11-2008 03:31:34 9.3 C 7.73 g/m*3 9.3 C 0 km/h
1367 06-11-2008 03:56:34 8.9 C 7.62 g/m*3 8.9 C 0 km/h
1368 06-11-2008 04:21:34 8.5 C 7.43 g/m*3 8.5 C 0 km/h
1369 06-11-2008 04:46:34 8.6 C 7.48 g/m*3 8.6 C 0 km/h
1370 06-11-2008 05:11:34 8.9 C 7.71 g/m*3 8.9 C 0 km/h
1371 06-11-2008 05:36:34 9 C 7.58 g/m*3 9 C 0 km/h
1372 06-11-2008 06:01:34 9 C 7.58 g/m*3 9 C 0 km/h
1373 06-11-2008 06:26:34 9.3 C 7.64 g/m*3 9.3 C 0 km/h
1374 06-11-2008 06:51:34 9.3 C 7.46 g/m*3 9.3 C 0 km/h
1375 06-11-2008 07:16:34 9.3 C 7.46 g/m*3 9.3 C 0 km/h
Sensor: Nr:Datum:Temp:Abs-Feuchte:Windchill:Wind:
Aussen-T/F 1376 06-11-2008 07:41:35 9.1 C 7.36 g/m*3 9.1 C 0 km/h
1377 06-11-2008 08:06:35 9.4 C 7.51 g/m*3 9.4 C 0 km/h
1378 06-11-2008 08:31:35 9.7 C 7.56 g/m*3 9.7 C 0 km/h
1379 06-11-2008 08:56:35 10 C 7.42 g/m*3 10 C 0 km/h
1380 06-11-2008 09:21:35 10.3 C 7.47 g/m*3 10.3 C 0 km/h
1381 06-11-2008 09:46:35 10.6 C 7.12 g/m*3 10.6 C 0 km/h
1382 06-11-2008 10:11:35 11 C 7.01 g/m*3 11 C 0 km/h
1383 06-11-2008 10:36:35 11.3 C 7.04 g/m*3 11.3 C 0 km/h
1384 06-11-2008 11:01:35 12.1 C 7.18 g/m*3 12.1 C 0 km/h
1385 06-11-2008 11:26:35 12.4 C 7.1 g/m*3 12.4 C 0 km/h
1386 06-11-2008 11:51:35 12.2 C 6.91 g/m*3 12.2 C 0 km/h
1387 06-11-2008 12:16:35 12.2 C 6.91 g/m*3 12.2 C 0 km/h
1388 06-11-2008 12:41:35 12.1 C 6.97 g/m*3 12.1 C 0 km/h
1389 06-11-2008 13:06:35 12.6 C 7.08 g/m*3 12.6 C 0 km/h
1390 06-11-2008 13:31:35 12.7 C 7.01 g/m*3 12.7 C 0 km/h
1391 06-11-2008 13:56:35 12.4 C 7.1 g/m*3 12.4 C 0 km/h
1392 06-11-2008 14:21:35 13 C 7.14 g/m*3 13 C 0 km/h
1393 06-11-2008 14:46:35 13.1 C 6.96 g/m*3 13.1 C 0 km/h
1394 06-11-2008 15:11:35 13 C 6.92 g/m*3 13 C 0 km/h
1395 06-11-2008 15:36:36 12.6 C 6.97 g/m*3 12.6 C 0 km/h
1396 06-11-2008 16:01:36 12.4 C 6.99 g/m*3 12.4 C 0 km/h
1397 06-11-2008 16:26:36 11.8 C 6.95 g/m*3 11.8 C 0 km/h
1398 06-11-2008 16:51:36 11.4 C 6.98 g/m*3 11.4 C 0 km/h
1399 06-11-2008 17:16:36 11.1 C 6.95 g/m*3 11.1 C 0 km/h
1400 06-11-2008 17:41:36 10.9 C 7.06 g/m*3 10.9 C 0 km/h
Sensor: Nr:Datum:Temp:Abs-Feuchte:Windchill:Wind:
Aussen-T/F 1401 06-11-2008 18:06:36 10.1 C 6.9 g/m*3 10.1 C 0 km/h
1402 06-11-2008 18:31:36 10.1 C 7 g/m*3 10.1 C 0 km/h
1403 06-11-2008 18:56:36 10.2 C 7.04 g/m*3 10.2 C 0 km/h
1404 06-11-2008 19:21:36 10.4 C 7.13 g/m*3 10.4 C 0 km/h
1405 06-11-2008 19:46:36 10.3 C 7.09 g/m*3 10.3 C 0 km/h
1406 06-11-2008 20:11:36 10.2 C 7.14 g/m*3 10.2 C 0 km/h
1407 06-11-2008 20:36:36 10.3 C 7.28 g/m*3 10.3 C 0 km/h
1408 06-11-2008 21:01:36 10.2 C 7.23 g/m*3 10.2 C 0 km/h
1409 06-11-2008 21:26:36 10.4 C 7.23 g/m*3 10.4 C 0 km/h
1410 06-11-2008 21:51:36 10.3 C 7.18 g/m*3 10.3 C 0 km/h
1411 06-11-2008 22:16:36 10.2 C 7.33 g/m*3 10.2 C 0 km/h
1412 06-11-2008 22:41:36 10.2 C 7.33 g/m*3 10.2 C 0 km/h
1413 06-11-2008 23:06:36 10.1 C 7.28 g/m*3 10.1 C 0 km/h
1414 06-11-2008 23:31:37 10.2 C 7.23 g/m*3 10.2 C 0 km/h
1415 06-11-2008 23:56:37 10.2 C 7.23 g/m*3 10.2 C 0 km/h
1416 07-11-2008 00:21:37 10.1 C 7.19 g/m*3 10.1 C 0 km/h
1417 07-11-2008 00:46:37 10.1 C 7.19 g/m*3 10.1 C 0 km/h
1418 07-11-2008 01:11:37 10 C 7.24 g/m*3 10 C 0 km/h
1419 07-11-2008 01:36:37 10 C 7.24 g/m*3 10 C 0 km/h
1420 07-11-2008 02:01:37 10 C 7.14 g/m*3 10 C 0 km/h
1421 07-11-2008 02:26:37 10 C 7.14 g/m*3 10 C 0 km/h
1422 07-11-2008 02:51:37 9.9 C 7.28 g/m*3 9.9 C 0 km/h
1423 07-11-2008 03:16:37 9.9 C 7.19 g/m*3 9.9 C 0 km/h
1424 07-11-2008 03:41:37 10 C 7.14 g/m*3 10 C 0 km/h
1425 07-11-2008 04:06:37 10.2 C 7.14 g/m*3 10.2 C 0 km/h
Sensor: Nr:Datum:Temp:Abs-Feuchte:Windchill:Wind:
Aussen-T/F 1426 07-11-2008 04:31:37 10.1 C 7.19 g/m*3 10.1 C 0 km/h
1427 07-11-2008 04:56:37 10.3 C 7.28 g/m*3 10.3 C 0 km/h
1428 07-11-2008 05:21:37 10.3 C 7.28 g/m*3 10.3 C 0 km/h
1429 07-11-2008 05:46:37 10.2 C 7.23 g/m*3 10.2 C 0 km/h
1430 07-11-2008 06:11:37 10.1 C 7.19 g/m*3 10.1 C 0 km/h
1431 07-11-2008 06:36:37 10 C 7.14 g/m*3 10 C 0 km/h
1432 07-11-2008 07:01:37 10.1 C 7.09 g/m*3 10.1 C 0 km/h
1433 07-11-2008 07:26:38 10.1 C 7 g/m*3 10.1 C 0 km/h
1434 07-11-2008 07:51:38 9.8 C 7.05 g/m*3 9.8 C 0 km/h
1435 07-11-2008 08:16:38 9.6 C 7.15 g/m*3 9.6 C 0 km/h
1436 07-11-2008 08:41:38 10.3 C 6.99 g/m*3 10.3 C 0 km/h
1437 07-11-2008 09:06:38 10.8 C 7.02 g/m*3 10.8 C 0 km/h
1438 07-11-2008 09:31:38 11 C 6.91 g/m*3 11 C 0 km/h
1439 07-11-2008 09:56:38 11.1 C 6.95 g/m*3 11.1 C 0 km/h
1440 07-11-2008 10:21:38 11.3 C 7.04 g/m*3 11.3 C 0 km/h
1441 07-11-2008 10:46:38 11.2 C 6.89 g/m*3 11.2 C 0 km/h
1442 07-11-2008 11:11:38 11.6 C 6.96 g/m*3 11.6 C 0 km/h
1443 07-11-2008 11:36:38 12.2 C 6.91 g/m*3 12.2 C 0 km/h
1444 07-11-2008 12:01:38 12.7 C 6.9 g/m*3 12.7 C 0 km/h
1445 07-11-2008 12:26:38 13.1 C 6.85 g/m*3 13.1 C 0 km/h
1446 07-11-2008 12:51:38 13.2 C 6.77 g/m*3 13.2 C 0 km/h
1447 07-11-2008 13:16:38 13.8 C 6.91 g/m*3 13.8 C 0 km/h
1448 07-11-2008 13:41:38 13.6 C 6.71 g/m*3 13.6 C 0 km/h
1449 07-11-2008 14:06:38 13.8 C 7.03 g/m*3 13.8 C 0 km/h
1450 07-11-2008 14:31:38 14.5 C 7.09 g/m*3 14.5 C 0 km/h
Sensor: Nr:Datum:Temp:Abs-Feuchte:Windchill:Wind:
Aussen-T/F 1451 07-11-2008 14:56:38 14 C 7 g/m*3 14 C 0 km/h
1452 07-11-2008 15:21:38 13.8 C 7.27 g/m*3 13.8 C 0 km/h
1453 07-11-2008 15:46:39 13.5 C 7.37 g/m*3 13.5 C 0 km/h
1454 07-11-2008 16:11:39 13.1 C 7.3 g/m*3 13.1 C 0 km/h
1455 07-11-2008 16:36:39 12.7 C 7.57 g/m*3 12.7 C 0 km/h
1456 07-11-2008 17:01:39 12.4 C 7.43 g/m*3 12.4 C 0 km/h
1457 07-11-2008 17:26:39 11.8 C 7.26 g/m*3 11.8 C 0 km/h
1458 07-11-2008 17:51:39 11.1 C 7.15 g/m*3 11.1 C 0 km/h
1459 07-11-2008 18:16:39 10.4 C 7.23 g/m*3 10.4 C 0 km/h
1460 07-11-2008 18:41:39 10.4 C 7.42 g/m*3 10.4 C 0 km/h
1461 07-11-2008 19:06:39 10.7 C 7.56 g/m*3 10.7 C 0 km/h
1462 07-11-2008 19:31:39 10.6 C 7.32 g/m*3 10.6 C 0 km/h
1463 07-11-2008 19:56:39 10 C 7.33 g/m*3 10 C 0 km/h
1464 07-11-2008 20:21:39 9.9 C 7.56 g/m*3 9.9 C 0 km/h
1465 07-11-2008 20:46:39 9.5 C 7.37 g/m*3 9.5 C 0 km/h
1466 07-11-2008 21:11:39 9.1 C 7.36 g/m*3 9.1 C 0 km/h
1467 07-11-2008 21:36:39 8.7 C 7.44 g/m*3 8.7 C 0 km/h
1468 07-11-2008 22:01:39 8.4 C 7.38 g/m*3 8.4 C 0 km/h
1469 07-11-2008 22:26:39 7.9 C 7.31 g/m*3 7.9 C 0 km/h
1470 07-11-2008 22:51:39 7.5 C 7.12 g/m*3 7.5 C 0 km/h
1471 07-11-2008 23:16:39 7.3 C 7.03 g/m*3 7.3 C 0 km/h
1472 07-11-2008 23:41:40 7.3 C 7.11 g/m*3 7.3 C 0 km/h
1473 08-11-2008 00:06:40 7.3 C 7.19 g/m*3 7.3 C 0 km/h
1474 08-11-2008 00:31:40 6.9 C 7.08 g/m*3 6.9 C 0 km/h
1475 08-11-2008 00:56:40 7.1 C 7.18 g/m*3 7.1 C 0 km/h
Sensor: Nr:Datum:Temp:Abs-Feuchte:Windchill:Wind:
Aussen-T/F 1476 08-11-2008 01:21:40 7 C 7.13 g/m*3 7 C 0 km/h
1477 08-11-2008 01:46:40 7.2 C 7.3 g/m*3 7.2 C 0 km/h
1478 08-11-2008 02:11:40 7.3 C 7.35 g/m*3 7.3 C 0 km/h
1479 08-11-2008 02:36:40 7.5 C 7.44 g/m*3 7.5 C 0 km/h
1480 08-11-2008 03:01:40 7.8 C 7.59 g/m*3 7.8 C 0 km/h
1481 08-11-2008 03:26:40 7.9 C 7.56 g/m*3 7.9 C 0 km/h
1482 08-11-2008 03:51:40 8.1 C 7.57 g/m*3 8.1 C 0 km/h
1483 08-11-2008 04:16:40 8.2 C 7.62 g/m*3 8.2 C 0 km/h
1484 08-11-2008 04:41:40 8.3 C 7.67 g/m*3 8.3 C 0 km/h
1485 08-11-2008 05:06:40 8.3 C 7.59 g/m*3 8.3 C 0 km/h
1486 08-11-2008 05:31:40 8 C 7.44 g/m*3 8 C 0 km/h
1487 08-11-2008 05:56:40 8.6 C 7.82 g/m*3 8.6 C 0 km/h
1488 08-11-2008 06:21:40 8.6 C 7.65 g/m*3 8.6 C 0 km/h
1489 08-11-2008 06:46:40 8.5 C 7.6 g/m*3 8.5 C 0 km/h
1490 08-11-2008 07:11:40 8.5 C 7.77 g/m*3 8.5 C 0 km/h
1491 08-11-2008 07:36:41 8 C 7.52 g/m*3 8 C 0 km/h
1492 08-11-2008 08:01:41 7.9 C 7.64 g/m*3 7.9 C 0 km/h
1493 08-11-2008 08:26:41 7.3 C 7.27 g/m*3 7.3 C 0 km/h
1494 08-11-2008 08:51:41 7.2 C 7.3 g/m*3 7.2 C 0 km/h
1495 08-11-2008 09:16:41 7.6 C 7.57 g/m*3 7.6 C 0 km/h
1496 08-11-2008 09:41:41 8.2 C 7.87 g/m*3 8.2 C 0 km/h
1497 08-11-2008 10:06:41 8.7 C 8.13 g/m*3 8.7 C 0 km/h
1498 08-11-2008 10:31:41 8.9 C 7.88 g/m*3 8.9 C 0 km/h
1499 08-11-2008 10:56:41 9.3 C 7.28 g/m*3 9.3 C 0 km/h
1500 08-11-2008 11:21:41 9.7 C 6.36 g/m*3 9.7 C 0 km/h
Sensor: Nr:Datum:Temp:Abs-Feuchte:Windchill:Wind:
Aussen-T/F 1501 08-11-2008 11:46:41 10.3 C 6.03 g/m*3 10.3 C 0 km/h
1502 08-11-2008 12:11:41 10.9 C 5.97 g/m*3 10.9 C 0 km/h
1503 08-11-2008 12:36:41 11.7 C 5.86 g/m*3 11.7 C 0 km/h
1504 08-11-2008 13:01:41 12.2 C 5.4 g/m*3 12.2 C 0 km/h
1505 08-11-2008 13:26:41 12.4 C 5.14 g/m*3 12.4 C 0 km/h
1506 08-11-2008 13:51:01 12 C 5.33 g/m*3 12 C 0 km/h
1507 08-11-2008 14:16:01 11.9 C 5.51 g/m*3 11.9 C 0 km/h
1508 08-11-2008 14:41:01 12 C 5.44 g/m*3 12 C 0 km/h
1509 08-11-2008 15:06:02 11.8 C 5.79 g/m*3 11.8 C 0 km/h
1510 08-11-2008 15:31:02 12 C 5.86 g/m*3 12 C 0 km/h
1511 08-11-2008 15:56:02 11.2 C 5.98 g/m*3 11.2 C 0 km/h
1512 08-11-2008 16:21:02 10.2 C 5.8 g/m*3 10.2 C 0 km/h
1513 08-11-2008 16:46:02 9.5 C 6.01 g/m*3 9.5 C 0 km/h
1514 08-11-2008 17:11:02 8.8 C 6.09 g/m*3 8.8 C 0 km/h
1515 08-11-2008 17:36:02 8.2 C 6.03 g/m*3 8.2 C 0 km/h
1516 08-11-2008 18:01:02 7.7 C 6.08 g/m*3 7.7 C 0 km/h
1517 08-11-2008 18:26:01 7.4 C 6.04 g/m*3 7.4 C 0 km/h
1518 08-11-2008 18:51:01 7.2 C 6.12 g/m*3 7.2 C 0 km/h
1519 08-11-2008 19:16:02 6.8 C 6.12 g/m*3 6.8 C 0 km/h
1520 08-11-2008 19:41:02 6.5 C 6.15 g/m*3 6.5 C 0 km/h
1521 08-11-2008 20:06:02 6.1 C 5.99 g/m*3 6.1 C 0 km/h
1522 08-11-2008 20:31:02 5.8 C 6.02 g/m*3 5.8 C 0 km/h
1523 08-11-2008 20:56:02 5.6 C 6.08 g/m*3 5.6 C 0 km/h
1524 08-11-2008 21:21:02 5.3 C 5.96 g/m*3 5.3 C 0 km/h
1525 08-11-2008 21:46:02 5.2 C 6.06 g/m*3 5.2 C 0 km/h
Sensor: Nr:Datum:Temp:Abs-Feuchte:Windchill:Wind:
Aussen-T/F 1526 08-11-2008 22:11:03 5.1 C 6.02 g/m*3 5.1 C 0 km/h
1527 08-11-2008 22:36:03 4.7 C 6 g/m*3 4.7 C 0 km/h
1528 08-11-2008 23:01:02 4.9 C 6.14 g/m*3 4.9 C 0 km/h
1529 08-11-2008 23:26:02 5.3 C 6.38 g/m*3 5.3 C 0 km/h
1530 08-11-2008 23:50:02 5.8 C 6.66 g/m*3 5.8 C 0 km/h
1531 09-11-2008 00:02:03 6.4 C 6.85 g/m*3 6.4 C 0 km/h
1532 09-11-2008 00:14:03 6.7 C 6.84 g/m*3 6.7 C 0 km/h
1533 09-11-2008 00:26:03 6.7 C 6.76 g/m*3 6.7 C 0 km/h
1534 09-11-2008 00:38:03 7 C 6.74 g/m*3 7 C 0 km/h
1535 09-11-2008 00:50:02 7 C 6.59 g/m*3 7 C 0 km/h
1536 09-11-2008 01:02:03 6.6 C 6.42 g/m*3 6.6 C 0 km/h
1537 09-11-2008 01:14:03 6.7 C 6.53 g/m*3 6.7 C 0 km/h
1538 09-11-2008 01:26:02 6.5 C 6.37 g/m*3 6.5 C 0 km/h
1539 09-11-2008 01:38:03 6.5 C 6.45 g/m*3 6.5 C 0 km/h
1540 09-11-2008 01:50:02 6.4 C 6.41 g/m*3 6.4 C 0 km/h
1541 09-11-2008 02:02:01 7.1 C 6.63 g/m*3 7.1 C 0 km/h
1542 09-11-2008 02:14:01 7.5 C 6.56 g/m*3 7.5 C 0 km/h
1543 09-11-2008 02:26:02 7.3 C 6.4 g/m*3 7.3 C 0 km/h
1544 09-11-2008 02:38:01 7.6 C 6.53 g/m*3 7.6 C 0 km/h
1545 09-11-2008 02:50:01 7.5 C 6.32 g/m*3 7.5 C 0 km/h
1546 09-11-2008 03:02:01 7.7 C 6.49 g/m*3 7.7 C 0 km/h
1547 09-11-2008 03:14:02 8 C 6.45 g/m*3 8 C 0 km/h
1548 09-11-2008 03:26:02 8 C 6.45 g/m*3 8 C 0 km/h
1549 09-11-2008 03:38:01 8.2 C 6.53 g/m*3 8.2 C 0 km/h
1550 09-11-2008 03:50:01 8.8 C 6.61 g/m*3 8.8 C 0 km/h
Sensor: Nr:Datum:Temp:Abs-Feuchte:Windchill:Wind:
Aussen-T/F 1551 09-11-2008 04:02:01 9.3 C 6.56 g/m*3 9.3 C 0 km/h
1552 09-11-2008 04:14:01 9.4 C 6.51 g/m*3 9.4 C 0 km/h
1553 09-11-2008 04:26:01 9.6 C 6.5 g/m*3 9.6 C 0 km/h
1554 09-11-2008 04:38:01 9.3 C 6.47 g/m*3 9.3 C 0 km/h
1555 09-11-2008 04:50:02 9.3 C 6.56 g/m*3 9.3 C 0 km/h
1556 09-11-2008 05:02:01 9.2 C 6.52 g/m*3 9.2 C 0 km/h
1557 09-11-2008 05:14:01 9.6 C 6.6 g/m*3 9.6 C 0 km/h
1558 09-11-2008 05:26:02 9.7 C 6.64 g/m*3 9.7 C 0 km/h
1559 09-11-2008 05:38:01 9.7 C 6.64 g/m*3 9.7 C 0 km/h
1560 09-11-2008 05:50:02 9.6 C 6.6 g/m*3 9.6 C 0 km/h
1561 09-11-2008 06:02:01 9.6 C 6.69 g/m*3 9.6 C 0 km/h
1562 09-11-2008 06:14:01 9.6 C 6.6 g/m*3 9.6 C 0 km/h
1563 09-11-2008 06:26:02 9.8 C 6.68 g/m*3 9.8 C 0 km/h
1564 09-11-2008 06:38:01 9.7 C 6.64 g/m*3 9.7 C 0 km/h
1565 09-11-2008 06:50:02 9.7 C 6.64 g/m*3 9.7 C 0 km/h
1566 09-11-2008 07:02:01 9.9 C 6.82 g/m*3 9.9 C 0 km/h
1567 09-11-2008 07:14:01 10 C 6.77 g/m*3 10 C 0 km/h
1568 09-11-2008 07:26:02 9.8 C 6.87 g/m*3 9.8 C 0 km/h
1569 09-11-2008 07:38:01 9.4 C 7.15 g/m*3 9.4 C 0 km/h
1570 09-11-2008 07:50:01 9.2 C 7.41 g/m*3 9.2 C 0 km/h
1571 09-11-2008 08:02:01 9.3 C 7.64 g/m*3 9.3 C 0 km/h
1572 09-11-2008 08:14:01 9.1 C 7.72 g/m*3 9.1 C 0 km/h
1573 09-11-2008 08:26:01 9.3 C 7.82 g/m*3 9.3 C 0 km/h
1574 09-11-2008 08:38:01 9.4 C 7.96 g/m*3 9.4 C 0 km/h
1575 09-11-2008 08:50:01 9.4 C 7.96 g/m*3 9.4 C 0 km/h
Sensor: Nr:Datum:Temp:Abs-Feuchte:Windchill:Wind:
Aussen-T/F 1576 09-11-2008 09:02:02 9.6 C 8.15 g/m*3 9.6 C 0 km/h
1577 09-11-2008 09:14:02 9.6 C 8.15 g/m*3 9.6 C 0 km/h
1578 09-11-2008 09:26:01 9.7 C 8.2 g/m*3 9.7 C 0 km/h
1579 09-11-2008 09:38:01 9.7 C 8.2 g/m*3 9.7 C 0 km/h
1580 09-11-2008 09:50:01 9.8 C 8.35 g/m*3 9.8 C 0 km/h
1581 09-11-2008 10:02:02 9.7 C 8.3 g/m*3 9.7 C 0 km/h
1582 09-11-2008 10:14:02 9.7 C 8.3 g/m*3 9.7 C 0 km/h
1583 09-11-2008 10:26:01 9.7 C 8.39 g/m*3 9.7 C 0 km/h
1584 09-11-2008 10:38:02 9.8 C 8.44 g/m*3 9.8 C 0 km/h
1585 09-11-2008 10:50:01 9.8 C 8.54 g/m*3 9.8 C 0 km/h
1586 09-11-2008 11:02:02 9.8 C 8.54 g/m*3 9.8 C 0 km/h
1587 09-11-2008 11:14:02 9.9 C 8.59 g/m*3 9.9 C 0 km/h
1588 09-11-2008 11:26:01 10.1 C 8.7 g/m*3 10.1 C 0 km/h
1589 09-11-2008 11:38:02 10.3 C 8.81 g/m*3 10.3 C 0 km/h
1590 09-11-2008 11:50:02 10.3 C 8.81 g/m*3 10.3 C 0 km/h
1591 09-11-2008 12:02:02 10.4 C 8.87 g/m*3 10.4 C 0 km/h
1592 09-11-2008 12:14:02 10.7 C 9.04 g/m*3 10.7 C 0 km/h
1593 09-11-2008 12:26:02 11 C 9.11 g/m*3 11 C 0 km/h
1594 09-11-2008 12:38:02 10.8 C 8.99 g/m*3 10.8 C 0 km/h
1595 09-11-2008 12:50:02 10.9 C 9.05 g/m*3 10.9 C 0 km/h
1596 09-11-2008 13:02:02 10.6 C 8.69 g/m*3 10.6 C 0 km/h
1597 09-11-2008 13:14:02 10.5 C 8.44 g/m*3 10.5 C 0 km/h
1598 09-11-2008 13:26:02 10.6 C 8.39 g/m*3 10.6 C 0 km/h
1599 09-11-2008 13:38:02 10.3 C 8.24 g/m*3 10.3 C 0 km/h
1600 09-11-2008 13:50:02 9.8 C 7.61 g/m*3 9.8 C 0 km/h
Sensor: Nr:Datum:Temp:Abs-Feuchte:Windchill:Wind:
Aussen-T/F 1601 09-11-2008 14:02:02 9.5 C 7.1 g/m*3 9.5 C 0 km/h
1602 09-11-2008 14:14:02 9.7 C 7.19 g/m*3 9.7 C 0 km/h
1603 09-11-2008 14:26:01 9.5 C 7.28 g/m*3 9.5 C 0 km/h
1604 09-11-2008 14:38:02 9.6 C 7.51 g/m*3 9.6 C 0 km/h
1605 09-11-2008 14:50:01 9.7 C 7.56 g/m*3 9.7 C 0 km/h
1606 09-11-2008 15:02:01 9.8 C 7.24 g/m*3 9.8 C 0 km/h
1607 09-11-2008 15:14:01 10.1 C 6.9 g/m*3 10.1 C 0 km/h
1608 09-11-2008 15:26:02 10 C 6.95 g/m*3 10 C 0 km/h
1609 09-11-2008 15:38:02 10.1 C 6.9 g/m*3 10.1 C 0 km/h
1610 09-11-2008 15:50:01 9.9 C 7 g/m*3 9.9 C 0 km/h
1611 09-11-2008 16:02:03 9.8 C 7.14 g/m*3 9.8 C 0 km/h
1612 09-11-2008 16:14:03 9.6 C 7.15 g/m*3 9.6 C 0 km/h
1613 09-11-2008 16:26:01 9.4 C 7.15 g/m*3 9.4 C 0 km/h
1614 09-11-2008 16:38:02 9.2 C 7.23 g/m*3 9.2 C 0 km/h
1615 09-11-2008 16:50:02 9.1 C 7.19 g/m*3 9.1 C 0 km/h
1616 09-11-2008 17:02:02 9.1 C 7.19 g/m*3 9.1 C 0 km/h
1617 09-11-2008 17:14:02 9 C 7.14 g/m*3 9 C 0 km/h
1618 09-11-2008 17:26:02 8.8 C 7.22 g/m*3 8.8 C 0 km/h
1619 09-11-2008 17:38:03 8.7 C 7.26 g/m*3 8.7 C 0 km/h
1620 09-11-2008 17:50:02 8.7 C 7.26 g/m*3 8.7 C 0 km/h
1621 09-11-2008 18:02:02 8.6 C 7.22 g/m*3 8.6 C 0 km/h
1622 09-11-2008 18:14:02 8.5 C 7 g/m*3 8.5 C 0 km/h
1623 09-11-2008 18:26:02 8.1 C 6.82 g/m*3 8.1 C 0 km/h
1624 09-11-2008 18:38:02 7.9 C 6.82 g/m*3 7.9 C 0 km/h
1625 09-11-2008 18:50:01 7.8 C 6.77 g/m*3 7.8 C 0 km/h
Sensor: Nr:Datum:Temp:Abs-Feuchte:Windchill:Wind:
Aussen-T/F 1626 09-11-2008 19:02:02 7.6 C 6.69 g/m*3 7.6 C 0 km/h
1627 09-11-2008 19:14:02 7.4 C 6.68 g/m*3 7.4 C 0 km/h
1628 09-11-2008 19:26:03 7.4 C 6.76 g/m*3 7.4 C 0 km/h
1629 09-11-2008 19:38:03 7.3 C 6.72 g/m*3 7.3 C 0 km/h
1630 09-11-2008 19:50:02 7.4 C 6.84 g/m*3 7.4 C 0 km/h
1631 09-11-2008 20:02:02 7.5 C 6.8 g/m*3 7.5 C 0 km/h
1632 09-11-2008 20:14:02 7.4 C 6.76 g/m*3 7.4 C 0 km/h
1633 09-11-2008 20:26:01 7.6 C 6.93 g/m*3 7.6 C 0 km/h
1634 09-11-2008 20:38:02 7.4 C 6.76 g/m*3 7.4 C 0 km/h
1635 09-11-2008 20:50:02 7.4 C 6.92 g/m*3 7.4 C 0 km/h
1636 09-11-2008 21:02:01 7.6 C 7.01 g/m*3 7.6 C 0 km/h
1637 09-11-2008 21:14:01 7.7 C 7.14 g/m*3 7.7 C 0 km/h
1638 09-11-2008 21:26:02 7.9 C 7.23 g/m*3 7.9 C 0 km/h
1639 09-11-2008 21:38:01 7.9 C 7.23 g/m*3 7.9 C 0 km/h
1640 09-11-2008 21:50:02 7.9 C 7.31 g/m*3 7.9 C 0 km/h
1641 09-11-2008 22:02:01 7.9 C 7.31 g/m*3 7.9 C 0 km/h
1642 09-11-2008 22:14:01 7.8 C 7.35 g/m*3 7.8 C 0 km/h
1643 09-11-2008 22:26:02 8 C 7.44 g/m*3 8 C 0 km/h
1644 09-11-2008 22:38:01 8.3 C 7.67 g/m*3 8.3 C 0 km/h
1645 09-11-2008 22:50:01 8.5 C 7.77 g/m*3 8.5 C 0 km/h
1646 09-11-2008 23:02:01 8.5 C 7.77 g/m*3 8.5 C 0 km/h
1647 09-11-2008 23:14:01 8.9 C 8.06 g/m*3 8.9 C 0 km/h
1648 09-11-2008 23:26:01 9.3 C 8.27 g/m*3 9.3 C 0 km/h
1649 09-11-2008 23:38:01 10.1 C 8.7 g/m*3 10.1 C 0 km/h
1650 09-11-2008 23:50:01 11.4 C 9.34 g/m*3 11.4 C 0 km/h
Sensor: Nr:Datum:Temp:Abs-Feuchte:Windchill:Wind:
Aussen-T/F 1651 10-11-2008 00:02:02 12 C 8.95 g/m*3 12 C 0 km/h
1652 10-11-2008 00:14:02 12.1 C 8.69 g/m*3 12.1 C 0 km/h
1653 10-11-2008 00:26:02 12.3 C 8.58 g/m*3 12.3 C 0 km/h
1654 10-11-2008 00:38:02 12.3 C 8.58 g/m*3 12.3 C 0 km/h
1655 10-11-2008 00:50:01 12.6 C 8.41 g/m*3 12.6 C 0 km/h
1656 10-11-2008 01:02:02 12.9 C 8.34 g/m*3 12.9 C 0 km/h
1657 10-11-2008 01:14:02 13 C 8.05 g/m*3 13 C 0 km/h
1658 10-11-2008 01:26:01 13 C 7.94 g/m*3 13 C 0 km/h
1659 10-11-2008 01:38:02 13 C 7.83 g/m*3 13 C 0 km/h
1660 10-11-2008 01:50:02 13.1 C 7.53 g/m*3 13.1 C 0 km/h
1661 10-11-2008 02:02:01 13 C 7.48 g/m*3 13 C 0 km/h
1662 10-11-2008 02:14:01 13 C 7.48 g/m*3 13 C 0 km/h
1663 10-11-2008 02:26:02 12.9 C 7.55 g/m*3 12.9 C 0 km/h
1664 10-11-2008 02:38:01 12.5 C 7.81 g/m*3 12.5 C 0 km/h
1665 10-11-2008 02:51:05 12 C 7.99 g/m*3 12 C 0 km/h
1666 10-11-2008 03:03:05 11.8 C 8.21 g/m*3 11.8 C 0 km/h
1667 10-11-2008 03:15:05 11.2 C 8.51 g/m*3 11.2 C 0 km/h
1668 10-11-2008 03:27:05 11.1 C 8.66 g/m*3 11.1 C 0 km/h
1669 10-11-2008 03:39:02 11.3 C 8.67 g/m*3 11.3 C 0 km/h
1670 10-11-2008 03:51:02 11.6 C 8.52 g/m*3 11.6 C 0 km/h
1671 10-11-2008 04:03:03 11.8 C 8.31 g/m*3 11.8 C 0 km/h
1672 10-11-2008 04:15:02 11.9 C 8.26 g/m*3 11.9 C 0 km/h
1673 10-11-2008 04:27:02 12 C 8.21 g/m*3 12 C 0 km/h
1674 10-11-2008 04:39:03 12.3 C 8.25 g/m*3 12.3 C 0 km/h
1675 10-11-2008 04:51:02 12.5 C 8.14 g/m*3 12.5 C 0 km/h
Sensor: Nr:Datum:Temp:Abs-Feuchte:Windchill:Wind:
Aussen-T/F 1676 10-11-2008 05:03:02 12.5 C 8.14 g/m*3 12.5 C 0 km/h
1677 10-11-2008 05:15:02 12.6 C 8.08 g/m*3 12.6 C 0 km/h
1678 10-11-2008 05:27:02 12.8 C 8.06 g/m*3 12.8 C 0 km/h
1679 10-11-2008 05:39:02 12.9 C 8 g/m*3 12.9 C 0 km/h
1680 10-11-2008 05:51:01 13 C 7.83 g/m*3 13 C 0 km/h
1681 10-11-2008 06:03:02 13 C 7.83 g/m*3 13 C 0 km/h
1682 10-11-2008 06:15:02 13 C 7.83 g/m*3 13 C 0 km/h
1683 10-11-2008 06:27:02 13 C 7.83 g/m*3 13 C 0 km/h
1684 10-11-2008 06:39:02 13.1 C 7.76 g/m*3 13.1 C 0 km/h
1685 10-11-2008 06:51:02 13 C 7.71 g/m*3 13 C 0 km/h
1686 10-11-2008 07:03:02 13.1 C 7.76 g/m*3 13.1 C 0 km/h
1687 10-11-2008 07:15:02 13.3 C 7.74 g/m*3 13.3 C 0 km/h
1688 10-11-2008 07:27:02 13.2 C 7.69 g/m*3 13.2 C 0 km/h
1689 10-11-2008 07:39:02 13.1 C 7.87 g/m*3 13.1 C 0 km/h
1690 10-11-2008 07:51:02 12.8 C 8.18 g/m*3 12.8 C 0 km/h
1691 10-11-2008 08:03:03 12.7 C 8.24 g/m*3 12.7 C 0 km/h
1692 10-11-2008 08:15:02 13 C 8.28 g/m*3 13 C 0 km/h
1693 10-11-2008 08:27:02 13 C 8.28 g/m*3 13 C 0 km/h
1694 10-11-2008 08:39:03 12.8 C 8.4 g/m*3 12.8 C 0 km/h
1695 10-11-2008 08:51:02 13 C 8.39 g/m*3 13 C 0 km/h
1696 10-11-2008 09:03:01 13 C 8.28 g/m*3 13 C 0 km/h
1697 10-11-2008 09:15:02 13 C 8.28 g/m*3 13 C 0 km/h
1698 10-11-2008 09:27:03 13.2 C 8.27 g/m*3 13.2 C 0 km/h
1699 10-11-2008 09:39:01 13.4 C 8.14 g/m*3 13.4 C 0 km/h
1700 10-11-2008 09:51:02 13.5 C 8.07 g/m*3 13.5 C 0 km/h
Sensor: Nr:Datum:Temp:Abs-Feuchte:Windchill:Wind:
Aussen-T/F 1701 10-11-2008 10:03:01 13.7 C 8.05 g/m*3 13.7 C 0 km/h
1702 10-11-2008 10:15:02 13.7 C 7.93 g/m*3 13.7 C 0 km/h
1703 10-11-2008 10:27:02 13.7 C 7.93 g/m*3 13.7 C 0 km/h
1704 10-11-2008 10:39:01 13.8 C 7.98 g/m*3 13.8 C 0 km/h
1705 10-11-2008 10:51:01 14 C 7.96 g/m*3 14 C 0 km/h
1706 10-11-2008 11:03:01 14 C 8.08 g/m*3 14 C 0 km/h
1707 10-11-2008 11:15:01 13.8 C 8.22 g/m*3 13.8 C 0 km/h
1708 10-11-2008 11:27:01 14 C 8.2 g/m*3 14 C 0 km/h
1709 10-11-2008 11:39:01 14.2 C 8.06 g/m*3 14.2 C 0 km/h
1710 10-11-2008 11:51:01 14.4 C 8.03 g/m*3 14.4 C 0 km/h
1711 10-11-2008 12:03:02 14.7 C 7.93 g/m*3 14.7 C 0 km/h
1712 10-11-2008 12:15:02 15.2 C 7.92 g/m*3 15.2 C 0 km/h
1713 10-11-2008 12:27:02 15 C 7.82 g/m*3 15 C 0 km/h
1714 10-11-2008 12:39:02 15.1 C 7.87 g/m*3 15.1 C 0 km/h
1715 10-11-2008 12:51:02 14.9 C 7.9 g/m*3 14.9 C 0 km/h
1716 10-11-2008 13:03:01 14.9 C 7.77 g/m*3 14.9 C 0 km/h
1717 10-11-2008 13:15:02 15 C 7.69 g/m*3 15 C 0 km/h
1718 10-11-2008 13:27:02 14.7 C 7.81 g/m*3 14.7 C 0 km/h
1719 10-11-2008 13:39:02 14.8 C 7.85 g/m*3 14.8 C 0 km/h
1720 10-11-2008 13:51:02 14.9 C 7.77 g/m*3 14.9 C 0 km/h
1721 10-11-2008 14:03:02 15.3 C 7.84 g/m*3 15.3 C 0 km/h
1722 10-11-2008 14:15:02 15.3 C 7.57 g/m*3 15.3 C 0 km/h
1723 10-11-2008 14:27:02 15.1 C 7.74 g/m*3 15.1 C 0 km/h
1724 10-11-2008 14:39:02 15 C 7.82 g/m*3 15 C 0 km/h
1725 10-11-2008 14:51:02 14.8 C 7.85 g/m*3 14.8 C 0 km/h
Sensor: Nr:Datum:Temp:Abs-Feuchte:Windchill:Wind:
Aussen-T/F 1726 10-11-2008 15:03:01 14.8 C 7.73 g/m*3 14.8 C 0 km/h
1727 10-11-2008 15:15:02 14.8 C 7.73 g/m*3 14.8 C 0 km/h
1728 10-11-2008 15:27:03 14.8 C 7.73 g/m*3 14.8 C 0 km/h
1729 10-11-2008 15:39:01 14.9 C 7.77 g/m*3 14.9 C 0 km/h
1730 10-11-2008 15:51:03 14.8 C 7.73 g/m*3 14.8 C 0 km/h
1731 10-11-2008 16:03:02 14.8 C 7.73 g/m*3 14.8 C 0 km/h
1732 10-11-2008 16:15:03 14.8 C 7.73 g/m*3 14.8 C 0 km/h
1733 10-11-2008 16:27:03 14.7 C 7.81 g/m*3 14.7 C 0 km/h
1734 10-11-2008 16:39:02 14.6 C 7.76 g/m*3 14.6 C 0 km/h
1735 10-11-2008 16:51:02 14.5 C 7.84 g/m*3 14.5 C 0 km/h
1736 10-11-2008 17:03:02 14.5 C 7.71 g/m*3 14.5 C 0 km/h
1737 10-11-2008 17:15:02 14.6 C 7.63 g/m*3 14.6 C 0 km/h
1738 10-11-2008 17:27:02 14.7 C 7.55 g/m*3 14.7 C 0 km/h
1739 10-11-2008 17:39:02 14.7 C 7.55 g/m*3 14.7 C 0 km/h
1740 10-11-2008 17:51:01 14.9 C 7.65 g/m*3 14.9 C 0 km/h
1741 10-11-2008 18:03:02 15.1 C 7.48 g/m*3 15.1 C 0 km/h
1742 10-11-2008 18:15:01 15.2 C 7.4 g/m*3 15.2 C 0 km/h
1743 10-11-2008 18:27:01 15.2 C 7.4 g/m*3 15.2 C 0 km/h
1744 10-11-2008 18:39:02 14.9 C 7.39 g/m*3 14.9 C 0 km/h
1745 10-11-2008 18:51:02 15.1 C 7.22 g/m*3 15.1 C 0 km/h
1746 10-11-2008 19:03:03 15.1 C 7.1 g/m*3 15.1 C 0 km/h
1747 10-11-2008 19:15:02 15.2 C 7.14 g/m*3 15.2 C 0 km/h
1748 10-11-2008 19:27:02 15 C 7.05 g/m*3 15 C 0 km/h
1749 10-11-2008 19:39:03 15.1 C 7.1 g/m*3 15.1 C 0 km/h
1750 10-11-2008 19:51:02 15.2 C 7.14 g/m*3 15.2 C 0 km/h
Sensor: Nr:Datum:Temp:Abs-Feuchte:Windchill:Wind:
Aussen-T/F 1751 10-11-2008 20:03:02 15.1 C 7.22 g/m*3 15.1 C 0 km/h
1752 10-11-2008 20:15:02 15.3 C 7.31 g/m*3 15.3 C 0 km/h
1753 10-11-2008 20:27:02 15.3 C 7.31 g/m*3 15.3 C 0 km/h
1754 10-11-2008 20:39:02 15.3 C 7.31 g/m*3 15.3 C 0 km/h
1755 10-11-2008 20:51:02 15.4 C 7.36 g/m*3 15.4 C 0 km/h
1756 10-11-2008 21:03:02 15.5 C 7.53 g/m*3 15.5 C 0 km/h
1757 10-11-2008 21:15:02 15.5 C 7.53 g/m*3 15.5 C 0 km/h
1758 10-11-2008 21:27:02 15.6 C 7.58 g/m*3 15.6 C 0 km/h
1759 10-11-2008 21:39:02 15.4 C 7.75 g/m*3 15.4 C 0 km/h
1760 10-11-2008 21:51:01 15.2 C 8.05 g/m*3 15.2 C 0 km/h
1761 10-11-2008 22:03:02 15.3 C 7.97 g/m*3 15.3 C 0 km/h
1762 10-11-2008 22:15:02 15.2 C 8.05 g/m*3 15.2 C 0 km/h
1763 10-11-2008 22:27:02 15.5 C 7.93 g/m*3 15.5 C 0 km/h
1764 10-11-2008 22:39:02 15.7 C 7.63 g/m*3 15.7 C 0 km/h
1765 10-11-2008 22:52:02 15.8 C 7.67 g/m*3 15.8 C 0 km/h
1766 10-11-2008 23:04:02 15.8 C 7.54 g/m*3 15.8 C 0 km/h
1767 10-11-2008 23:16:02 15.9 C 7.58 g/m*3 15.9 C 0 km/h
1768 10-11-2008 23:28:02 15.8 C 7.54 g/m*3 15.8 C 0 km/h
1769 10-11-2008 23:40:02 15.8 C 7.54 g/m*3 15.8 C 0 km/h
1770 10-11-2008 23:52:02 16 C 7.49 g/m*3 16 C 0 km/h
1771 11-11-2008 00:04:02 16 C 7.49 g/m*3 16 C 0 km/h
1772 11-11-2008 00:16:02 16 C 7.49 g/m*3 16 C 0 km/h
1773 11-11-2008 00:28:02 15.8 C 7.67 g/m*3 15.8 C 0 km/h
1774 11-11-2008 00:40:02 15.9 C 7.58 g/m*3 15.9 C 0 km/h
1775 11-11-2008 00:52:02 16 C 7.49 g/m*3 16 C 0 km/h
Sensor: Nr:Datum:Temp:Abs-Feuchte:Windchill:Wind:
Aussen-T/F 1776 11-11-2008 01:04:02 16.1 C 7.4 g/m*3 16.1 C 0 km/h
1777 11-11-2008 01:16:02 16.1 C 7.4 g/m*3 16.1 C 0 km/h
1778 11-11-2008 01:28:02 15.9 C 7.45 g/m*3 15.9 C 0 km/h
1779 11-11-2008 01:40:02 15.7 C 7.49 g/m*3 15.7 C 0 km/h
1780 11-11-2008 01:52:02 15.7 C 7.49 g/m*3 15.7 C 0 km/h
1781 11-11-2008 02:04:02 15.4 C 7.36 g/m*3 15.4 C 0 km/h
1782 11-11-2008 02:16:02 15.2 C 7.4 g/m*3 15.2 C 0 km/h
1783 11-11-2008 02:28:02 15.2 C 7.4 g/m*3 15.2 C 0 km/h
1784 11-11-2008 02:40:03 15.3 C 7.31 g/m*3 15.3 C 0 km/h
1785 11-11-2008 02:52:03 15.2 C 7.27 g/m*3 15.2 C 0 km/h
1786 11-11-2008 03:04:03 15.3 C 7.18 g/m*3 15.3 C 0 km/h
1787 11-11-2008 03:16:03 15.1 C 7.1 g/m*3 15.1 C 0 km/h
1788 11-11-2008 03:28:03 14.9 C 7.14 g/m*3 14.9 C 0 km/h
1789 11-11-2008 03:40:03 14.7 C 7.05 g/m*3 14.7 C 0 km/h
1790 11-11-2008 03:52:03 14.6 C 7.01 g/m*3 14.6 C 0 km/h
1791 11-11-2008 04:04:03 14.4 C 6.92 g/m*3 14.4 C 0 km/h
1792 11-11-2008 04:16:03 14.1 C 6.92 g/m*3 14.1 C 0 km/h
1793 11-11-2008 04:28:03 14.1 C 6.92 g/m*3 14.1 C 0 km/h
1794 11-11-2008 04:40:03 14 C 6.88 g/m*3 14 C 0 km/h
1795 11-11-2008 04:52:03 13.6 C 6.94 g/m*3 13.6 C 0 km/h
1796 11-11-2008 05:04:03 13.4 C 6.86 g/m*3 13.4 C 0 km/h
1797 11-11-2008 05:16:03 13.3 C 6.93 g/m*3 13.3 C 0 km/h
1798 11-11-2008 05:28:03 13.4 C 6.97 g/m*3 13.4 C 0 km/h
1799 11-11-2008 05:40:03 13.5 C 6.9 g/m*3 13.5 C 0 km/h
1800 11-11-2008 05:52:03 13.5 C 6.9 g/m*3 13.5 C 0 km/h
Sensor: Nr:Datum:Temp:Abs-Feuchte:Windchill:Wind:
Aussen-T/F 1801 11-11-2008 06:04:03 13.4 C 7.09 g/m*3 13.4 C 0 km/h
1802 11-11-2008 06:16:03 13.3 C 7.16 g/m*3 13.3 C 0 km/h
1803 11-11-2008 06:28:03 13 C 7.37 g/m*3 13 C 0 km/h
1804 11-11-2008 06:40:04 12.7 C 7.57 g/m*3 12.7 C 0 km/h
1805 11-11-2008 06:52:04 12.2 C 7.66 g/m*3 12.2 C 0 km/h
1806 11-11-2008 07:04:02 12 C 8.1 g/m*3 12 C 0 km/h
1807 11-11-2008 07:16:02 12 C 8.21 g/m*3 12 C 0 km/h
1808 11-11-2008 07:28:02 12.1 C 8.26 g/m*3 12.1 C 0 km/h
1809 11-11-2008 07:40:03 13 C 8.17 g/m*3 13 C 0 km/h
1810 11-11-2008 07:52:02 13.3 C 8.09 g/m*3 13.3 C 0 km/h
1811 11-11-2008 08:04:01 13.2 C 8.04 g/m*3 13.2 C 0 km/h
1812 11-11-2008 08:16:02 13.7 C 7.93 g/m*3 13.7 C 0 km/h
1813 11-11-2008 08:28:03 14 C 7.72 g/m*3 14 C 0 km/h
1814 11-11-2008 08:40:01 13.7 C 7.82 g/m*3 13.7 C 0 km/h
1815 11-11-2008 08:52:02 13.8 C 7.98 g/m*3 13.8 C 0 km/h
1816 11-11-2008 09:04:01 13.9 C 8.15 g/m*3 13.9 C 0 km/h
1817 11-11-2008 09:16:02 13.5 C 8.19 g/m*3 13.5 C 0 km/h
1818 11-11-2008 09:28:02 13.5 C 8.42 g/m*3 13.5 C 0 km/h
1819 11-11-2008 09:40:01 13.4 C 8.49 g/m*3 13.4 C 0 km/h
1820 11-11-2008 09:52:02 13.7 C 8.41 g/m*3 13.7 C 0 km/h
1821 11-11-2008 10:04:01 13.8 C 8.22 g/m*3 13.8 C 0 km/h
1822 11-11-2008 10:16:02 13.4 C 7.9 g/m*3 13.4 C 0 km/h
1823 11-11-2008 10:28:02 13.4 C 7.79 g/m*3 13.4 C 0 km/h
1824 11-11-2008 10:40:01 13.4 C 7.56 g/m*3 13.4 C 0 km/h
1825 11-11-2008 10:52:02 13.5 C 7.6 g/m*3 13.5 C 0 km/h
Sensor: Nr:Datum:Temp:Abs-Feuchte:Windchill:Wind:
Aussen-T/F 1826 11-11-2008 11:04:01 13.2 C 6.54 g/m*3 13.2 C 0 km/h
1827 11-11-2008 11:16:02 12 C 6.5 g/m*3 12 C 0 km/h
1828 11-11-2008 11:28:02 11.8 C 6.63 g/m*3 11.8 C 0 km/h
1829 11-11-2008 11:40:02 11.6 C 6.55 g/m*3 11.6 C 0 km/h
1830 11-11-2008 11:52:02 11.8 C 6.31 g/m*3 11.8 C 0 km/h
1831 11-11-2008 12:04:01 11.8 C 6.31 g/m*3 11.8 C 0 km/h
1832 11-11-2008 12:16:02 12 C 6.07 g/m*3 12 C 0 km/h
1833 11-11-2008 12:28:02 12.3 C 5.86 g/m*3 12.3 C 0 km/h
1834 11-11-2008 12:40:01 12.7 C 6.01 g/m*3 12.7 C 0 km/h
1835 11-11-2008 12:52:01 13.1 C 5.93 g/m*3 13.1 C 0 km/h
1836 11-11-2008 13:04:01 13 C 5.56 g/m*3 13 C 0 km/h
1837 11-11-2008 13:16:01 12.9 C 5.75 g/m*3 12.9 C 0 km/h
1838 11-11-2008 13:28:01 13.4 C 5.23 g/m*3 13.4 C 0 km/h
1839 11-11-2008 13:40:01 13.5 C 5.03 g/m*3 13.5 C 0 km/h
1840 11-11-2008 13:52:01 14.1 C 4.73 g/m*3 14.1 C 0 km/h
1841 11-11-2008 14:04:02 13.8 C 4.89 g/m*3 13.8 C 0 km/h
1842 11-11-2008 14:16:01 14.1 C 4.85 g/m*3 14.1 C 0 km/h
1843 11-11-2008 14:28:01 14 C 4.95 g/m*3 14 C 0 km/h
1844 11-11-2008 14:40:02 13.5 C 4.68 g/m*3 13.5 C 0 km/h
1845 11-11-2008 14:52:02 13.1 C 4.56 g/m*3 13.1 C 0 km/h
1846 11-11-2008 15:04:02 13 C 4.54 g/m*3 13 C 0 km/h
1847 11-11-2008 15:16:02 12.8 C 4.7 g/m*3 12.8 C 0 km/h
1848 11-11-2008 15:28:02 12.5 C 4.73 g/m*3 12.5 C 0 km/h
1849 11-11-2008 15:40:02 12.2 C 4.96 g/m*3 12.2 C 0 km/h
1850 11-11-2008 15:52:02 12.1 C 4.93 g/m*3 12.1 C 0 km/h
Sensor: Nr:Datum:Temp:Abs-Feuchte:Windchill:Wind:
Aussen-T/F 1851 11-11-2008 16:04:01 12.1 C 4.93 g/m*3 12.1 C 0 km/h
1852 11-11-2008 16:16:02 12.1 C 4.93 g/m*3 12.1 C 0 km/h
1853 11-11-2008 16:28:03 12.1 C 5.15 g/m*3 12.1 C 0 km/h
1854 11-11-2008 16:40:01 12 C 5.12 g/m*3 12 C 0 km/h
1855 11-11-2008 16:52:01 11.9 C 5.08 g/m*3 11.9 C 0 km/h
1856 11-11-2008 17:04:02 11.9 C 4.98 g/m*3 11.9 C 0 km/h
1857 11-11-2008 17:16:02 11.9 C 4.87 g/m*3 11.9 C 0 km/h
1858 11-11-2008 17:28:03 11.9 C 4.87 g/m*3 11.9 C 0 km/h
1859 11-11-2008 17:40:01 11.7 C 4.92 g/m*3 11.7 C 0 km/h
1860 11-11-2008 17:52:02 11.3 C 4.79 g/m*3 11.3 C 0 km/h
1861 11-11-2008 18:04:01 11.1 C 4.83 g/m*3 11.1 C 0 km/h
1862 11-11-2008 18:16:02 11.3 C 4.79 g/m*3 11.3 C 0 km/h
1863 11-11-2008 18:28:02 11.4 C 4.82 g/m*3 11.4 C 0 km/h
1864 11-11-2008 18:40:01 11.1 C 4.83 g/m*3 11.1 C 0 km/h
1865 11-11-2008 18:52:01 11.2 C 4.87 g/m*3 11.2 C 0 km/h
1866 11-11-2008 19:04:02 11.1 C 4.94 g/m*3 11.1 C 0 km/h
1867 11-11-2008 19:16:01 11.1 C 5.04 g/m*3 11.1 C 0 km/h
1868 11-11-2008 19:28:01 11.1 C 5.14 g/m*3 11.1 C 0 km/h
1869 11-11-2008 19:40:01 11.1 C 5.14 g/m*3 11.1 C 0 km/h
1870 11-11-2008 19:52:01 11.1 C 5.24 g/m*3 11.1 C 0 km/h
1871 11-11-2008 20:04:02 11.1 C 5.24 g/m*3 11.1 C 0 km/h
1872 11-11-2008 20:16:01 11.1 C 5.24 g/m*3 11.1 C 0 km/h
1873 11-11-2008 20:28:01 11 C 5.31 g/m*3 11 C 0 km/h
1874 11-11-2008 20:40:02 11 C 5.41 g/m*3 11 C 0 km/h
1875 11-11-2008 20:52:02 11 C 5.51 g/m*3 11 C 0 km/h
Sensor: Nr:Datum:Temp:Abs-Feuchte:Windchill:Wind:
Aussen-T/F 1876 11-11-2008 21:04:02 10.9 C 5.67 g/m*3 10.9 C 0 km/h
1877 11-11-2008 21:16:02 10.8 C 5.63 g/m*3 10.8 C 0 km/h
1878 11-11-2008 21:28:02 10.8 C 5.73 g/m*3 10.8 C 0 km/h
1879 11-11-2008 21:40:02 10.8 C 5.73 g/m*3 10.8 C 0 km/h
1880 11-11-2008 21:52:02 10.8 C 5.73 g/m*3 10.8 C 0 km/h
1881 11-11-2008 22:04:01 10.7 C 5.8 g/m*3 10.7 C 0 km/h
1882 11-11-2008 22:16:02 10.7 C 5.89 g/m*3 10.7 C 0 km/h
1883 11-11-2008 22:28:02 9.5 C 6.64 g/m*3 9.5 C 0 km/h
1884 11-11-2008 22:40:02 8.9 C 7.1 g/m*3 8.9 C 0 km/h
1885 11-11-2008 22:52:02 8.7 C 7.26 g/m*3 8.7 C 0 km/h
1886 11-11-2008 23:04:01 8.5 C 7.26 g/m*3 8.5 C 0 km/h
1887 11-11-2008 23:16:02 8.4 C 7.21 g/m*3 8.4 C 0 km/h
1888 11-11-2008 23:28:02 8.3 C 7.25 g/m*3 8.3 C 0 km/h
1889 11-11-2008 23:40:01 8.3 C 7.33 g/m*3 8.3 C 0 km/h
1890 11-11-2008 23:52:02 8.3 C 7.33 g/m*3 8.3 C 0 km/h
1891 12-11-2008 00:04:02 8.3 C 7.33 g/m*3 8.3 C 0 km/h
1892 12-11-2008 00:16:03 8.2 C 7.37 g/m*3 8.2 C 0 km/h
1893 12-11-2008 00:28:03 8.1 C 7.32 g/m*3 8.1 C 0 km/h
1894 12-11-2008 00:40:02 8.2 C 7.45 g/m*3 8.2 C 0 km/h
1895 12-11-2008 00:52:01 8.1 C 7.41 g/m*3 8.1 C 0 km/h
1896 12-11-2008 01:04:02 8.3 C 7.5 g/m*3 8.3 C 0 km/h
1897 12-11-2008 01:16:01 8.3 C 7.5 g/m*3 8.3 C 0 km/h
1898 12-11-2008 01:28:01 8.4 C 7.55 g/m*3 8.4 C 0 km/h
1899 12-11-2008 01:40:02 8.5 C 7.51 g/m*3 8.5 C 0 km/h
1900 12-11-2008 01:52:02 8.5 C 7.51 g/m*3 8.5 C 0 km/h
Sensor: Nr:Datum:Temp:Abs-Feuchte:Windchill:Wind:
Aussen-T/F 1901 12-11-2008 02:04:02 8.2 C 7.2 g/m*3 8.2 C 0 km/h
1902 12-11-2008 02:16:02 8.1 C 7.16 g/m*3 8.1 C 0 km/h
1903 12-11-2008 02:28:02 8.1 C 7.16 g/m*3 8.1 C 0 km/h
1904 12-11-2008 02:40:02 8 C 7.03 g/m*3 8 C 0 km/h
1905 12-11-2008 02:53:03 8.1 C 6.99 g/m*3 8.1 C 0 km/h
1906 12-11-2008 03:05:04 8 C 6.94 g/m*3 8 C 0 km/h
1907 12-11-2008 03:17:03 7.6 C 6.85 g/m*3 7.6 C 0 km/h
1908 12-11-2008 03:29:03 7.5 C 6.88 g/m*3 7.5 C 0 km/h
1909 12-11-2008 03:41:01 7.3 C 6.79 g/m*3 7.3 C 0 km/h
1910 12-11-2008 03:53:01 7.1 C 6.79 g/m*3 7.1 C 0 km/h
1911 12-11-2008 04:05:02 7.3 C 6.95 g/m*3 7.3 C 0 km/h
1912 12-11-2008 04:17:02 7.4 C 7 g/m*3 7.4 C 0 km/h
1913 12-11-2008 04:29:02 7.2 C 6.91 g/m*3 7.2 C 0 km/h
1914 12-11-2008 04:41:02 7.5 C 7.04 g/m*3 7.5 C 0 km/h
1915 12-11-2008 04:53:02 7.7 C 7.14 g/m*3 7.7 C 0 km/h
1916 12-11-2008 05:05:02 7.9 C 7.15 g/m*3 7.9 C 0 km/h
1917 12-11-2008 05:17:01 7.9 C 7.15 g/m*3 7.9 C 0 km/h
1918 12-11-2008 05:29:01 7.8 C 7.1 g/m*3 7.8 C 0 km/h
1919 12-11-2008 05:41:02 7.6 C 7.01 g/m*3 7.6 C 0 km/h
1920 12-11-2008 05:53:02 7.4 C 6.92 g/m*3 7.4 C 0 km/h
1921 12-11-2008 06:05:02 7.4 C 6.92 g/m*3 7.4 C 0 km/h
1922 12-11-2008 06:17:02 7.5 C 6.96 g/m*3 7.5 C 0 km/h
1923 12-11-2008 06:29:02 7.8 C 6.94 g/m*3 7.8 C 0 km/h
1924 12-11-2008 06:41:02 8 C 6.7 g/m*3 8 C 0 km/h
1925 12-11-2008 06:53:01 8 C 6.7 g/m*3 8 C 0 km/h
Sensor: Nr:Datum:Temp:Abs-Feuchte:Windchill:Wind:
Aussen-T/F 1926 12-11-2008 07:05:02 7.8 C 6.69 g/m*3 7.8 C 0 km/h
1927 12-11-2008 07:17:01 7.5 C 6.56 g/m*3 7.5 C 0 km/h
1928 12-11-2008 07:29:01 7.4 C 6.44 g/m*3 7.4 C 0 km/h
1929 12-11-2008 07:41:01 7.2 C 6.44 g/m*3 7.2 C 0 km/h
1930 12-11-2008 07:53:02 7.6 C 6.69 g/m*3 7.6 C 0 km/h
1931 12-11-2008 08:05:02 7.8 C 6.61 g/m*3 7.8 C 0 km/h
1932 12-11-2008 08:17:02 7.9 C 6.49 g/m*3 7.9 C 0 km/h
1933 12-11-2008 08:29:02 8 C 6.45 g/m*3 8 C 0 km/h
1934 12-11-2008 08:41:02 8.1 C 6.41 g/m*3 8.1 C 0 km/h
1935 12-11-2008 08:53:02 7.9 C 6.49 g/m*3 7.9 C 0 km/h
1936 12-11-2008 09:05:02 7.8 C 6.45 g/m*3 7.8 C 0 km/h
1937 12-11-2008 09:17:02 7.6 C 6.44 g/m*3 7.6 C 0 km/h
1938 12-11-2008 09:29:02 7.7 C 6.57 g/m*3 7.7 C 0 km/h
1939 12-11-2008 09:41:02 8.2 C 6.7 g/m*3 8.2 C 0 km/h
1940 12-11-2008 09:53:02 8.2 C 6.53 g/m*3 8.2 C 0 km/h
1941 12-11-2008 10:05:01 8.2 C 6.53 g/m*3 8.2 C 0 km/h
1942 12-11-2008 10:17:02 8.9 C 6.57 g/m*3 8.9 C 0 km/h
1943 12-11-2008 10:29:02 9.3 C 6.38 g/m*3 9.3 C 0 km/h
1944 12-11-2008 10:41:01 9.4 C 6.15 g/m*3 9.4 C 0 km/h
1945 12-11-2008 10:53:02 9.6 C 6.32 g/m*3 9.6 C 0 km/h
1946 12-11-2008 11:05:01 9.8 C 6.31 g/m*3 9.8 C 0 km/h
1947 12-11-2008 11:17:02 10.2 C 6.38 g/m*3 10.2 C 0 km/h
1948 12-11-2008 11:29:02 10.7 C 6.48 g/m*3 10.7 C 0 km/h
1949 12-11-2008 11:41:01 10.6 C 6.44 g/m*3 10.6 C 0 km/h
1950 12-11-2008 11:53:01 9.9 C 6.63 g/m*3 9.9 C 0 km/h
Sensor: Nr:Datum:Temp:Abs-Feuchte:Windchill:Wind:
Aussen-T/F 1951 12-11-2008 12:05:01 10.4 C 6.84 g/m*3 10.4 C 0 km/h
1952 12-11-2008 12:17:02 10.5 C 6.89 g/m*3 10.5 C 0 km/h
1953 12-11-2008 12:29:02 10.4 C 6.65 g/m*3 10.4 C 0 km/h
1954 12-11-2008 12:41:01 10.9 C 6.76 g/m*3 10.9 C 0 km/h
1955 12-11-2008 12:53:01 11.2 C 6.39 g/m*3 11.2 C 0 km/h
1956 12-11-2008 13:05:01 11.8 C 6.31 g/m*3 11.8 C 0 km/h
1957 12-11-2008 13:17:01 11.7 C 6.38 g/m*3 11.7 C 0 km/h
1958 12-11-2008 13:29:01 11.1 C 6.04 g/m*3 11.1 C 0 km/h
1959 12-11-2008 13:41:01 11.5 C 6.09 g/m*3 11.5 C 0 km/h
1960 12-11-2008 13:53:01 11.5 C 5.89 g/m*3 11.5 C 0 km/h
1961 12-11-2008 14:05:02 11.2 C 5.88 g/m*3 11.2 C 0 km/h
1962 12-11-2008 14:17:01 11.9 C 5.93 g/m*3 11.9 C 0 km/h
1963 12-11-2008 14:29:01 11.7 C 5.75 g/m*3 11.7 C 0 km/h
1964 12-11-2008 14:41:02 11.2 C 5.78 g/m*3 11.2 C 0 km/h
1965 12-11-2008 14:53:02 10.9 C 5.97 g/m*3 10.9 C 0 km/h
1966 12-11-2008 15:05:02 12 C 5.97 g/m*3 12 C 0 km/h
1967 12-11-2008 15:17:01 12.3 C 5.86 g/m*3 12.3 C 0 km/h
1968 12-11-2008 15:29:01 11.8 C 5.79 g/m*3 11.8 C 0 km/h
1969 12-11-2008 15:41:02 11.1 C 5.84 g/m*3 11.1 C 0 km/h
1970 12-11-2008 15:53:02 10.7 C 5.89 g/m*3 10.7 C 0 km/h
1971 12-11-2008 16:05:02 10.8 C 5.93 g/m*3 10.8 C 0 km/h
1972 12-11-2008 16:17:02 10.8 C 5.93 g/m*3 10.8 C 0 km/h
1973 12-11-2008 16:29:02 10.4 C 5.88 g/m*3 10.4 C 0 km/h
1974 12-11-2008 16:41:02 9.9 C 5.98 g/m*3 9.9 C 0 km/h
1975 12-11-2008 16:53:02 9.6 C 5.95 g/m*3 9.6 C 0 km/h
Sensor: Nr:Datum:Temp:Abs-Feuchte:Windchill:Wind:
Aussen-T/F 1976 12-11-2008 17:05:01 9.5 C 6.01 g/m*3 9.5 C 0 km/h
1977 12-11-2008 17:17:02 9.2 C 6.07 g/m*3 9.2 C 0 km/h
1978 12-11-2008 17:29:02 8.7 C 6.05 g/m*3 8.7 C 0 km/h
1979 12-11-2008 17:41:01 8.3 C 5.98 g/m*3 8.3 C 0 km/h
1980 12-11-2008 17:53:03 8.1 C 6.07 g/m*3 8.1 C 0 km/h
1981 12-11-2008 18:05:02 7.8 C 6.04 g/m*3 7.8 C 0 km/h
1982 12-11-2008 18:17:02 7.8 C 6.2 g/m*3 7.8 C 0 km/h
1983 12-11-2008 18:29:02 7.6 C 6.2 g/m*3 7.6 C 0 km/h
1984 12-11-2008 18:41:02 7.6 C 6.2 g/m*3 7.6 C 0 km/h
1985 12-11-2008 18:53:03 7.8 C 6.28 g/m*3 7.8 C 0 km/h
1986 12-11-2008 19:05:02 7.7 C 6.24 g/m*3 7.7 C 0 km/h
1987 12-11-2008 19:17:02 7.6 C 6.2 g/m*3 7.6 C 0 km/h
1988 12-11-2008 19:29:02 7.8 C 6.37 g/m*3 7.8 C 0 km/h
1989 12-11-2008 19:41:02 7.7 C 6.32 g/m*3 7.7 C 0 km/h
1990 12-11-2008 19:53:02 7.8 C 6.45 g/m*3 7.8 C 0 km/h
1991 12-11-2008 20:05:01 7.9 C 6.41 g/m*3 7.9 C 0 km/h
1992 12-11-2008 20:17:02 7.9 C 6.41 g/m*3 7.9 C 0 km/h
1993 12-11-2008 20:29:02 7.8 C 6.45 g/m*3 7.8 C 0 km/h
1994 12-11-2008 20:41:01 7.7 C 6.41 g/m*3 7.7 C 0 km/h
1995 12-11-2008 20:53:02 7.4 C 6.28 g/m*3 7.4 C 0 km/h
1996 12-11-2008 21:05:01 7.1 C 6.24 g/m*3 7.1 C 0 km/h
1997 12-11-2008 21:17:02 7.1 C 6.32 g/m*3 7.1 C 0 km/h
1998 12-11-2008 21:29:02 7.1 C 6.32 g/m*3 7.1 C 0 km/h
1999 12-11-2008 21:41:01 7.1 C 6.32 g/m*3 7.1 C 0 km/h
2000 12-11-2008 21:53:01 7.1 C 6.4 g/m*3 7.1 C 0 km/h
Sensor: Nr:Datum:Temp:Abs-Feuchte:Windchill:Wind:
Aussen-T/F 2001 12-11-2008 22:05:02 7.2 C 6.44 g/m*3 7.2 C 0 km/h
2002 12-11-2008 22:17:02 7.1 C 6.32 g/m*3 7.1 C 0 km/h
2003 12-11-2008 22:29:02 6.8 C 6.27 g/m*3 6.8 C 0 km/h
2004 12-11-2008 22:41:01 6.3 C 6.14 g/m*3 6.3 C 0 km/h
2005 12-11-2008 22:53:01 6.2 C 6.18 g/m*3 6.2 C 0 km/h
2006 12-11-2008 23:05:02 6 C 6.1 g/m*3 6 C 0 km/h
2007 12-11-2008 23:17:01 5.7 C 6.05 g/m*3 5.7 C 0 km/h
2008 12-11-2008 23:29:01 5.5 C 6.04 g/m*3 5.5 C 0 km/h
2009 12-11-2008 23:41:02 5.2 C 5.92 g/m*3 5.2 C 0 km/h
2010 12-11-2008 23:53:02 5 C 5.84 g/m*3 5 C 0 km/h

Legende:
   Min
   Max


Maximal/Minimal-Werte vom 17.04.2019 - 19.05.2019

Sensor Min Max Avg
Temp
(Aussen-T/F)
2.2 °C
13-05-2019  06:50:00
26.6 °C
24-04-2019  17:05:00
11.51 °C

Die Daten stammen von einer Davis Vantage Pro 2 Wetter-Station und werden unter Linux mit der Software wview2wettercgi und aufbereitet. Alle Angaben erfolgen ohne Gewähr für ihre Vollständigkeit oder Richtigkeit.
Kontakt: Rainer Krienke krienke@uni-koblenz.de . Meine Webseiten an der Uni Koblenz oder privat.
Version: $Revision: 0.78 $